XXV VIVICITTA'
Organizzazione: UISP PROVINCIALE BARI
F.I.D.A.L.
Serie   -   Risultati
Parco 2 Giugno
Data: 06/04/2008   Ora Inizio: 10:30   Ora Fine: 12:00
Cl. Gen. Cat. Cl. Cat. Pett. Atleta F. Cl. Anno Societą Tempi
    1 ASM     1     2 ANDRIANI Ottaviano I 1974 PD131 FIAMME ORO PADOVA 00:36:51
    2 ASM     2   129 MINERVA Francesco I 1978 BA007 CUS BARI 00:37:08
    3 ASM 3   170 NOTARANGELO Matteo Pio I 1977 TE049 ASD BRUNI PUBBL. ATL. VOMANO 00:38:38
    4 ASM 4   130 GUASTAMACCHIA Rodolfo I 1986 BA091 ATL. ADEN  EXPRIVIA MOLFETTA 00:39:21
    5 ASM 5   394 PAZIENZA Arcangelo I 1968 BA005 AMATORI ATL. ACQUAVIVA 00:39:25
    6 ASM 6  1047 TRENTADUE Vincenzo I 1981 BA530 G.S.BRIGATA CORAZZATA PINEROLO 00:39:43
    7 ASM 7   580 BONVINO Gennaro I 1973 BA091 ATL. ADEN  EXPRIVIA MOLFETTA 00:39:49
    8 TM     1   631 GRAZIOSI Vito 1977 BA050 A.S.NICOLAUS ATHLETIC CENTER 00:39:55
    9 MM45     1   913 ROMANO Vincenzo 1963 TA441 G.S. PAOLOTTI - ATL MARTINA 00:40:17
    10 ASM 8  1271 BELLINO Giovanni I 1988 BA007 CUS BARI 00:40:40
    11 TM     2  1627 BELLIZZI Domenico 1975 BA553 ATLETICA ADELFIA 00:40:46
    12 ASM 9   395 PARISI Tommaso I 1986 BA005 AMATORI ATL. ACQUAVIVA 00:41:00
    13 MM35     1  1437 ANCORA Rocco 1970 BR144 ATALAS SAN VITO DEI NORMANNI 00:41:02
    14 ASM 10   398 BALDINI Angelo I 1979 BA005 AMATORI ATL. ACQUAVIVA 00:41:09
    15 ASM 11   576 ZULLO Luigi I 1989 BA091 ATL. ADEN  EXPRIVIA MOLFETTA 00:41:22
    16 MM40     1  1470 SERIO Luigi 1965 BR113 ATLETICA CASALINI 00:41:32
    17 TM     3  1472 MORETTI Donatello 1978 BR146 A.S.D. ATLETICA PEZZE DI GRECO 00:41:32
    18 MM40     2  1468 MINOIA Filomeno 1966 BR113 ATLETICA CASALINI 00:41:40
    19 TM     4  1557 GURPOTTI Francesco 1976 FG277 PODISTICA SANNICANDRO 00:41:52
    20 TM     5  1488 NETTI Pietro 1978 BA550 AVIS IN CORSA CONVERSANO 00:42:06
    21 MM35     2  3546 COLETTA Giuseppe 1970 BA530 G.S.BRIGATA CORAZZATA PINEROLO 00:42:17
    22 ASM 12   579 RIDGER Mark Francesco I 1989 BA091 ATL. ADEN  EXPRIVIA MOLFETTA 00:42:21
    23 MM45     2  1558 LAURIOLA Donato 1963 FG277 PODISTICA SANNICANDRO 00:42:33
    24 MM40     3  1556 FATONE Giuseppe 1965 FG277 PODISTICA SANNICANDRO 00:42:40
    25 MM35     3   759 DIDONNA Bernardino 1970 BA521 A.S. DOF AMATORI TURI 00:42:44
    26 TM     6   373 MELE Giuseppe 1977 BA005 AMATORI ATL. ACQUAVIVA 00:42:46
    27 MM35     4   289 MASDEA Giovanni 1973 BA039 A.S. AMICI STRADA DEL TESORO 00:42:48
    28 MM35     5  1054 D'AMBRA Francesco 1970 BA509 POD. CANUSIUM 2004 00:42:50
    29 MM35     6   384 MONTEMURRO Ciro 1969 BA005 AMATORI ATL. ACQUAVIVA 00:42:50
    30 TM     7  1319 CANNONE Luca 1975 BA507 A.MARATONETI ANDRIESI 00:42:53
    31 ASM 13   360 SCIANNIMANICO Vito I 1987 BA005 AMATORI ATL. ACQUAVIVA 00:42:55
    32 ASM 14   402 GARGANO Francesco I 1991 BA005 AMATORI ATL. ACQUAVIVA 00:43:01
    33 MM40     4   202 CRUDELE Domenico 1967 BA049 G.S.P. III REGIONE AEREA BARI 00:43:05
    34 ASM 15   400 DI LASCIO Marco I 1985 BA005 AMATORI ATL. ACQUAVIVA 00:43:08
    35 MM35     7  3801 LOIZZI Michele 1973 BA535 A.S. ATLETICA POLIGNANO 00:43:12
    36 ASM 16  1272 SPILOTROS Giovanni I 1992 BA007 CUS BARI 00:43:13
    37 MM45     3   258 MISEO Francesco 1963 BA525 CRAL AMIU BARI 00:43:14
    38 TM     8    33 PEPE Luca 1974 BA093 ATLETIC CLUB ALTAMURA 00:43:17
    39 MM50     1   888 SIFANNO Gaetano 1955 BA505 A.S. QUELLI DELLA PINETA 00:43:20
    40 MM40     5   911 CUOCO Michele 1964 TA441 G.S. PAOLOTTI - ATL MARTINA 00:43:24
    41 MM40     6   458 DECILLIS Potito 1964 BA544 ATLETICA DISFIDA DI BARLETTA 00:43:25
    42 ASM 17   867 SCOPECE Ciro I 1982 FG282 A.S.D. ATLETICA SAN SEVERO 00:43:30
    43 ASM 18   131 ZACCHEO Antonio I 1980 BA007 CUS BARI 00:43:32
    44 MM45     4   499 BOVE Nicola 1963 BA544 ATLETICA DISFIDA DI BARLETTA 00:43:36
    45 MM40     7  1329 DANTE Guido 1968 BA507 A.MARATONETI ANDRIESI 00:43:42
    46 MM55     1  1686 ATTOLICO Giuseppe 1951 BA502 A.S.D. MONTEDORO NOCI 00:43:45
    47 MM35     8  1546 VINCI Francesco 1972 BR141 POLISPORT CICLO CLUB FASANO 00:43:55
    48 MM35     9  1246 ZAMMILLO Vincenzo 1970 BR103 ATLETICA AMATORI BRINDISI 00:43:57
    49 TM     9  1053 DI CROCE Michele 1974 BA509 POD. CANUSIUM 2004 00:44:01
    50 MM50     2  1197 LAGRASTA Giuseppe 1958 BA041 ATLETICA PRO CANOSA 00:44:06
    51 MM35    10   461 MIOLLA Bruno 1973 BA544 ATLETICA DISFIDA DI BARLETTA 00:44:08
    52 LIB 1   120 PAGANO Emilio I 1971 BA999 NON TESSERATI FIDAL 00:44:10
    53 MM35    11   617 DILISO Nicola 1973 BA517 ASS. DILETTANTIST BARIMARATONA 00:44:12
    54 MM40     8   846 MAGNIFICO Raffaele 1968 BA029 A.A.'E. MANZARI' CASAMASSIMA 00:44:15
    55 TM    10   847 MELE Antonio 1974 BA029 A.A.'E. MANZARI' CASAMASSIMA 00:44:18
    56 MM35    12   477 RIZZI Michele 1969 BA544 ATLETICA DISFIDA DI BARLETTA 00:44:21
    57 MM35    13    34 PEPE Raffaele 1972 BA093 ATLETIC CLUB ALTAMURA 00:44:25
    58 MM45     5   451 TUPPUTI Giuseppe 1959 BA544 ATLETICA DISFIDA DI BARLETTA 00:44:27
    59 MM45     6  1067 VALENTINO Giuliano 1962 BA509 POD. CANUSIUM 2004 00:44:37
    60 MM45     7    92 FALCO Domenico 1963 BA052 BARI ROAD RUNNERS CLUB 00:44:43
    61 MM45     8  1144 FRONTERA Gianfranco 1959 BA531 A.S.D. SAN NICOLA RUNNERS 00:44:46
    62 MM40     9   850 PALMIERI Pasquale 1968 BA029 A.A.'E. MANZARI' CASAMASSIMA 00:44:50
    63 LIB 2  3651 CONMTE Francesco I 1974 BA999 NON TESSERATI FIDAL 00:44:52
    64 LIB 3  1023 CASCELLA Vincenzo I 1969 BA999 NON TESSERATI FIDAL 00:44:52
    65 TM    11    56 LORUSSO Filippo 1977 BA093 ATLETIC CLUB ALTAMURA 00:44:54
    66 MM40    10   583 ARSALE Vito 1967 BA043 G.S.ATLETICA AMATORI CORATO 00:44:56
    67 MM40    11   932 ARMENISE Michele 1965 BA007 CUS BARI 00:44:59
    68 TM    12   831 L'ABATE Giacomo Orazio 1974 BA546 POD. VALLE D'ITRIA LOCOROTONDO 00:45:06
    69 MM35    14  1672 LIUZZI Domenico 1973 BR141 POLISPORT CICLO CLUB FASANO 00:45:07
    70 TM    13  1455 MAZZARINO Danilo 1985 TA423 CLUB RUNNER 87 VALENTE ARREDI 00:45:08
    71 MM40    12   261 SODANO Onofrio 1965 BA525 CRAL AMIU BARI 00:45:09
    72 ASM 19  1048 GALASSO Gianvito I 1988 BR104 ATL. AMATORI CISTERNINO 00:45:11
    73 ASM 20   135 GAETA Giuliano Antonio I 1992 BA091 ATL. ADEN  EXPRIVIA MOLFETTA 00:45:11
    74 MM45     9  1445 CARRIERO Carmelo 1962 TA423 CLUB RUNNER 87 VALENTE ARREDI 00:45:13
    75 TM    14  1471 COFANO Giuseppe 1976 BR146 A.S.D. ATLETICA PEZZE DI GRECO 00:45:14
    76 MM35    15   830 MAGGI Giorgio 1970 BA546 POD. VALLE D'ITRIA LOCOROTONDO 00:45:16
    77 ASM 21   396 TRAGNI Giulio I 1990 BA005 AMATORI ATL. ACQUAVIVA 00:45:18
    78 MM50     3   162 NANULA Savino 1958 FG285 ATLETICA TRINITAPOLI 00:45:19
    79 MM40    13   484 DICORATO Michele Antoni 1967 BA544 ATLETICA DISFIDA DI BARLETTA 00:45:23
    80 MM40    14   191 GUGLIELMI Nicolo' 1967 BA058 ATLETICA  MONOPOLI 00:45:25
    81 MM35    16   496 BALICE Sergio 1971 BA544 ATLETICA DISFIDA DI BARLETTA 00:45:28
    82 MM50     4   335 DIMASTROCHICCO Ruggero 1956 BA039 A.S. AMICI STRADA DEL TESORO 00:45:31
    83 LIB 4   520 CENTODUCATI Luca I 1991 BA999 NON TESSERATI FIDAL 00:45:35
    84 TM    15  1479 SEMERARO Orazio 1974 BR146 A.S.D. ATLETICA PEZZE DI GRECO 00:45:36
    85 ASM 22  3552 ERAMO Donato I 1985 BA530 G.S.BRIGATA CORAZZATA PINEROLO 00:45:37
    86 MM40    15   295 MONNO Giuseppe 1966 BA039 A.S. AMICI STRADA DEL TESORO 00:45:38
    87 MM50     5   983 DIBISCEGLIA Giuseppe 1955 FG264 A.S. CULTURALE POD. S. STEFANO 00:45:39
    88 TM    16  1475 D'ERRICO Leonardo 1974 BR146 A.S.D. ATLETICA PEZZE DI GRECO 00:45:40
    89 TM    17  1663 MARELLA Domenico 1976 BA521 A.S. DOF AMATORI TURI 00:45:42
    90 MM40    16   474 DI LEO Giuseppe 1966 BA544 ATLETICA DISFIDA DI BARLETTA 00:45:43
    91 ASF     1  1659 MONTRONE Teresa I 1988 BA089 ALTERATLETICA LOCOROTONDO 00:45:45
    92 MM45    10   257 MILETO Francesco 1961 BA525 CRAL AMIU BARI 00:45:50
    93 MM40    17  1353 MANSI Savino 1965 BA507 A.MARATONETI ANDRIESI 00:45:53
    94 MM35    17  1328 D'AVANZO Nicolangelo 1971 BA507 A.MARATONETI ANDRIESI 00:45:54
    95 TM    18    81 PIEPOLI Daniele 1974 BA052 BARI ROAD RUNNERS CLUB 00:45:55
    96 TM    19   456 CARBONE Luigi 1975 BA544 ATLETICA DISFIDA DI BARLETTA 00:45:57
    97 MM50     6  1181 BALDASSARRE Francesco 1957 BA041 ATLETICA PRO CANOSA 00:45:58
    98 MM35    18  1120 TAVANO Lorenzo 1969 BA062 A.S. KANKUDAI 00:46:01
    99 MM45    11   140 BASSI Vincenzo 1963 BA097 SPORT CENTER 00:46:01
    100 MM45    12  3812 SACCENTE Luigi 1961 BA530 G.S.BRIGATA CORAZZATA PINEROLO 00:46:02
    101 MM45    13   375 SERPICO Vito 1961 BA005 AMATORI ATL. ACQUAVIVA 00:46:04
    102 MM55     2  1073 GERMINARIO Giuseppe 1953 BA509 POD. CANUSIUM 2004 00:46:05
    103 ASM 23   578 PRECCHIAZZI Ilario I 1990 BA091 ATL. ADEN  EXPRIVIA MOLFETTA 00:46:09
    104 MM35    19   200 FIORENTINO Paolo 1971 BA049 G.S.P. III REGIONE AEREA BARI 00:46:12
    105 MM40    18   650 CAPORUSSO Domenico 1967 BA587 LA PIETRA 00:46:13
    106 MM45    14   610 PELLEGRINO Michele 1962 BA043 G.S.ATLETICA AMATORI CORATO 00:46:15
    107 MM50     7  1225 CONVERTINI Pietro 1956 BA049 G.S.P. III REGIONE AEREA BARI 00:46:17
    108 MM40    19   973 IPPOLITO PETRILLI Eupli 1968 BA007 CUS BARI 00:46:18
    109 MM55     3  1072 DI NOIA Antonio 1953 BA509 POD. CANUSIUM 2004 00:46:19
    110 TM 20 686 MINECCIA Andrea 1975 BA029 A.A.'E. MANZARI' CASAMASSIMA 00:46:19
    111 MM45    15   757 AIELLO Gaetano 1960 BA521 A.S. DOF AMATORI TURI 00:46:20
    112 MM40    20  1521 POMO Giuseppe 1966 BA507 A.MARATONETI ANDRIESI 00:46:22
    113 MM40    21  1524 TROIA Pietro 1965 BA507 A.MARATONETI ANDRIESI 00:46:23
    114 MM60     1    53 LATERZA Domenico 1946 BA093 ATLETIC CLUB ALTAMURA 00:46:24
    115 TM 21  1075 AMATO Antonio 1975 BA062 A.S. KANKUDAI 00:46:27
    116 TM 22   966 BONADIES Massimiliano 1975 BA007 CUS BARI 00:46:54
    117 MM40    22    85 DE CARO Liberato 1964 BA052 BARI ROAD RUNNERS CLUB 00:46:55
    118 LIB 5  3434 NIRCHIOA Giuseppe I 1985 BA999 NON TESSERATI FIDAL 00:47:00
    119 MM40    23   926 BAGNULO Luigi 1964 BA049 G.S.P. III REGIONE AEREA BARI 00:47:02
    120 MM40 24 447 PELLEGRINO Pietro 1967 BA082 ATLETICA TOMMASO ASSI TRANI 00:47:02
    121 ASF     2  1674 VENTRELLA Immacolata I 1981 BA015 A.S. OLIMPIA CLUB 00:47:03
    122 MM35    20   615 BATTISTA Domenico 1970 BA517 ASS. DILETTANTIST BARIMARATONA 00:47:04
    123 MM40 25   426 MARTINELLI Giovanni 1965 BA555 AVIS PODISTICA MOLA 00:47:05
    124 MM35    21  1552 ANTONACCI Ignazio 1973 BA579 A.S.D. NADIR 00:47:06
    125 MM45    16   450 ACQUAVIVA Savio Marco 1959 BA544 ATLETICA DISFIDA DI BARLETTA 00:47:08
    126 TM 23   595 DI TERLIZZI Luigi 1974 BA043 G.S.ATLETICA AMATORI CORATO 00:47:09
    127 MM40 26   868 CARRABS Giovanni 1964 FG282 A.S.D. ATLETICA SAN SEVERO 00:47:10
    128 ASM 24  1270 RISOLA Vito I 1986 BA007 CUS BARI 00:47:11
    129 MM50     8   214 CISTERNINO Marco 1958 BA049 G.S.P. III REGIONE AEREA BARI 00:47:12
    130 CM     1   530 LAURIERI Michele I 1993 BA541 ALTEATLETICA ALTAMURA 00:47:13
    131 MM45    17  1231 DI CIOMMO Donato 1963 PZ555 PODISTICA HERMES LAVELLO 00:47:14
    132 MM40 27  1330 DE FEO Francesco 1968 BA507 A.MARATONETI ANDRIESI 00:47:16
    133 MM40 28   368 PALUMBO Sergio 1967 BA005 AMATORI ATL. ACQUAVIVA 00:47:18
    134 TM 24   625 DI CAMPI Gaetano 1975 BA050 A.S.NICOLAUS ATHLETIC CENTER 00:47:19
    135 LIB 6  2565 DI TOMA Simone I 1971 BA999 NON TESSERATI FIDAL 00:47:22
    136 ASM 25  1443 PATRUNO Francesco I 1991 BA533 EURATLETICA BISCEGLIE 00:47:26
    137 MM45    18    89 CASSANO Vito 1961 BA052 BARI ROAD RUNNERS CLUB 00:47:28
    138 MM40 29   252 DEL CARMELO Camillo 1966 BA525 CRAL AMIU BARI 00:47:29
    139 MM35    22   357 LOMBARDI Francesco 1970 BA005 AMATORI ATL. ACQUAVIVA 00:47:30
    140 MM40 20   172 ANGARANO Saverio 1966 BA529 A.S. TRANI MARATHON 00:47:31
    141 MM45    19  1304 MANZARI Cristoforo 1961 BA057 ATHLETIC MARATHON SANTERAMO 00:47:32
    142 MM55     4   943 COLAIANNI Scipione 1953 BA007 CUS BARI 00:47:33
    143 LIB 7  3204 CASSANO Donato I 1966 BA999 NON TESSERATI FIDAL 00:47:35
    144 TM 25   916 ROSSINI Gianluca 1976 TA441 G.S. PAOLOTTI - ATL MARTINA 00:47:38
    145 MM50     9   100 SICILIANO Oronzo 1955 BA052 BARI ROAD RUNNERS CLUB 00:47:40
    146 MM45    20  1203 MAROCCIA Luigi 1963 BA041 ATLETICA PRO CANOSA 00:47:43
    147 TM 26  3551 GENTILE Vito 1976 BA530 G.S.BRIGATA CORAZZATA PINEROLO 00:47:47
    148 LIB 8   532 NINIVAGGI Roberto I 1995 BA999 NON TESSERATI FIDAL 00:47:51
    149 TM 27   999 METTA Pasquale 1975 FG264 A.S. CULTURALE POD. S. STEFANO 00:47:54
    150 TM 28   238 ORLANDO Lorenzo 1982 BA586 A.S.D.ASOPICO RUNNER BARI 00:47:54
    151 MM55     5  1327 D'AMATO Tommaso 1953 BA507 A.MARATONETI ANDRIESI 00:47:55
    152 MM40 31   510 PALASCIANO Felice 1964 BA541 ALTEATLETICA ALTAMURA 00:47:55
    153 MM35    23   158 MARZILIANO Angelo 1972 BA014 ATL. FERROTRANVIARIA 00:47:57
    154 TM 29  1641 GUERRA Francesco 1979 BA553 ATLETICA ADELFIA 00:47:59
    155 TM 30    71 LATERZA Francesco 1975 BA093 ATLETIC CLUB ALTAMURA 00:48:00
    156 TM 31  1256 MILELLA Nicola 1975 BA551 ASS. NAZIONALE BERSAGLIERI BAR 00:48:02
    157 TM 32 1030 BACCARO Domenico 1977 BA535 A.S. ATLETICA POLIGNANO 00:48:04
    158 MM40 32  1396 PIAZZOLLA Salvatore 1967 FG284 MARGHERITA DI SAVOIA RUNNERS 00:48:05
    159 ASM 26  1273 ESPOSITO Aurelio I 1992 BA007 CUS BARI 00:48:06
    160 MM60     2   614 ATTOLICO Tommaso 1948 BA517 ASS. DILETTANTIST BARIMARATONA 00:48:07
    161 LIB 9  3813 VISCANTI Onofrio I 1960 BA999 NON TESSERATI FIDAL 00:48:14
    162 MM45    21  1186 D'AGNELLI Michele 1961 BA041 ATLETICA PRO CANOSA 00:48:17
    163 MM40 33    35 NINIVAGGI Arcangelo 1966 BA093 ATLETIC CLUB ALTAMURA 00:48:18
    164 LIB 10  2592 CAPOZZI Giuseppe I 1967 BA999 NON TESSERATI FIDAL 00:48:20
    165 MM50    10   473 CASCELLA Vito 1954 BA544 ATLETICA DISFIDA DI BARLETTA 00:48:21
    166 MM45    22   488 DADDUZIO Ignazio 1959 BA544 ATLETICA DISFIDA DI BARLETTA 00:48:23
    167 MF35     1    24 FONTANAROSA Daniela 1970 BA551 ASS. NAZIONALE BERSAGLIERI BAR 00:48:24
    168 ASM 27   397 VENEZIANO Giuseppe I 1989 BA005 AMATORI ATL. ACQUAVIVA 00:48:25
    169 LIB 11  2567 DI MODUGNO Carlo I 1960 BA999 NON TESSERATI FIDAL 00:48:28
    170 MM50 11 215 D'ORIA Roberto 1956 BA049 G.S.P. III REGIONE AEREA BARI 00:48:28
    171 TM 33  3550 PANTALEO Alberto 1975 BA530 G.S.BRIGATA CORAZZATA PINEROLO 00:48:29
    172 MM40 34   418 CAMPANELLA Pietro 1965 BA555 AVIS PODISTICA MOLA 00:48:31
    173 MM35    24    37 BASILE Domenico 1972 BA093 ATLETIC CLUB ALTAMURA 00:48:32
    174 MM40 35   256 LAVERMICOCCA Gaetano 1965 BA525 CRAL AMIU BARI 00:48:33
    175 TM 34   616 CASSANO Nicola 1978 BA517 ASS. DILETTANTIST BARIMARATONA 00:48:34
    176 MM60     3   107 D'AMBRUOSO Michele 1946 BA052 BARI ROAD RUNNERS CLUB 00:48:34
    177 TM 35   413 CICALA Pierpaolo 1981 BA545 AMATORI ATLETICA TRIGGIANO 00:48:35
    178 LIB 12  2572 LUCARELLI Donato I 1960 BA999 NON TESSERATI FIDAL 00:48:36
    179 MM50 12  1107 MILELLA Francesco 1955 BA062 A.S. KANKUDAI 00:48:38
    180 MM40 36   665 RONGONE Nicola 1965 BA587 LA PIETRA 00:48:43
    181 MM40 37   765 SPECCHIA Luigi 1964 BA521 A.S. DOF AMATORI TURI 00:48:44
    182 MM45    23  1063 ORTOLINO Luciano 1962 BA509 POD. CANUSIUM 2004 00:48:46
    183 MM40 38   594 DI MEO Carlo 1965 BA043 G.S.ATLETICA AMATORI CORATO 00:48:47
    184 MM45    24   591 DE PALMA Piero 1961 BA043 G.S.ATLETICA AMATORI CORATO 00:48:49
    185 MM45    25  1131 CALDARULO Angelo 1959 BA531 A.S.D. SAN NICOLA RUNNERS 00:48:51
    186 MM45    26  1459 RIZZI Giovanni 1960 TA423 CLUB RUNNER 87 VALENTE ARREDI 00:48:52
    187 MM40 39   944 PASCAZIO Alessandro 1964 BA007 CUS BARI 00:48:59
    188 MM35    25   490 SCIUSCO Francesco 1972 BA544 ATLETICA DISFIDA DI BARLETTA 00:49:02
    189 MM40 40   992 ZIRO Giuseppe 1965 FG264 A.S. CULTURALE POD. S. STEFANO 00:49:03
    190 TM 36   493 DI VITTORIO Francesco 1976 BA544 ATLETICA DISFIDA DI BARLETTA 00:49:04
    191 MM50 13   438 FABIANO Domenico 1958 BA082 ATLETICA TOMMASO ASSI TRANI 00:49:04
    192 MM45    27   521 D'APRILE Giovanni 1959 BA541 ALTEATLETICA ALTAMURA 00:49:06
    193 TM 37   844 LONGO Angelo 1974 BA029 A.A.'E. MANZARI' CASAMASSIMA 00:49:06
    194 MM45    28   834 GIANFRATE Gianni 1962 BA546 POD. VALLE D'ITRIA LOCOROTONDO 00:49:07
    195 MM45    29  1453 LUDOVICO Giuseppe 1963 TA423 CLUB RUNNER 87 VALENTE ARREDI 00:49:08
    196 MM40 41  1150 MICCOLI Giacomo 1968 BA531 A.S.D. SAN NICOLA RUNNERS 00:49:09
    197 MM35    26  3547 MARTINELLI Riccardo 1970 BA530 G.S.BRIGATA CORAZZATA PINEROLO 00:49:10
    198 LIB 13  3508 DE PALMA Luigi I 1958 BA999 NON TESSERATI FIDAL 00:49:11
    200 CM     2  3422 LOPRIENO Roberto I 1993 BA020 FIAMMA OLIMPIA PALO 00:49:22
    201 MM40 42  1112 PERNIOLA Carlo 1965 BA062 A.S. KANKUDAI 00:49:22
    202 MM55     6  1108 MORGA Francesco 1949 BA062 A.S. KANKUDAI 00:49:24
    203 ASM 28   534 CEGLIE Giovanni I 1992 BA541 ALTEATLETICA ALTAMURA 00:49:26
    204 MM35    27   843 LAPORTA Luca 1972 BA029 A.A.'E. MANZARI' CASAMASSIMA 00:49:27
    205 MM35    28  1171 VITERBO Vito 1969 BA531 A.S.D. SAN NICOLA RUNNERS 00:49:31
    206 MM35    29   647 AZZONE Luigi 1969 BA587 LA PIETRA 00:49:32
    207 MM50 14  1613 BRUNO Giuseppe 1955 BA502 A.S.D. MONTEDORO NOCI 00:49:33
    208 MM35    30  1166 SPALLINI Luigi 1970 BA531 A.S.D. SAN NICOLA RUNNERS 00:49:33
    209 LIB 14  3469 VITI Vincenzo I 1984 BA999 NON TESSERATI FIDAL 00:49:34
    210 MM40 43  1492 VAVALLE Valter 1964 BA550 AVIS IN CORSA CONVERSANO 00:49:35
    211 LIB 15  2593 ANGELILLO Donato I 1965 BA999 NON TESSERATI FIDAL 00:49:35
    212 MM40 44   370 PONTRANDOLFO Pietro 1966 BA005 AMATORI ATL. ACQUAVIVA 00:49:37
    213 MM55     7  1211 PELLEGRINO Cosimo 1951 BA041 ATLETICA PRO CANOSA 00:49:37
    214 MM45    30  1610 GOFFREDO Vittorio 1963 BA502 A.S.D. MONTEDORO NOCI 00:49:38
    215 TM 38  1306 SPINOSA Filippo 1978 BA057 ATHLETIC MARATHON SANTERAMO 00:49:39
    216 MM50 15  1093 FATICOSO Vito 1957 BA062 A.S. KANKUDAI 00:49:40
    217 LIB 16  1478 DONNALOIA Sante I 1973 BA999 NON TESSERATI FIDAL 00:49:41
    218 MM45    31   213 SFORZA Natale 1961 BA049 G.S.P. III REGIONE AEREA BARI 00:49:42
    219 MM40 45  1480 TEDESCHI Giuseppe 1968 BR146 A.S.D. ATLETICA PEZZE DI GRECO 00:49:42
    220 MM50 16   192 DI BELLO Nicolo' 1956 BA058 ATLETICA  MONOPOLI 00:49:43
    221 MM45    32   471 LATTANZIO Carmine Nicol 1963 BA544 ATLETICA DISFIDA DI BARLETTA 00:49:45
    222 MM45    33   587 CASAFINA Giovanni 1963 BA043 G.S.ATLETICA AMATORI CORATO 00:49:49
    223 MM45    34   622 RANIERI Vito 1960 BA517 ASS. DILETTANTIST BARIMARATONA 00:49:49
    224 MM45    35  1469 PIPOLI Vito 1962 BR113 ATLETICA CASALINI 00:49:50
    225 MM45    36  3542 DE CHIRICO Angelo 1962 BA530 G.S.BRIGATA CORAZZATA PINEROLO 00:49:50
    226 MM45    37   588 CASTRIGNO Savino 1959 BA043 G.S.ATLETICA AMATORI CORATO 00:49:56
    227 LIB 17  2812 TURTURRO Agostino I 1970 BA999 NON TESSERATI FIDAL 00:49:58
    228 MM45    38    46 VENTURA Giovanni 1963 BA093 ATLETIC CLUB ALTAMURA 00:49:59
    229 MM40 46   820 CHIAPPARINO Raffaele 1968 BA546 POD. VALLE D'ITRIA LOCOROTONDO 00:50:00
    230 MM55     8   333 SANTORO Gennaro 1951 BA039 A.S. AMICI STRADA DEL TESORO 00:50:00
    231 TM 39   632 MINCUZZI Massimo 1977 BA050 A.S.NICOLAUS ATHLETIC CENTER 00:50:01
    232 MM35    31   432 ALICINO Riccardo 1969 BA082 ATLETICA TOMMASO ASSI TRANI 00:50:02
    233 MM50 17  1071 PAULICELLI Vincenzo 1956 BA509 POD. CANUSIUM 2004 00:50:02
    234 MM45    39  1089 DE MARIO Pietro 1962 BA062 A.S. KANKUDAI 00:50:03
    235 MM45    40    50 BRUNO Michele 1961 BA093 ATLETIC CLUB ALTAMURA 00:50:03
    236 MM40 47  1326 CRAPOLICCHIO Vincenzo 1964 BA507 A.MARATONETI ANDRIESI 00:50:07
    237 MM45    41  1473 COFANO Vito 1960 BR146 A.S.D. ATLETICA PEZZE DI GRECO 00:50:08
    238 TM 40  1446 COLANGELO Giambattista 1976 TA423 CLUB RUNNER 87 VALENTE ARREDI 00:50:09
    239 MM45    42  1549 PACE Angelo 1962 BA550 AVIS IN CORSA CONVERSANO 00:50:09
    240 MM50 18  1101 LAFORGIA Giovanni 1957 BA062 A.S. KANKUDAI 00:50:11
    241 LIB 18  3048 LAMANNA Biagio I 1955 BA999 NON TESSERATI FIDAL 00:50:17
    242 LIB 19  2820 CIANI Luigi I 1964 BA999 NON TESSERATI FIDAL 00:50:18
    243 MM40 48   205 PIGNATELLI Domenico 1968 BA049 G.S.P. III REGIONE AEREA BARI 00:50:19
    244 MM35    32  1651 VISCEGLIE Gianmarco 1973 BA553 ATLETICA ADELFIA 00:50:19
    245 MM40 49   364 GERMANO Nicola 1968 BA005 AMATORI ATL. ACQUAVIVA 00:50:20
    246 MM40 50  1195 GRIECO Giovanni 1966 BA041 ATLETICA PRO CANOSA 00:50:21
    247 MM45    43  1210 ORBELLO Sabino 1960 BA041 ATLETICA PRO CANOSA 00:50:21
    248 MM50 19  1465 DE BLASIO Antonio 1956 BR113 ATLETICA CASALINI 00:50:23
    249 MM50 20   342 SPIONE Riccardo 1954 BA039 A.S. AMICI STRADA DEL TESORO 00:50:23
    250 MM40 51   454 NAPOLETANO Francesco 1966 BA544 ATLETICA DISFIDA DI BARLETTA 00:50:23
    251 MM45    44   453 GADALETA Vincenzo 1962 BA544 ATLETICA DISFIDA DI BARLETTA 00:50:24
    252 MM35    33   463 SPERA Pasquale 1973 BA544 ATLETICA DISFIDA DI BARLETTA 00:50:25
    253 MM40 52  1185 CASTIGLIEGO Cosimo 1965 BA041 ATLETICA PRO CANOSA 00:50:26
    254 MM45    45   774 SASSO Mauro 1962 BA582 SPORTING C. BISCEGLIE RUNNING 00:50:28
    255 MM35 34 1029 ABBATEPAOLO Vito 1972 BA535 A.S. ATLETICA POLIGNANO 00:50:29
    256 MM50 21    20 DE RUVO Pierangelo 1957 BA551 ASS. NAZIONALE BERSAGLIERI BAR 00:50:30
    257 MM40 53   792 PELLEGRINO Domenico 1964 BA582 SPORTING C. BISCEGLIE RUNNING 00:50:32
    258 TM 41  1449 GADALETO Gaetano 1980 TA423 CLUB RUNNER 87 VALENTE ARREDI 00:50:33
    259 MM35 35   178 DI LERNIA Nicola 1970 BA529 A.S. TRANI MARATHON 00:50:34
    260 MM35 36   253 FUSCO Saverio 1971 BA525 CRAL AMIU BARI 00:50:36
    261 MM55     9  2580 DEL VENTO Vito 1952 BA529 A.S. TRANI MARATHON 00:50:37
    262 MM40 54   755 SANNICANDRO Michele 1967 BA547 A.S.CORRIMONDO BITONTO 00:50:38
    263 MM50 22  1083 COLELLA Gaetano 1958 BA062 A.S. KANKUDAI 00:50:38
    264 MM35 37   240 QUARANTA Carlo 1971 BA586 A.S.D.ASOPICO RUNNER BARI 00:50:39
    265 MM45    46   365 CARBONE Luigi 1963 BA005 AMATORI ATL. ACQUAVIVA 00:50:42
    266 MM40 55  1159 QUAGLIANA Stefano 1966 BA531 A.S.D. SAN NICOLA RUNNERS 00:50:43
    267 MM55    10  1462 RUSSO Angelo 1952 TA423 CLUB RUNNER 87 VALENTE ARREDI 00:50:45
    268 TM 42   899 LAMACCHIA Vincenzo 1974 BA505 A.S. QUELLI DELLA PINETA 00:50:50
    269 MM45    47   429 PANSA Francesco 1959 BA555 AVIS PODISTICA MOLA 00:50:51
    270 MM45    48   609 PICCARRETA Vito 1962 BA043 G.S.ATLETICA AMATORI CORATO 00:50:52
    271 MM40 56   764 PALMISANO Guido 1965 BA521 A.S. DOF AMATORI TURI 00:50:53
    272 MM45    49    90 COLAIEMMA Giovanni 1961 BA052 BARI ROAD RUNNERS CLUB 00:50:54
    273 LIB 20   679 MINECCIA Claudio I 1969 BA999 NON TESSERATI FIDAL 00:50:55
    274 MM40 57   468 DICUONZO Domenico 1964 BA544 ATLETICA DISFIDA DI BARLETTA 00:50:56
    275 LIB 21  2708 TRIGGIANI Giovanni I 1957 BA999 NON TESSERATI FIDAL 00:50:57
    276 MM50 23   949 BOTTALICO Cosimo 1958 BA007 CUS BARI 00:50:58
    277 MM35 38   603 LORIZZO Onofrio 1973 BA043 G.S.ATLETICA AMATORI CORATO 00:50:58
    278 MM60     4  1477 LAGHEZZA Paolo 1947 BR146 A.S.D. ATLETICA PEZZE DI GRECO 00:50:59
    279 MM45    50   344 BARBERA Riccardo 1961 BA039 A.S. AMICI STRADA DEL TESORO 00:51:00
    280 MM50 24   460 DAMATO Francesco 1957 BA544 ATLETICA DISFIDA DI BARLETTA 00:51:00
    281 MM45    51 1045 SAMELE Nicola 1962 BA535 A.S. ATLETICA POLIGNANO 00:51:01
    282 MM45    52   234 GLORIOSO Giacomo 1960 BA586 A.S.D.ASOPICO RUNNER BARI 00:51:01
    284 MM45    53  1206 MERAFINA Nicola Giusepp 1961 BA041 ATLETICA PRO CANOSA 00:51:02
    285 RM     1   531 LAURIERI Silvio I 1995 BA541 ALTEATLETICA ALTAMURA 00:51:02
    287 MM40 58  1494 PALAZZO Antonio 1968 BA550 AVIS IN CORSA CONVERSANO 00:51:03
    288 MM45 54   181 MAGRONE Luigi 1963 BA529 A.S. TRANI MARATHON 00:51:05
    289 LIB 22   908 PAPARELLA Nicola I 1959 BA999 NON TESSERATI FIDAL 00:51:06
    290 MM55 11   195 D'ARIENZO Armando 1952 BA058 ATLETICA  MONOPOLI 00:51:06
    291 TM 43    55 GARZONE Nicola 1975 BA093 ATLETIC CLUB ALTAMURA 00:51:10
    292 MM40 59  1284 ROSELLI Raffaele 1966 BA554 FREE RUNNERS MOLFETTA 00:51:12
    293 MM40 60   840 DE LEONARDIS Nicola 1967 BA029 A.A.'E. MANZARI' CASAMASSIMA 00:51:13
    294 MM45 55   390 MORISCO Gaetano 1959 BA005 AMATORI ATL. ACQUAVIVA 00:51:14
    295 MM40 61  1003 TRAVERSA Nicola 1966 BA025 A.S. AMATORI PUTIGNANO 00:51:18
    296 MM35 39  1343 GUADAGNO Donato 1970 BA507 A.MARATONETI ANDRIESI 00:51:19
    297 MM40 62  1359 MIRACAPILLO Salvatore A 1967 BA507 A.MARATONETI ANDRIESI 00:51:21
    298 MM45 56   511 NATALICCHIO Giuseppe 1961 BA541 ALTEATLETICA ALTAMURA 00:51:22
    299 MM50 25  3541 BALDUCCI Giuseppe 1955 BA530 G.S.BRIGATA CORAZZATA PINEROLO 00:51:22
    300 MM45 57  1509 RUSSO Giuseppe 1959 BA538 ATLETI  VALLE DELL'OFANTO 00:51:23
    301 MM45 58   930 SIVO Marco 1959 BA505 A.S. QUELLI DELLA PINETA 00:51:24
    302 MM50 26  1643 MACCHIA Camillo 1958 BA553 ATLETICA ADELFIA 00:51:24
    303 MM50 27   466 RONDINONE Giuseppe 1957 BA544 ATLETICA DISFIDA DI BARLETTA 00:51:26
    304 LIB 23  2776 FARELLA Vitantonio I 1957 BA999 NON TESSERATI FIDAL 00:51:26
    305 MM45 59    87 ABBINANTE Sebastiano 1961 BA052 BARI ROAD RUNNERS CLUB 00:51:27
    306 MM55 12   106 TARALLO Antonio 1951 BA052 BARI ROAD RUNNERS CLUB 00:51:28
    307 MM40 63  1122 TRAVERSA Giovanni 1964 BA062 A.S. KANKUDAI 00:51:29
    308 ASM 20  1000 PAPAGNI Vincenzo I 1986 FG264 A.S. CULTURALE POD. S. STEFANO 00:51:30
    309 TM 44  1464 AVERSA Antonio 1985 BR113 ATLETICA CASALINI 00:51:31
    310 MM45 60    94 TARALLO Mario 1959 BA052 BARI ROAD RUNNERS CLUB 00:51:32
    311 MM40 64   437 DI TOMA Domenico 1967 BA082 ATLETICA TOMMASO ASSI TRANI 00:51:33
    312 TM 45    14 DI FIDIO Nicola 1976 BA551 ASS. NAZIONALE BERSAGLIERI BAR 00:51:36
    313 MM50 28  1088 DE BENEDICTIS Antonio 1957 BA062 A.S. KANKUDAI 00:51:36
    314 MM45 61   509 LANZONE Nicola 1963 BA541 ALTEATLETICA ALTAMURA 00:51:37
    315 LIB 24  2566 PIZZICHILLO Saverio I 1972 BA999 NON TESSERATI FIDAL 00:51:37
    316 MM50 29   141 LORUSSO Angelo 1958 BA097 SPORT CENTER 00:51:38
    317 LIB 25  3877 AVOLIO Alberto I 1966 BA999 NON TESSERATI FIDAL 00:51:38
    318 MM40 65  1360 MOLFETTA Mario 1968 BA507 A.MARATONETI ANDRIESI 00:51:39
    319 LIB 26   858 DI CIULLO Cosimo I 1952 BA999 NON TESSERATI FIDAL 00:51:40
    320 MM50 30   237 NIGRO Mario 1957 BA586 A.S.D.ASOPICO RUNNER BARI 00:51:40
    321 LIB 27   815 DAMBROSIO Andrea I 1964 BA999 NON TESSERATI FIDAL 00:51:41
    322 TM 46  1460 ROCHIRA Angelo 1976 TA423 CLUB RUNNER 87 VALENTE ARREDI 00:51:42
    323 MM35 40   173 AVVENIENTE Nunzio 1971 BA529 A.S. TRANI MARATHON 00:51:46
    324 MM45 62  1068 ZENTI Nicola 1960 BA509 POD. CANUSIUM 2004 00:51:47
    325 MM50 31   216 DONGIOVANNI Nicola 1958 BA049 G.S.P. III REGIONE AEREA BARI 00:51:47
    326 MM45    63   854 SELVAGGI Angelo Raffael 1963 BA029 A.A.'E. MANZARI' CASAMASSIMA 00:51:49
    327 LIB 28  2591 SCAVO Michele I 1970 BA999 NON TESSERATI FIDAL 00:51:50
    328 MM35 41   264 MASTRANDREA Felice 1972 BA525 CRAL AMIU BARI 00:51:52
    329 TM 47   758 DESIO Toni 1980 BA521 A.S. DOF AMATORI TURI 00:51:55
    330 MM40 66  1393 ZAGARIA Nino 1967 BA507 A.MARATONETI ANDRIESI 00:51:56
    331 MM50 32   455 BAILON Fedele Giuseppe 1958 BA544 ATLETICA DISFIDA DI BARLETTA 00:51:57
    332 TM 48   979 CARRIERI Emanuele 1974 BG170 CRAL BANCA POP. BERGAMO 00:51:58
    333 MM35 42    84 PANEBIANCO Adriano 1969 BA052 BARI ROAD RUNNERS CLUB 00:51:59
    334 MM40 67  1482 CACCIOPPOLI Paolo Vince 1966 BA550 AVIS IN CORSA CONVERSANO 00:51:59
    335 MM40 68    62 CHIRONNA Evangelista 1966 BA093 ATLETIC CLUB ALTAMURA 00:52:00
    336 MM50 33   892 RADICCHIO Biagio 1956 BA505 A.S. QUELLI DELLA PINETA 00:52:00
    337 MM35 43   890 PATRUNO Nicola 1970 BA505 A.S. QUELLI DELLA PINETA 00:52:01
    338 MM50 34  1670 DE CARLO Carmine 1958 TA424 CORRERE E' SALUTE MOTTOLA 00:52:02
    339 MM45    64  1452 GRANILE Vittorio 1961 TA423 CLUB RUNNER 87 VALENTE ARREDI 00:52:03
    340 TM 49 1264 PROSPERO LUIGI 1987 BA551 ASS. NAZIONALE BERSAGLIERI BAR 00:52:04
    341 LIB 29  3238 ATLANTE Vito I 1966 BA999 NON TESSERATI FIDAL 00:52:05
    342 MM45    65   179 DI SAVINO Tommaso 1963 BA529 A.S. TRANI MARATHON 00:52:06
    343 MM45 66   838 BORREGGINE Vito 1963 BA029 A.A.'E. MANZARI' CASAMASSIMA 00:52:07
    344 MM35 44   479 BRUNO Angelo Michele 1970 BA544 ATLETICA DISFIDA DI BARLETTA 00:52:07
    345 MM45 67  1115 RUBINI Giuseppe 1960 BA062 A.S. KANKUDAI 00:52:10
    346 MM45 68    95 TRIGGIANI Bruno 1959 BA052 BARI ROAD RUNNERS CLUB 00:52:11
    347 MM60     5   108 LATROFA Andrea 1948 BA052 BARI ROAD RUNNERS CLUB 00:52:12
    348 TM 50  1312 ADDARIO Vincenzo 1978 BA507 A.MARATONETI ANDRIESI 00:52:12
    349 MM50 35    99 NINNI Rodolfo 1954 BA052 BARI ROAD RUNNERS CLUB 00:52:13
    350 MM50 36  1429 PRETE Romeo 1955 BA580 A.S.D.  AGORA' 00:52:14
    351 MM45 69   245 VALERIO Nicola 1962 BA586 A.S.D.ASOPICO RUNNER BARI 00:52:15
    352 LIB 30   936 AMATO Emanuele I 1964 BA999 NON TESSERATI FIDAL 00:52:16
    353 MM35 45  1254 BERARDI Giuseppe 1973 BA551 ASS. NAZIONALE BERSAGLIERI BAR 00:52:17
    354 TM 51  1257 CARBONARA Michele 1981 BA551 ASS. NAZIONALE BERSAGLIERI BAR 00:52:18
    355 LIB 31   287 FILOGRASSO Michele I 1971 BA999 NON TESSERATI FIDAL 00:52:18
    356 TM 52  1597 MASCIOPINTO Matteo 1974 BA502 A.S.D. MONTEDORO NOCI 00:52:19
    357 MM50 37   938 SILLAVI Giuseppe 1955 LE315 ATLETICA SALENTINA LECCE 00:52:20
    358 MM35 46    40 VISCANTI Francesco 1970 BA093 ATLETIC CLUB ALTAMURA 00:52:20
    359 LIB 32   939 FIGLIOLIA Riccardo I 1962 BA999 NON TESSERATI FIDAL 00:52:21
    360 LIB 33  3470 RAGONE Pasquale I 1982 BA999 NON TESSERATI FIDAL 00:52:22
    361 MM35 47    82 FORNARELLI Alfredo 1969 BA052 BARI ROAD RUNNERS CLUB 00:52:22
    362 MM45 70   491 FILOMENO Pasquale 1960 BA544 ATLETICA DISFIDA DI BARLETTA 00:52:23
    363 MM40 69   957 PETTINI Francesco 1966 BA007 CUS BARI 00:52:24
    364 MM55 13  1074 FILETTO Cosimo Damiano 1952 BA509 POD. CANUSIUM 2004 00:52:25
    365 MM40 70   512 FRANCIA Pasquale 1965 BA541 ALTEATLETICA ALTAMURA 00:52:25
    366 MM50 38  1116 SCARDICCHIO Alfredo 1955 BA062 A.S. KANKUDAI 00:52:26
    367 LIB 34  2612 RICUPERO Domenico I 1981 BA999 NON TESSERATI FIDAL 00:52:27
    368 MM40 71  1164 SCHIRONE Pietro 1965 BA531 A.S.D. SAN NICOLA RUNNERS 00:52:28
    369 MM40 72   993 ZAGARIA Luigi 1965 FG264 A.S. CULTURALE POD. S. STEFANO 00:52:28
    370 MM45 71  1119 STRAZIOTA Michele 1961 BA062 A.S. KANKUDAI 00:52:31
    371 MM55 14   243 SPANO Giovanni 1952 BA586 A.S.D.ASOPICO RUNNER BARI 00:52:32
    372 LIB 35   925 NAPOLETANO Silvo I 1956 BA999 NON TESSERATI FIDAL 00:52:33
    373 MM45 72    13 SCARABAGGIO Albino 1961 BA551 ASS. NAZIONALE BERSAGLIERI BAR 00:52:34
    374 MM45 73 1031 BENEDETTI Dionisio 1963 BA535 A.S. ATLETICA POLIGNANO 00:52:34
    375 MM40 73  1217 SCIANNAMEA Michele 1968 BA041 ATLETICA PRO CANOSA 00:52:35
    376 MM40 74  1057 CATALANO Matteo 1965 BA509 POD. CANUSIUM 2004 00:52:35
    377 TM 53  1128 ARDITO Francesco 1975 BA531 A.S.D. SAN NICOLA RUNNERS 00:52:36
    378 MM40 75   428 PADOVANO Marco 1965 BA555 AVIS PODISTICA MOLA 00:52:37
    379 TM 54  1656 MASTROSIMINI Giacomo 1979 BA011 A.S. ATLETICA CASTELLANA 00:52:37
    380 MM35 48  1345 LEONETTI Emanuele 1973 BA507 A.MARATONETI ANDRIESI 00:52:38
    381 MM40 76  1376 RUTA Francesco 1966 BA507 A.MARATONETI ANDRIESI 00:52:39
    382 MM40 77  1367 PETRUZZELLI Francesco 1967 BA507 A.MARATONETI ANDRIESI 00:52:40
    383 LIB 36    43 PERRUCCI Nicola Giovann I 1963 BA999 NON TESSERATI FIDAL 00:52:40
    384 TM 55  1245 TRIGGIANI Giuseppe Mich 1976 PZ555 PODISTICA HERMES LAVELLO 00:52:41
    385 MM40 78   457 BUTTARI Nicola 1965 BA544 ATLETICA DISFIDA DI BARLETTA 00:52:41
    386 LIB 37  2611 DEL VECCHIO Salvatore I 1959 BA999 NON TESSERATI FIDAL 00:52:42
    387 MM45 74  1124 VALERIO Leonardo 1959 BA062 A.S. KANKUDAI 00:52:43
    388 MM35 49   190 MAIELLARO Vito 1969 BA058 ATLETICA  MONOPOLI 00:52:44
    389 MM50 39   601 LOIODICE Franco 1958 BA043 G.S.ATLETICA AMATORI CORATO 00:52:45
    390 MM60     6  1024 GIANNOSI Mauro 1948 BA082 ATLETICA TOMMASO ASSI TRANI 00:52:46
    391 MM55 15   371 MIALE Mario 1949 BA005 AMATORI ATL. ACQUAVIVA 00:52:46
    392 MM40 79  1648 SCAVO Giuseppe 1966 BA553 ATLETICA ADELFIA 00:52:46
    393 MM50 40   929 SANTACROCE Nicola 1955 BA050 A.S.NICOLAUS ATHLETIC CENTER 00:52:47
    394 LIB 38   800 NANNOLA Nunzio I 1972 BA999 NON TESSERATI FIDAL 00:52:47
    395 LIB 39  2822 TAURO Domenico I 1984 BA999 NON TESSERATI FIDAL 00:52:48
    396 MM40 80    75 RAFAELE Angelo 1964 BA093 ATLETIC CLUB ALTAMURA 00:52:48
    397 MM40 81    86 PICCININNO Antonio 1965 BA052 BARI ROAD RUNNERS CLUB 00:52:49
    398 LIB 40  3355 CEGLIE Antonio I 1962 BA999 NON TESSERATI FIDAL 00:52:49
    399 LIB 41  1261 BELLEZZA Paolo I 1966 BA999 NON TESSERATI FIDAL 00:52:50
    400 MM45 75  3544 SANTARELLA Giuseppe 1963 BA530 G.S.BRIGATA CORAZZATA PINEROLO 00:52:51
    401 LIB 42  3496 MAZZARISI Onofrio I 1992 BA999 NON TESSERATI FIDAL 00:52:51
    402 MM55    16  1323 CELLAMARE Giovanni 1949 BA507 A.MARATONETI ANDRIESI 00:52:51
    403 MM50 41  1614 DE LUCA Nicola 1954 BA502 A.S.D. MONTEDORO NOCI 00:52:52
    404 LIB 43  3450 NASSISI Gaetano I 1965 BA999 NON TESSERATI FIDAL 00:52:52
    405 MM50 42  1070 MASTRODONATO Luciano 1955 BA509 POD. CANUSIUM 2004 00:52:53
    406 LIB 44   805 GARRINELLA Savino I 1973 BA999 NON TESSERATI FIDAL 00:52:53
    407 MM45 76  1091 D'INGEO Marcello 1962 BA062 A.S. KANKUDAI 00:52:54
    408 TM 56  1658 CONVERTINI Orazio 1983 TA441 G.S. PAOLOTTI - ATL MARTINA 00:52:54
    409 MM50 43  1635 FANELLI Giuseppe 1957 BA553 ATLETICA ADELFIA 00:52:55
    410 MM40 82  1547 SIBILIO Giovanni 1966 BR141 POLISPORT CICLO CLUB FASANO 00:52:57
    411 MM40 83   662 NACCI Vito 1968 BA587 LA PIETRA 00:52:57
    412 TM 57  1295 SANTORO Daniele 1981 BA554 FREE RUNNERS MOLFETTA 00:52:58
    413 MM40 84   255 LACALENDOLA Nicola 1967 BA525 CRAL AMIU BARI 00:52:59
    414 MM50 44   263 TEDESCO Vito 1956 BA525 CRAL AMIU BARI 00:52:59
    415 MM45 77   907 LADISA Francesco 1963 BA505 A.S. QUELLI DELLA PINETA 00:52:59
    416 LIB 45  2692 FERRIGNO Stefano I 1971 BA999 NON TESSERATI FIDAL 00:53:01
    417 MM45 78  1106 MALTARINA Pietro 1962 BA062 A.S. KANKUDAI 00:53:02
    418 MM45 79   115 AFFUSO Alfredo Rocco 1961 BA590 POL. LIBERTAS CELLAMARE A.S.D. 00:53:03
    419 TF     1  1291 IANIA Silvana 1983 BA554 FREE RUNNERS MOLFETTA 00:53:03
    420 MM60     7  1620 DE GRAZIA Fortunato Luc 1947 BA502 A.S.D. MONTEDORO NOCI 00:53:04
    421 TF     2  1301 PASSALACQUA Vita Leonar 1975 BA057 ATHLETIC MARATHON SANTERAMO 00:53:04
    422 MM50 45  1548 FERRARA Giuseppe 1958 BR141 POLISPORT CICLO CLUB FASANO 00:53:04
    423 MM40 85  1414 LAGRECA Francesco 1968 BA512 POL.GRAVINA AELECTI S.GRAMEGNA 00:53:05
    424 LIB 46  3194 CARLONE Michele I 1974 BA999 NON TESSERATI FIDAL 00:53:05
    425 MM40 86  1623 NOTARNICOLA Giovanni 1965 BA502 A.S.D. MONTEDORO NOCI 00:53:06
    426 MM35 50   655 DE FILIPPIS Achille 1972 BA587 LA PIETRA 00:53:07
    427 MM35 51 1040 MARTELLOTTA Vito 1969 BA535 A.S. ATLETICA POLIGNANO 00:53:07
    428 MM35 52   465 SARACINO Vincenzo 1972 BA544 ATLETICA DISFIDA DI BARLETTA 00:53:08
    429 MM50 46  1578 L'ABATE Pompeo 1956 BR113 ATLETICA CASALINI 00:53:09
    430 MM50 47  1007 MAGGIPINTO Giuseppe 1955 BA025 A.S. AMATORI PUTIGNANO 00:53:12
    431 TM 58  1294 SPADAVECCHIA Francesco 1974 BA554 FREE RUNNERS MOLFETTA 00:53:13
    432 MM50 48  1281 GERVASIO Sergio Edmondo 1955 BA554 FREE RUNNERS MOLFETTA 00:53:13
    433 TM 59   548 CINIERI Mario Carmelo 1974 BR134 ASS. AMICI ATL.VILLA CASTELLI 00:53:14
    434 LIB 47   391 TROTTI Angelo I 1968 BA999 NON TESSERATI FIDAL 00:53:15
    435 MM40 87   877 BRUNO Domenico 1966 BA505 A.S. QUELLI DELLA PINETA 00:53:15
    436 MM60     8  1015 CASCELLA Leonardo 1944 BA025 A.S. AMATORI PUTIGNANO 00:53:16
    437 MM45 80   441 PALUMBO Vincenzo 1959 BA082 ATLETICA TOMMASO ASSI TRANI 00:53:17
    438 LIB 48  2561 CAFAGNA Nicola I 1973 BA999 NON TESSERATI FIDAL 00:53:18
    439 MM50 49   341 SANTAMARIA Vito Leonard 1957 BA039 A.S. AMICI STRADA DEL TESORO 00:53:19
    440 MM40 88   250 CORTIGIANO Mattia 1967 BA525 CRAL AMIU BARI 00:53:19
    441 MM35 53   514 CASAMASSIMA Andrea 1970 BA541 ALTEATLETICA ALTAMURA 00:53:20
    442 LIB 49  1027 FINA Mario I 1111 BA999 NON TESSERATI FIDAL 00:53:20
    443 MM55    17   982 TRAVERSI Nicola 1949 FG264 A.S. CULTURALE POD. S. STEFANO 00:53:20
    444 MM45 81  1060 FEO Michele 1962 BA509 POD. CANUSIUM 2004 00:53:21
    445 LIB 50   393 FRONTINI Nicola I 1955 BA999 NON TESSERATI FIDAL 00:53:21
    446 MM40 89  1004 NETTI Francesco 1964 BA025 A.S. AMATORI PUTIGNANO 00:53:22
    447 MM50 50   472 LAMACCHIA Francesco 1955 BA544 ATLETICA DISFIDA DI BARLETTA 00:53:22
    448 MM45 82   481 GISSI Giuseppe 1962 BA544 ATLETICA DISFIDA DI BARLETTA 00:53:24
    449 LIB 51   570 FERRANTE Nicola I 1967 BA999 NON TESSERATI FIDAL 00:53:25
    450 MM45 83   828 DELLA ROSA Eliodoro Fra 1962 BA546 POD. VALLE D'ITRIA LOCOROTONDO 00:53:25
    451 MM40 90  1079 CARNIMEO Domenico 1964 BA062 A.S. KANKUDAI 00:53:26
    452 MM45 84  1062 LOPS Vincenzo 1961 BA509 POD. CANUSIUM 2004 00:53:29
    453 MM50 51   785 CAMERO Mario 1958 BA582 SPORTING C. BISCEGLIE RUNNING 00:53:29
    454 MM40 91  1318 CALDARONE Vincenzo 1967 BA507 A.MARATONETI ANDRIESI 00:53:30
    455 MM45 85   754 MORETTI Michele 1963 BA547 A.S.CORRIMONDO BITONTO 00:53:30
    456 MF40     1   406 MELE Anna 1968 BA047 NUOVA ATL. FEMM. ACQUAVIVA 00:53:31
    457 MM50 52  1292 PALBERTI Pietro 1958 BA554 FREE RUNNERS MOLFETTA 00:53:31
    458 MF40     2   596 ELICIO Vittoria 1967 BA043 G.S.ATLETICA AMATORI CORATO 00:53:32
    459 MM50 53    93 SERAFINO Antonio 1958 BA052 BARI ROAD RUNNERS CLUB 00:53:34
    460 LIB 52   568 SIMONE Savino I 1957 BA999 NON TESSERATI FIDAL 00:53:35
    461 LIB 53  3526 NICASTRO Armando I 1962 BA999 NON TESSERATI FIDAL 00:53:36
    462 MM45 86   639 STEFANO Nicola 1960 BA050 A.S.NICOLAUS ATHLETIC CENTER 00:53:37
    463 TM 60  1418 TARTARO Vito 1981 BA512 POL.GRAVINA AELECTI S.GRAMEGNA 00:53:37
    464 TF     3   310 PALMA Eugenia Raffaell 1976 BA039 A.S. AMICI STRADA DEL TESORO 00:53:39
    465 MM35 54  1669 CIARELLA Angelo 1971 TA424 CORRERE E' SALUTE MOTTOLA 00:53:40
    466 TM 61    72 CORNACCHIA Vito 1984 BA093 ATLETIC CLUB ALTAMURA 00:53:41
    467 ASF     3   137 AMERUOSO Miriana I 1992 BA015 A.S. OLIMPIA CLUB 00:53:41
    468 ASM 30   132 ZACCHEO Vincenzo I 1976 BA005 AMATORI ATL. ACQUAVIVA 00:53:42
    469 MM50 54   422 FIORE Tommaso 1958 BA555 AVIS PODISTICA MOLA 00:53:42
    470 LIB 54  2718 CACCIANOCE Marco I 1998 BA999 NON TESSERATI FIDAL 00:53:45
    471 MF45     1   198 FAGGIANO Maria 1960 LE326 C.U.S. LECCE 00:53:47
    472 MM45 87  1148 MARINO Nicola 1962 BA531 A.S.D. SAN NICOLA RUNNERS 00:53:48
    473 MM55    18   942 CALABRESE Vincenzo 1952 BA007 CUS BARI 00:53:49
    474 MM45 88   668 ROMANO Roberto 1965 CO348 ATLETICA COMO 00:53:50
    475 LIB 55  3654 GRIECO Pasquale I 1993 BA999 NON TESSERATI FIDAL 00:53:51
    476 MM50 55    96 LECCE Antonio 1956 BA052 BARI ROAD RUNNERS CLUB 00:53:52
    477 MM50 56  1568 RENNA Raffaele 1958 BA543 MARATHON CLUB MINERVINO 00:53:52
    478 MM45 89  1608 LIPPOLIS Donato 1961 BA502 A.S.D. MONTEDORO NOCI 00:53:53
    479 MM35 55   814 SILVESTRI Luigi 1970 BA099 POL. 'D. PIETRI' GRAVINA 00:53:54
    480 LIB 56  2719 CACCIANONECE Alessandro I 1995 BA999 NON TESSERATI FIDAL 00:53:54
    481 MM35 56   353 CELLAMARE Marco 1970 BA039 A.S. AMICI STRADA DEL TESORO 00:53:55
    482 MM35 57  1500 DE FLORIO Arcangelo 1973 BA545 AMATORI ATLETICA TRIGGIANO 00:53:56
    483 MM50 57  1476 CRESCENZO Luigi 1957 BR146 A.S.D. ATLETICA PEZZE DI GRECO 00:53:56
    484 MM35 58   355 RONCONE Giovanni 1973 BA039 A.S. AMICI STRADA DEL TESORO 00:53:57
    485 MM60     9  1013 COSACCO Michele Clement 1945 BA025 A.S. AMATORI PUTIGNANO 00:53:57
    486 MM40 92  1341 GIANNONE Michele 1967 BA507 A.MARATONETI ANDRIESI 00:53:58
    487 MM55    19   194 ROTONDO Ferruccio 1953 BA058 ATLETICA  MONOPOLI 00:53:58
    488 MM45 90   275 DE SARIO Ernesto 1959 BA520 A.S. BARINCORSA 00:53:59
    489 MM45 91    42 OSTUNI Salvatore 1962 BA093 ATLETIC CLUB ALTAMURA 00:53:59
    490 MM35 59   462 RINALDI Giuseppe 1971 BA544 ATLETICA DISFIDA DI BARLETTA 00:53:59
    491 TM 62    45 CASANOVA Francesco 1976 BA093 ATLETIC CLUB ALTAMURA 00:54:00
    492 TM 63  2861 RANIERI Francesco 1976 BA589 POL. DILETT. GIOVINAZZO 00:54:01
    493 LIB 57  2862 DI MARTINO Michele I 1979 BA999 NON TESSERATI FIDAL 00:54:01
    494 LIB 58  3652 VALLARELLI Paolo I 1995 BA999 NON TESSERATI FIDAL 00:54:02
    495 MM35 60   869 MUSONE Luciano 1973 FG282 A.S.D. ATLETICA SAN SEVERO 00:54:02
    496 MM45 92   415 ANGELILLI Costantino 1963 BA545 AMATORI ATLETICA TRIGGIANO 00:54:03
    497 MM45 93   976 LOSAVIO Giacomo 1962 BA007 CUS BARI 00:54:03
    498 LIB 59  2995 FAIELLO  Stefano I 1988 BA999 NON TESSERATI FIDAL 00:54:04
    499 MM45 94   584 BLASI Riccardo 1959 BA043 G.S.ATLETICA AMATORI CORATO 00:54:09
    500 MM40 93    15 TEDESCO Nicola 1965 BA551 ASS. NAZIONALE BERSAGLIERI BAR 00:54:10
    501 MM45 95   934 GALETTA Onofrio 1963 BA539 POL. ARAME PUGLIA 00:54:10
    502 MM45 96  1447 CORIGLIONE Giuseppe 1963 TA423 CLUB RUNNER 87 VALENTE ARREDI 00:54:12
    503 MM35 61  1340 GALENTINO Giuliano 1970 BA507 A.MARATONETI ANDRIESI 00:54:13
    504 MM40 94   841 GAZZILLI Angelo 1965 BA029 A.A.'E. MANZARI' CASAMASSIMA 00:54:13
    505 TM 64    77 CASTORO Vito 1983 BA093 ATLETIC CLUB ALTAMURA 00:54:14
    506 MM45 97  1637 GADALETA Vito 1961 BA553 ATLETICA ADELFIA 00:54:15
    507 MM50 58   467 RIZZI Cosimo Damiano 1957 BA544 ATLETICA DISFIDA DI BARLETTA 00:54:16
    508 MM50 59  1110 PISANI Francesco 1957 BA062 A.S. KANKUDAI 00:54:16
    509 LIB 60  3905 FERRARO Antonio I 1968 BA999 NON TESSERATI FIDAL 00:54:18
    510 MM40 95   207 ROBERTO Luigi 1964 BA049 G.S.P. III REGIONE AEREA BARI 00:54:19
    511 LIB 61   808 CANNIYTO Salvatore I 1956 BA999 NON TESSERATI FIDAL 00:54:20
    512 TM 65  1001 NOVEMBRE Luigi 1975 BA025 A.S. AMATORI PUTIGNANO 00:54:21
    513 MM55    20  1219 SURIANO Antonio 1953 BA041 ATLETICA PRO CANOSA 00:54:22
    514 MM50 60   232 CALABRESE Vito 1955 BA586 A.S.D.ASOPICO RUNNER BARI 00:54:23
    515 MM40 96  1170 TRAVERSA Michele 1965 BA531 A.S.D. SAN NICOLA RUNNERS 00:54:23
    516 MM40 97   175 AVVENIENTE Vincenzo 1966 BA529 A.S. TRANI MARATHON 00:54:24
    517 MM45 98  1153 PANTALEO Nicola 1963 BA531 A.S.D. SAN NICOLA RUNNERS 00:54:26
    518 LIB 62  2813 SCHINO Dino I 1969 BA999 NON TESSERATI FIDAL 00:54:26
    519 MF35     2   111 BARBARO Serena 1970 BA052 BARI ROAD RUNNERS CLUB 00:54:27
    520 LIB 63  3205 COLELLA Vincenzo I 1966 BA999 NON TESSERATI FIDAL 00:54:28
    521 LIB 64  2641 LOTRIGLIO Antonio I 1972 BA999 NON TESSERATI FIDAL 00:54:29
    522 MM45 99   667 TIMEO Francesco 1960 BA587 LA PIETRA 00:54:31
    523 MM60    10  1504 FILANNINO Pasquale 1947 BA538 ATLETI  VALLE DELL'OFANTO 00:54:32
    524 MM40 98   965 GUTTA' Vitaliano 1964 BA007 CUS BARI 00:54:35
    525 MM45 100   619 GIULIANI Giuseppe 1961 BA517 ASS. DILETTANTIST BARIMARATONA 00:54:36
    526 MM50 61   549 D'IPPOLITO Michele 1956 BR134 ASS. AMICI ATL.VILLA CASTELLI 00:54:38
    527 MM40 99   551 GIOVANE Domenico Martin 1965 BR134 ASS. AMICI ATL.VILLA CASTELLI 00:54:38
    528 LIB 65  2720 CHIECHI Anastasia I 1965 BA999 NON TESSERATI FIDAL 00:54:39
    529 MM50 62   498 MASCOLO Giovanni 1958 BA544 ATLETICA DISFIDA DI BARLETTA 00:54:39
    530 LIB 66  3335 DI C EGLIE Giuseppe I 1986 BA999 NON TESSERATI FIDAL 00:54:40
    531 MM45 101  1139 COPPOLECCHIA Elia 1959 BA531 A.S.D. SAN NICOLA RUNNERS 00:54:40
    532 MF45     2  1513 LATTANZIO Anna Serafina 1960 BA538 ATLETI  VALLE DELL'OFANTO 00:54:41
    533 MM50 63  1100 GIARDINO Domenico 1955 BA062 A.S. KANKUDAI 00:54:41
    534 MM45 102   931 DESIDERATO Carlo 1959 BA007 CUS BARI 00:54:42
    535 MM45 103   772 ZECCHILLO Pasquale 1960 BA582 SPORTING C. BISCEGLIE RUNNING 00:54:42
    536 MM40 100   872 BARRACANE Luigi 1965 BA505 A.S. QUELLI DELLA PINETA 00:54:43
    537 MM65     1   317 TAMMA Vincenzo 1942 BA039 A.S. AMICI STRADA DEL TESORO 00:54:44
    538 MM50 64   101 TRICARICO Giancarlo 1957 BA052 BARI ROAD RUNNERS CLUB 00:54:44
    539 LIB 67   692 FERRANTE Scipiobne I 1963 BA999 NON TESSERATI FIDAL 00:54:45
    540 MM45 104   849 NANNA Michele 1962 BA029 A.A.'E. MANZARI' CASAMASSIMA 00:54:45
    541 MM45 105   636 SILEO Francesco 1963 BA050 A.S.NICOLAUS ATHLETIC CENTER 00:54:46
    542 MM45 106  1671 FERRICELLI Giovanni Cos 1960 TA424 CORRERE E' SALUTE MOTTOLA 00:54:46
    543 MM50 65  1615 PACE Carmine 1958 BA502 A.S.D. MONTEDORO NOCI 00:54:47
    544 LIB 68  2639 DANIELI Pietro I 1966 BA999 NON TESSERATI FIDAL 00:54:47
    545 LIB 69  2615 TURI Nicola I 1971 BA999 NON TESSERATI FIDAL 00:54:48
    546 MM35 62   254 GELAO Lorenzo 1970 BA525 CRAL AMIU BARI 00:54:53
    547 MM40 101  1157 PESOLE Trifone 1968 BA531 A.S.D. SAN NICOLA RUNNERS 00:54:53
    548 MM40 102  1525 TROIA Nicola 1968 BA507 A.MARATONETI ANDRIESI 00:54:54
    549 MM60    11  1009 TRIA Domenico 1948 BA025 A.S. AMATORI PUTIGNANO 00:54:54
    550 MF40     3   112 CITTADINO Annunziata 1966 BA052 BARI ROAD RUNNERS CLUB 00:54:55
    551 MM45 107   960 PALLARA Mauro 1962 BA007 CUS BARI 00:54:55
    552 MM50 66  1201 LOPS Sabino 1958 BA041 ATLETICA PRO CANOSA 00:54:56
    553 LIB 70   807 DELCURATOLO Angelo I 1973 BA999 NON TESSERATI FIDAL 00:54:56
    554 LIB 71  3555 GIORDANO Angelo I 1976 BA999 NON TESSERATI FIDAL 00:54:56
    555 MM35 63  1435 LOPEZ Antonio 1970 BA580 A.S.D.  AGORA' 00:54:57
    556 MM45 108   937 DANIELE Vittorio 1963 LE315 ATLETICA SALENTINA LECCE 00:54:57
    557 MM60    12   248 INDENNIDATE Francesco 1945 BA049 G.S.P. III REGIONE AEREA BARI 00:54:57
    558 MM40 103  1293 DE GENNARO Francesco 1967 BA554 FREE RUNNERS MOLFETTA 00:54:58
    559 MF35     3   281 SANSEVERINO Anna 1971 BA520 A.S. BARINCORSA 00:54:58
    560 MM40 104   260 MORETTI Giovanni 1965 BA525 CRAL AMIU BARI 00:54:59
    561 MM55    21  1090 DE PALMA Sergio 1953 BA062 A.S. KANKUDAI 00:54:59
    562 MM60    13  1506 LUCE Vincenzo 1945 BA538 ATLETI  VALLE DELL'OFANTO 00:54:59
    563 MM45 109  1095 FERRANTE Nicola 1962 BA062 A.S. KANKUDAI 00:55:00
    564 LIB 72  3822 MASELLIS Gaetano I 1964 BA999 NON TESSERATI FIDAL 00:55:01
    565 LIB 73  3273 PENNACCHIA Piero I 1970 BA999 NON TESSERATI FIDAL 00:55:01
    566 MM50 67  1104 LOBALSAMO Michele 1957 BA062 A.S. KANKUDAI 00:55:02
    567 MM50 68   423 GINO Nicola 1956 BA555 AVIS PODISTICA MOLA 00:55:02
    568 MM60    14  1014 BIANCO Giovanni 1944 BA025 A.S. AMATORI PUTIGNANO 00:55:03
    569 MM35 64  1114 PASCAZIO Lorenzo 1970 BA062 A.S. KANKUDAI 00:55:04
    570 LIB 74  3796 EVANGELISTA Marco I 1963 BA999 NON TESSERATI FIDAL 00:55:05
    571 MM45 110  1657 SPERTI Ernesto 1960 BA011 A.S. ATLETICA CASTELLANA 00:55:06
    572 MM55    22   875 BIALLO Ugo 1951 BA505 A.S. QUELLI DELLA PINETA 00:55:07
    573 MM55    23   634 SCALISI Francesco 1953 BA050 A.S.NICOLAUS ATHLETIC CENTER 00:55:08
    574 CM     3   535 CEGLIA Giovanni I 1993 BA541 ALTEATLETICA ALTAMURA 00:55:09
    575 MM50 69  1309 NARDELLI Giovanni 1957 BR143 PODISTICA CAROVIGNO 00:55:09
    576 LIB 75  3276 MARVULLI Michele I 1950 BA999 NON TESSERATI FIDAL 00:55:10
    577 LIB 76  3655 AMENDOLAGINE Ivano I 1992 BA999 NON TESSERATI FIDAL 00:55:10
    578 LIB 77   519 FRANCIA Francesco I 1990 BA999 NON TESSERATI FIDAL 00:55:11
    579 MM45 111  1550 LOVECCHIO Nicola 1961 BA550 AVIS IN CORSA CONVERSANO 00:55:11
    580 LIB 78  2558 COACRI Maurizio I 1974 BA999 NON TESSERATI FIDAL 00:55:12
    581 MM45 112   653 CUTRIGNELLI Angelo 1961 BA587 LA PIETRA 00:55:13
    582 MM65 2   635 SEBASTIANI Pietro 1943 BA050 A.S.NICOLAUS ATHLETIC CENTER 00:55:14
    583 MM55    24  1241 SALVATORE Antonio Carmi 1953 PZ555 PODISTICA HERMES LAVELLO 00:55:15
    584 MM55    25   157 LISI Antonio 1953 BA014 ATL. FERROTRANVIARIA 00:55:17
    585 LIB 79  3488 COLUCCI Giuseppe I 1954 BA999 NON TESSERATI FIDAL 00:55:18
    586 MM45 113   752 FRISONE Pasquale 1962 BA547 A.S.CORRIMONDO BITONTO 00:55:19
    587 LIB 80  2707 MIDEA Giuseppe I 1969 BA999 NON TESSERATI FIDAL 00:55:20
    588 MM40 105   848 NANNA Francesco 1964 BA029 A.A.'E. MANZARI' CASAMASSIMA 00:55:20
    589 MM40 106   126 SPINA Antonio 1964 FG257 G.S. ATL. SAN FERDINANDO 00:55:21
    590 LIB 81  1262 BIANCO Stefano I 1979 BA999 NON TESSERATI FIDAL 00:55:22
    591 MM50 70  1006 VINELLA Giuseppe 1954 BA025 A.S. AMATORI PUTIGNANO 00:55:22
    592 MM50 71  1207 MINERVA Nicola Rosario 1956 BA041 ATLETICA PRO CANOSA 00:55:23
    593 LIB 82  1495 CLARIZIO Antonio I 1963 BA999 NON TESSERATI FIDAL 00:55:23
    594 MM45 114  1676 BOMBINO Paolo 1960 BA099 POL. 'D. PIETRI' GRAVINA 00:55:24
    595 MM45 115  1232 GENTILE Mauro 1963 PZ555 PODISTICA HERMES LAVELLO 00:55:25
    596 MM35 65  1388 TOTA Giuseppe 1972 BA507 A.MARATONETI ANDRIESI 00:55:25
    597 MM50 72   284 VISAGGI Nicola 1956 BA520 A.S. BARINCORSA 00:55:26
    598 MM40 107   350 MORETTI Angelo 1966 BA039 A.S. AMICI STRADA DEL TESORO 00:55:26
    599 MM70     1   436 DE TOMA Andrea 1938 BA082 ATLETICA TOMMASO ASSI TRANI 00:55:27
    600 MM45 116   657 GAGLIARDI Rocco 1960 BA587 LA PIETRA 00:55:28
    601 LIB 83  3568 AMENDOLAGINE Domenico I 1959 BA999 NON TESSERATI FIDAL 00:55:29
    602 MM50 73    98 MORETTI Biagio 1958 BA052 BARI ROAD RUNNERS CLUB 00:55:29
    603 MM50 74   476 SGUERA Oronzo 1957 BA544 ATLETICA DISFIDA DI BARLETTA 00:55:30
    604 MM40 108  1259 PETROLLA Giovanni 1967 BA551 ASS. NAZIONALE BERSAGLIERI BAR 00:55:30
    605 MM35 66    83 PALMIOTTO Carlo 1970 BA052 BARI ROAD RUNNERS CLUB 00:55:31
    606 MM50 75   586 CARENZA Michele 1958 BA043 G.S.ATLETICA AMATORI CORATO 00:55:32
    608 MM40 109   486 BALZANO Francesco 1967 BA544 ATLETICA DISFIDA DI BARLETTA 00:55:32
    609 MM50 76   810 CALIA Mario 1958 BA099 POL. 'D. PIETRI' GRAVINA 00:55:33
    610 LIB 84  2631 SALVEMINI Ruggiero I 1982 BA999 NON TESSERATI FIDAL 00:55:34
    611 LIB 85   165 MODEO Massimo I 1970 BA999 NON TESSERATI FIDAL 00:55:35
    612 LIB 86  3045 GENNARINI Vincenzo I 1966 BA999 NON TESSERATI FIDAL 00:55:36
    613 MM45 117   613 STRIPPOLI Vincenzo 1959 BA043 G.S.ATLETICA AMATORI CORATO 00:55:36
    614 MM45 118    88 CALDAROLA Francesco 1962 BA052 BARI ROAD RUNNERS CLUB 00:55:37
    615 MM60    15  1163 SCALERA Giacomo 1948 BA531 A.S.D. SAN NICOLA RUNNERS 00:55:38
    616 MM45 119  1190 DI STASI Matteo 1960 BA041 ATLETICA PRO CANOSA 00:55:38
    617 MM50 77   863 LUISI Luigi 1955 BA578 ATLETICA AUFIDUS 00:55:39
    618 LIB 87   559 AGOSTINACCHIO Nicola I 1974 BA999 NON TESSERATI FIDAL 00:55:40
    619 MM40 110  1545 BACCASSINO Pantaleo 1965 LE611 SPORT  RUNNING VEGLIE 00:55:40
    620 LIB 88  2573 LOIACONO Domenico I 1963 BA999 NON TESSERATI FIDAL 00:55:42
    621 MM45 120  1649 STAFFIERI Vincenzo 1961 BA553 ATLETICA ADELFIA 00:55:44
    622 TF     4  1250 VALERIO Maria Rosa 1977 BA551 ASS. NAZIONALE BERSAGLIERI BAR 00:55:45
    623 MM45 121   658 GENCHI Donato 1959 BA587 LA PIETRA 00:55:45
    624 LIB 89   502 SERVIDIO Francesco I 1961 BA999 NON TESSERATI FIDAL 00:55:47
    625 MM35 67  1056 PELLEGRINO Fabio 1973 BA509 POD. CANUSIUM 2004 00:55:47
    626 LIB 90  2857 MAZZILLI Antonio I 1960 BA999 NON TESSERATI FIDAL 00:55:48
    627 LIB 91   696 VITERBO Saverio I 1964 BA999 NON TESSERATI FIDAL 00:55:49
    628 MM50 78    31 SARDONE Angelo 1955 BA093 ATLETIC CLUB ALTAMURA 05:55:50
    629 MM60    16   935 TRAVERSA Nicola Vito 1944 BA539 POL. ARAME PUGLIA 05:55:50
    630 MM60    17  1378 SANTOVITO Giovanni 1945 BA507 A.MARATONETI ANDRIESI 05:55:51
    631 LIB 92  2805 SCARAMUZZI Andrea I 1956 BA999 NON TESSERATI FIDAL 05:55:51
    632 LIB 93   799 TEDESCHI Michele I 1962 BA999 NON TESSERATI FIDAL 05:55:52
    633 MM40 111  1365 NOTARPIETRO Vito 1965 BA507 A.MARATONETI ANDRIESI 00:55:53
    634 MM35 68  1523 MARIANI Vincenzo 1969 BA507 A.MARATONETI ANDRIESI 00:55:54
    635 MM55    26   103 LABIANCA Luca 1953 BA052 BARI ROAD RUNNERS CLUB 00:55:54
    636 LIB 94   802 LANOTTE Francesco Paolo I 1979 BA999 NON TESSERATI FIDAL 00:55:55
    637 MM40 112   134 RAMUNNO Paolo 1966 BA005 AMATORI ATL. ACQUAVIVA 00:55:55
    638 MM50 79  1289 DE GIOIA Giuseppe Anton 1954 BA554 FREE RUNNERS MOLFETTA 00:55:56
    639 MM55    27  1205 MASSA Sabino 1951 BA041 ATLETICA PRO CANOSA 00:55:56
    640 MM45 122  1193 FORTE Roberto 1961 BA041 ATLETICA PRO CANOSA 00:55:57
    641 MM45 123  1077 BITETTO Giacomo 1963 BA062 A.S. KANKUDAI 00:56:00
    642 LIB 95  3399 LUPOLI Vincenzo I 1967 BA999 NON TESSERATI FIDAL 00:56:01
    643 MM40 113  1303 LAZAZZERA Giuseppe 1968 BA057 ATHLETIC MARATHON SANTERAMO 00:56:02
    644 MM45 124   988 ROMANO Antonio 1963 FG264 A.S. CULTURALE POD. S. STEFANO 00:56:02
    645 LIB 96   806 LASALA Marianna I 1983 BA999 NON TESSERATI FIDAL 00:56:03
    646 MM45 125   376 BRUNO Giuseppe 1962 BA005 AMATORI ATL. ACQUAVIVA 00:56:04
    647 MM45 126  1064 RICCARDI Michele 1959 BA509 POD. CANUSIUM 2004 00:56:05
    648 MF45     3  1050 DE CORATO Grazia 1961 BA509 POD. CANUSIUM 2004 00:56:05
    649 MM45 127  1215 SARDELLA Sabino Maria c 1960 BA041 ATLETICA PRO CANOSA 00:56:06
    650 MM65 3   309 CATALANO Nicola 1942 BA039 A.S. AMICI STRADA DEL TESORO 00:56:07
    651 MM40 114   753 MORETTI Filomeno 1966 BA547 A.S.CORRIMONDO BITONTO 00:56:08
    652 MM45 128   961 CRECCHIO Carmine 1961 BA007 CUS BARI 00:56:08
    653 MM50 80  1474 CARDONE Enrico 1956 BR146 A.S.D. ATLETICA PEZZE DI GRECO 00:56:10
    654 MM35 69   487 DICORATO Patrizio Mose' 1969 BA544 ATLETICA DISFIDA DI BARLETTA 00:56:10
    655 LIB 97  3616 VIGNOLA Marco I 1972 BA999 NON TESSERATI FIDAL 00:56:11
    656 MM55    28   912 MIRABILE Francesco 1952 TA441 G.S. PAOLOTTI - ATL MARTINA 00:56:12
    657 MM40 115  1279 PICCIONE Giovanni 1966 BR139 GYMNASIUM S. PANCRAZIO 00:56:13
    658 MM35 70   812 DEL VECCHIO Michele 1971 BA099 POL. 'D. PIETRI' GRAVINA 00:56:14
    659 MM45 129   987 PACILETTI Vito 1963 FG264 A.S. CULTURALE POD. S. STEFANO 00:56:14
    660 LIB 98 3040 LARICCHIA Rocco I 1967 BA999 NON TESSERATI FIDAL 00:56:14
    661 LIB 99  2758 CACACE Filippo I 1967 BA999 NON TESSERATI FIDAL 00:56:15
    662 MF45     4  1356 MASTRODONATO Carmelina 1962 BA507 A.MARATONETI ANDRIESI 00:56:15
    663 MM55    29  1331 DELL'ENDICE Antonio 1950 BA507 A.MARATONETI ANDRIESI 00:56:16
    664 MM40 116  1448 FERA Giuseppe Claudio 1965 TA423 CLUB RUNNER 87 VALENTE ARREDI 00:56:16
    665 LIB   100  3955 NARRACCI Francesco I 1970 BA999 NON TESSERATI FIDAL 00:56:17
    666 MM40 117  1162 ROMAGNOLO Diego 1965 BA531 A.S.D. SAN NICOLA RUNNERS 00:56:19
    667 MM45 130  1154 PAPPAGALLO Sebastiano 1959 BA531 A.S.D. SAN NICOLA RUNNERS 00:56:20
    668 MM55    30  1339 GALENTINO Antonio 1950 BA507 A.MARATONETI ANDRIESI 00:56:20
    669 MM45 131  1086 DI BARI Nicola 1959 BA062 A.S. KANKUDAI 00:56:20
    670 MM45 132   977 GENTILE Francesco 1962 BA007 CUS BARI 00:56:21
    671 TM 66  1404 TATULLO Alessandro 1977 FG284 MARGHERITA DI SAVOIA RUNNERS 00:56:22
    672 LIB 101  2516 DEL VESCOVO Carlo I 1978 BA999 NON TESSERATI FIDAL 00:56:22
    673 MM45 133   124 DITROIA Matteo 1962 FG257 G.S. ATL. SAN FERDINANDO 00:56:23
    674 MM50 81  1677 BOSCO Giuseppe 1958 BA099 POL. 'D. PIETRI' GRAVINA 00:56:24
    675 LIB 102  3614 VACCA Francesco I 1965 BA999 NON TESSERATI FIDAL 00:56:24
    676 MM35 71   117 DI NATALE Marco 1973 BA590 POL. LIBERTAS CELLAMARE A.S.D. 00:56:25
    677 MM50 82   489 CILLI Raffaele 1958 BA544 ATLETICA DISFIDA DI BARLETTA 00:56:26
    678 MM45 134  1066 TODISCO Nicola 1959 BA509 POD. CANUSIUM 2004 00:56:28
    679 LIB 103   804 LOSURDO Giuseppe I 1949 BA999 NON TESSERATI FIDAL 00:56:30
    680 LIB 104  2601 GIULIANI Vito I 1954 BA999 NON TESSERATI FIDAL 00:56:31
    681 MM40 118   645 SILLETTI Angelo 1967 BA584 L'ATLETICA DEL COLLE 00:56:33
    682 MM55    31    30 PALASCIANO Giuseppe 1952 BA093 ATLETIC CLUB ALTAMURA 00:56:34
    683 TM 67    65 PALASCIANO Luca 1981 BA093 ATLETIC CLUB ALTAMURA 00:56:34
    684 LIB 105  3538 LOIACONO Giuseppe I 1958 BA999 NON TESSERATI FIDAL 00:56:35
    685 MM65 4  1454 MARTEMUCCI Vincenzo 1943 TA423 CLUB RUNNER 87 VALENTE ARREDI 00:56:36
    686 MM55    32   325 COLANTUONO Pasquale 1953 BA039 A.S. AMICI STRADA DEL TESORO 00:56:37
    687 MM50 83   663 PIZZUTO Armando 1954 BA587 LA PIETRA 00:56:37
    688 MM40 119   952 BALENA Pasquale 1966 BA007 CUS BARI 00:56:38
    689 MM40 120   497 FERGOLA Roberto 1965 BA544 ATLETICA DISFIDA DI BARLETTA 00:56:39
    690 LIB 106  3534 SODANO Michele I 1962 BA999 NON TESSERATI FIDAL 00:56:40
    691 MM50 84  1350 LORUSSO Domenico 1957 BA507 A.MARATONETI ANDRIESI 00:56:41
    692 LIB 107   164 SASSANELLIO Luigi I 1970 BA999 NON TESSERATI FIDAL 00:56:42
    693 MM50 85   513 COLAMONACO Diego 1956 BA541 ALTEATLETICA ALTAMURA 00:56:42
    694 LIB 108  3976 MASTRAPASQUA Antonio I 1969 BA999 NON TESSERATI FIDAL 00:56:45
    695 LIB 109  1690 CONCINA Alessandro I 1965 BA999 NON TESSERATI FIDAL 00:56:45
    696 LIB 110   803 DAMATO Michele I 1959 BA999 NON TESSERATI FIDAL 00:56:46
    697 MM35 72   505 SPANO Domenico 1972 BA541 ALTEATLETICA ALTAMURA 00:56:46
    698 TM 68  1160 QUINTAVALLE Gianluca 1980 BA531 A.S.D. SAN NICOLA RUNNERS 00:56:47
    699 MM55    33   324 CARDETTA Leonardo 1951 BA039 A.S. AMICI STRADA DEL TESORO 00:56:48
    700 TM 69  1596 CARIELLO Francesco 1975 BA502 A.S.D. MONTEDORO NOCI 00:56:48
    701 MM45 135  1096 FINIZIO Fabio 1963 BA062 A.S. KANKUDAI 00:56:49
    702 MM50 86  1505 LASALA Ignazio 1958 BA538 ATLETI  VALLE DELL'OFANTO 00:56:49
    703 MM35 73    38 LORE' Michele 1969 BA093 ATLETIC CLUB ALTAMURA 00:56:50
    704 MM40 121   296 DANZA Paolo 1965 BA039 A.S. AMICI STRADA DEL TESORO 00:56:51
    705 MM45 136   589 CIPRI Domenico 1963 BA043 G.S.ATLETICA AMATORI CORATO 00:56:53
    706 LIB 111  2640 DI BARI Salvatore I 1968 BA999 NON TESSERATI FIDAL 00:56:54
    707 LIB 112  3069 MAGGI Sebastiano I 1966 BA999 NON TESSERATI FIDAL 00:56:55
    708 LIB 113  2997 DRAGONE  Francesco I 1972 BA999 NON TESSERATI FIDAL 00:56:55
    709 MM45 137   894 ROMITO Nicola 1960 BA505 A.S. QUELLI DELLA PINETA 00:56:56
    710 TF     5  1498 TIMEO Rosangela 1982 BA062 A.S. KANKUDAI 00:56:57
    711 MM50 87  1258 CARBONARA Vito 1954 BA551 ASS. NAZIONALE BERSAGLIERI BAR 00:56:57
    712 MM45 138   978 SCANNICCHIO Roberto 1963 BA007 CUS BARI 00:56:58
    713 MM50 88  1069 FERRANTE Antonio 1958 BA509 POD. CANUSIUM 2004 00:56:59
    714 MM55    34  1121 TIMEO Giovanni 1953 BA062 A.S. KANKUDAI 00:56:59
    715 MM40 122  1337 DI RUVO Antonio 1968 BA507 A.MARATONETI ANDRIESI 00:57:00
    716 MM45 139  1249 FALANGONE Giuseppe Pant 1961 BR139 GYMNASIUM S. PANCRAZIO 00:57:00
    717 MM60    18   642 GIOVE Domenico 1947 BA584 L'ATLETICA DEL COLLE 00:57:01
    718 LIB 114   378 MELE Domenico Virgili I 1964 BA999 NON TESSERATI FIDAL 00:57:01
    719 MM40 123   177 CORTELLINO Carlantonio 1966 BA529 A.S. TRANI MARATHON 00:57:02
    720 LIB 115  3404 COSMO Pasqua I 1973 BA999 NON TESSERATI FIDAL 00:57:05
    721 LIB 116   208 REDAVID Antonio I 1966 BA999 NON TESSERATI FIDAL 00:57:06
    722 LIB 117  3807 PACCIONE Carlo I 1939 BA999 NON TESSERATI FIDAL 00:57:06
    723 LIB 118  3791 RUTA Francesco I 1976 BA999 NON TESSERATI FIDAL 00:57:07
    724 MM40 124  1335 DI FRANCO Luigi 1966 BA507 A.MARATONETI ANDRIESI 00:57:08
    725 LIB 119  3489 LAGUARAGNELLA Francesco I 1960 BA999 NON TESSERATI FIDAL 00:57:08
    726 MM45 140  1489 IANNELLI Pasquale 1960 BA550 AVIS IN CORSA CONVERSANO 00:57:09
    727 MM35 74   866 SOLLAZZO Raffaele 1969 BA578 ATLETICA AUFIDUS 00:57:10
    728 MM40 125   962 FUMAROLA Luciano 1968 BA007 CUS BARI 00:57:11
    729 LIB 120  1269 PANEBIANCO Laura I 1983 BA999 NON TESSERATI FIDAL 00:57:11
    730 MM50 89   886 PANEBIANCO Nicola 1956 BA505 A.S. QUELLI DELLA PINETA 00:57:12
    731 MM45 141  1147 MARASCO Francesco 1960 BA531 A.S.D. SAN NICOLA RUNNERS 00:57:13
    732 MM55    35   105 PIEPOLI Gennaro 1952 BA052 BARI ROAD RUNNERS CLUB 00:57:13
    733 MM40 126   354 PAVESI Lorenzo 1964 BA039 A.S. AMICI STRADA DEL TESORO 00:57:14
    734 LIB 121   540 INCAMPO Nicola I 1986 BA999 NON TESSERATI FIDAL 00:57:15
    735 MM50 90   340 RUTIGLIANO Francesco 1958 BA039 A.S. AMICI STRADA DEL TESORO 00:57:15
    736 LIB 122   543 DILEO Leonardo I 1993 BA999 NON TESSERATI FIDAL 00:57:16
    737 MM60    19   305 TAMMA Francesco 1948 BA039 A.S. AMICI STRADA DEL TESORO 00:57:16
    738 MM45 142   545 MASTROPIERRO Gaetano 1962 BA529 A.S. TRANI MARATHON 00:57:17
    739 MM40 127  1002 CAMPANELLA Vito 1966 BA025 A.S. AMATORI PUTIGNANO 00:57:18
    740 MM50 91  1212 PELLEGRINO Michele 1954 BA041 ATLETICA PRO CANOSA 00:57:18
    741 LIB 123   923 DINARDO Domenico I 1993 BA999 NON TESSERATI FIDAL 00:57:20
    742 MF35     4   495 VITOBELLO Elena 1971 BA544 ATLETICA DISFIDA DI BARLETTA 00:57:21
    743 MM55    36  1008 SABATO Francesco 1951 BA025 A.S. AMATORI PUTIGNANO 00:57:21
    744 MM50 92  1247 CAROLI Giovanni 1957 BR139 GYMNASIUM S. PANCRAZIO 00:57:22
    745 MM40 128   431 UNGOLO Vincenzo 1965 BA555 AVIS PODISTICA MOLA 00:57:22
    746 LIB 124  3398 NIGRO Tommaso I 1967 BA999 NON TESSERATI FIDAL 00:57:23
    747 LIB 125  2563 ABBONDANZA Alessandro I 1982 BA999 NON TESSERATI FIDAL 00:57:24
    748 MM45 143  1577 CONVERTINI Domenico 1961 BR113 ATLETICA CASALINI 00:57:25
    749 MM50 93   372 MARTIELLI Antonio 1955 BA005 AMATORI ATL. ACQUAVIVA 00:57:25
    750 TM 70  1146 GUAGLIANONE Christian 1975 BA531 A.S.D. SAN NICOLA RUNNERS 00:57:26
    751 MM45 144  1094 FACCILONGO Giovanni 1963 BA062 A.S. KANKUDAI 00:57:26
    752 MM45 145  1308 ZACCARIA Giuseppe 1962 BR143 PODISTICA CAROVIGNO 00:57:27
    753 MM40 129  1310 LANZILLOTTI Fedele 1965 BR143 PODISTICA CAROVIGNO 00:57:28
    754 MM40 130  3545 FIORILLI Antonino 1966 BA530 G.S.BRIGATA CORAZZATA PINEROLO 00:57:28
    755 LIB 126   922 DINARDO Giovanni I 1961 BA999 NON TESSERATI FIDAL 00:57:29
    756 MM60    20   921 TIRELLI Domenico 1946 BA541 ALTEATLETICA ALTAMURA 00:57:29
    757 LIB 127  2560 LORUSSO Vincenzo I 1981 BA999 NON TESSERATI FIDAL 00:57:29
    758 MM45 146  1430 GRANDOLFO Ruggiero 1959 BA580 A.S.D.  AGORA' 00:57:30
    759 LIB 128  3977 LEUCI Antonio I 1973 BA999 NON TESSERATI FIDAL 00:57:30
    760 LIB 129  2650 DEL MASTRO Riccardo I 1949 BA999 NON TESSERATI FIDAL 00:57:31
    761 MM45 147    21 CIANCIOLA Giuseppe 1962 BA551 ASS. NAZIONALE BERSAGLIERI BAR 00:57:31
    762 MM45 148   813 MESSINA Pietro 1960 BA099 POL. 'D. PIETRI' GRAVINA 00:57:32
    763 MM50 94  1409 D'EREDITA' Giuseppe 1955 BA512 POL.GRAVINA AELECTI S.GRAMEGNA 00:57:32
    764 MM55    37  1511 ARBUES Domenico 1952 BA538 ATLETI  VALLE DELL'OFANTO 00:57:32
    765 LIB 130  3959 GRAVINA Nicola I 1982 BA999 NON TESSERATI FIDAL 00:57:32
    766 MM55    38   327 RUGGIERO Vincenzo 1951 BA039 A.S. AMICI STRADA DEL TESORO 00:57:33
    767 LIB 131  3533 MESTO Nicola I 1959 BA999 NON TESSERATI FIDAL 00:57:33
    768 MM45 149   445 SPALLUCCI Luigi 1963 BA082 ATLETICA TOMMASO ASSI TRANI 00:57:34
    769 MM35 75   116 ANGELILLO Leonardo 1971 BA590 POL. LIBERTAS CELLAMARE A.S.D. 00:57:35
    770 MM55    39  1260 AMORUSO Onofrio 1950 BA551 ASS. NAZIONALE BERSAGLIERI BAR 00:57:35
    771 TM 71  2882 D'ALESSANDRO Pasquale 1974 BA511 G.S. VVF BARI 00:57:35
    772 LIB 132  1680 ETTORRE Rocco I 1959 BA999 NON TESSERATI FIDAL 00:57:36
    773 MM60    21   508 NINIVAGGI Graziantonio 1946 BA541 ALTEATLETICA ALTAMURA 00:57:36
    774 MF45     5  1175 DESIDERATO Bianca 1962 BA531 A.S.D. SAN NICOLA RUNNERS 00:57:37
    775 MM45 150  1161 RIZZI Michele 1960 BA531 A.S.D. SAN NICOLA RUNNERS 00:57:37
    776 MM40 131 1044 RIZZUTI  Lodovico 1967 BA535 A.S. ATLETICA POLIGNANO 00:57:38
    777 MM35 76 1036 GIANCOLA Giacomo 1968 BA535 A.S. ATLETICA POLIGNANO 00:57:38
    778 MM40 132   889 TORTELLI Gianfranco 1965 BA505 A.S. QUELLI DELLA PINETA 00:57:39
    779 ASF     4   138 PEPE Stefania I 1992 BA015 A.S. OLIMPIA CLUB 00:57:39
    780 MM45 151   826 D'ABBICCO Donato 1963 BA546 POD. VALLE D'ITRIA LOCOROTONDO 00:57:39
    781 MF45     6   492 NANULA Antonia 1961 BA544 ATLETICA DISFIDA DI BARLETTA 00:57:41
    782 MM45 152   986 ZAGARIA Angelo Antonio 1961 FG264 A.S. CULTURALE POD. S. STEFANO 00:57:42
    783 MM50 95   435 CARIATI Antonio 1956 BA082 ATLETICA TOMMASO ASSI TRANI 00:57:43
    784 MM45 153   346 DRAGO Antonio 1961 BA039 A.S. AMICI STRADA DEL TESORO 00:57:43
    785 LIB 133  3941 TANGO Mario I 1967 BA999 NON TESSERATI FIDAL 00:57:44
    786 MM45 154  1155 PARTIPILO Pasquale 1959 BA531 A.S.D. SAN NICOLA RUNNERS 00:57:45
    787 TF     6  1667 FRANCO Alessandra 1978 LE611 SPORT  RUNNING VEGLIE 00:57:46
    788 MM50 96  1347 LISO Angelo 1957 BA507 A.MARATONETI ANDRIESI 00:57:47
    789 MM45 155  1564 D'AVENIA Franco 1960 BA543 MARATHON CLUB MINERVINO 00:57:48
    790 MM50 97  1567 PELLEGRINO Michele 1958 BA543 MARATHON CLUB MINERVINO 00:57:49
    791 MM45 156  1576 VURRO Angelo 1961 BA543 MARATHON CLUB MINERVINO 00:57:50
    792 MM45 157  1141 D'ALBA Vito 1962 BA531 A.S.D. SAN NICOLA RUNNERS 00:57:50
    793 TM 72   646 BITETTI Nicola 1974 BA584 L'ATLETICA DEL COLLE 00:57:51
    794 TM 73   188 VALENZIANO Gianni 1980 BA529 A.S. TRANI MARATHON 00:57:52
    795 MM50 98   251 DABBICCO Sabino 1956 BA525 CRAL AMIU BARI 00:57:53
    796 MM40 133  1288 VISAGGI Nicolo' 1965 BA554 FREE RUNNERS MOLFETTA 00:57:54
    797 MM45 158    48 LOPORCARO Carlo 1960 BA093 ATLETIC CLUB ALTAMURA 00:57:54
    798 LIB 134  2757 COPPOLA Saverio I 1959 BA999 NON TESSERATI FIDAL 00:57:55
    799 MM55    40   102 GIOCOLANO Michele 1950 BA052 BARI ROAD RUNNERS CLUB 00:57:56
    800 LIB 135  3644 ACQUAFREDDA Vito I 1959 BA999 NON TESSERATI FIDAL 00:57:56
    801 LIB 136  2540 PESOLA Antonino I 1978 BA999 NON TESSERATI FIDAL 00:57:57
    802 LIB 137  1668 SERGIO Laura I 1986 BA999 NON TESSERATI FIDAL 00:57:58
    803 TM 74   161 DI NATALE Francesco 1978 FG285 ATLETICA TRINITAPOLI 00:57:59
    804 MF40     4   242 SALANDRA Loredana 1968 BA586 A.S.D.ASOPICO RUNNER BARI 00:57:59
    805 MM45 159   241 RINALDI Sabino 1960 BA586 A.S.D.ASOPICO RUNNER BARI 00:58:00
    806 MM35 77  1461 RUGGI Tommaso 1971 TA423 CLUB RUNNER 87 VALENTE ARREDI 00:58:00
    807 MM35 78  1516 CEDROLA Gionata 1972 BA538 ATLETI  VALLE DELL'OFANTO 00:58:01
    808 MM40 134  1434 VITIELLO Francesco 1966 BA580 A.S.D.  AGORA' 00:58:02
    809 RM     2   541 D'APRILE Massimo I 1996 BA541 ALTEATLETICA ALTAMURA 00:58:02
    810 MM40 135   367 BALACCO Antonio 1965 BA005 AMATORI ATL. ACQUAVIVA 00:58:03
    811 MM40 136  1384 SINISI Lorenzo 1964 BA507 A.MARATONETI ANDRIESI 00:58:04
    812 MM65 5  1016 CASSONE Domenico 1941 BA025 A.S. AMATORI PUTIGNANO 00:58:04
    813 MM50 99   853 SASSANELLO Vincenzo 1954 BA029 A.A.'E. MANZARI' CASAMASSIMA 00:58:05
    814 MM45 160   507 SIMONE Rocco 1959 BA541 ALTEATLETICA ALTAMURA 00:58:06
    815 MM50 100  1653 DI BARTOLOMEO Giuseppe 1958 BA043 G.S.ATLETICA AMATORI CORATO 00:58:06
    816 MM65 6  1463 VALENTE Tommaso 1942 TA423 CLUB RUNNER 87 VALENTE ARREDI 00:58:07
    817 LIB 138  3291 ZAMBETTA Saverio I 1962 BA999 NON TESSERATI FIDAL 00:58:08
    818 MF40     5  1402 BUFALO Alfonsina 1965 FG284 MARGHERITA DI SAVOIA RUNNERS 00:58:09
    819 MM35 79  3548 CESARANO Carmine 1972 BA530 G.S.BRIGATA CORAZZATA PINEROLO 00:58:09
    820 LIB 139  2706 PACUCCI Pasquale I 1961 BA999 NON TESSERATI FIDAL 00:58:10
    821 MM50 101  1143 FERRARA Vincenzo 1958 BA531 A.S.D. SAN NICOLA RUNNERS 00:58:11
    822 MM60    22   829 PETRELLI Vito 1944 BA546 POD. VALLE D'ITRIA LOCOROTONDO 00:58:12
    823 MM45 161   896 LACITIGNOLA Francesco S 1959 BA505 A.S. QUELLI DELLA PINETA 00:58:13
    824 MF35     5  1403 VALERIO Concetta 1971 FG284 MARGHERITA DI SAVOIA RUNNERS 00:58:13
    825 MM60    23   323 TERLIZZI Pasquale 1948 BA039 A.S. AMICI STRADA DEL TESORO 00:58:14
    826 MM60    24  1450 GADALETO Giuseppe 1947 TA423 CLUB RUNNER 87 VALENTE ARREDI 00:58:14
    827 MF45     7   114 CEA Vincenza 1961 BA052 BARI ROAD RUNNERS CLUB 00:58:15
    828 ASM 31   638 SIMEONE Cosimo I 1988 BA050 A.S.NICOLAUS ATHLETIC CENTER 00:58:16
    829 MM50 102   969 PORTA Cesare 1955 BA007 CUS BARI 00:58:16
    830 MM60    25   160 VINCI Salvatore 1946 BA014 ATL. FERROTRANVIARIA 00:58:17
    831 MM40 137   338 NACCI Domenico 1964 BA039 A.S. AMICI STRADA DEL TESORO 00:58:17
    832 MM35 80   818 CONVERTINI Pietro 1972 BA546 POD. VALLE D'ITRIA LOCOROTONDO 00:58:18
    833 MM40 138  1059 STRINGARI Nicola 1965 BA509 POD. CANUSIUM 2004 00:58:18
    834 LIB 140  2845 PERDONO' Nicola I 1974 BA999 NON TESSERATI FIDAL 00:58:19
    835 MM40 139  1624 NATUZZI Nunzio 1967 BA050 A.S.NICOLAUS ATHLETIC CENTER 00:58:19
    836 LIB 141  3037 MASSARI Francesco I 1956 BA999 NON TESSERATI FIDAL 00:58:19
    837 MM45 162   347 TATONE Michele 1962 BA039 A.S. AMICI STRADA DEL TESORO 00:58:20
    838 MF40     6   113 PASCOSCHI Angela 1965 BA052 BARI ROAD RUNNERS CLUB 00:58:20
    839 LIB 142   185 PORCELLI Santa I 1960 BA999 NON TESSERATI FIDAL 00:58:20
    840 MM70     2   546 PALUMBO Pasquale 1937 BA529 A.S. TRANI MARATHON 00:58:21
    841 TF     7   914 COFANO Giacoma 1975 TA441 G.S. PAOLOTTI - ATL MARTINA 00:58:21
    842 MM60    26  1391 VIRGILIO Vincenzo 1947 BA507 A.MARATONETI ANDRIESI 00:58:22
    843 MM40 140  1082 COLAIANNI Maurizio 1966 BA062 A.S. KANKUDAI 00:58:23
    844 LIB 143  2643 SCARINGELLA Massimo I 1966 BA999 NON TESSERATI FIDAL 00:58:24
    845 MM40 141  1152 PALELLA Trifone 1964 BA531 A.S.D. SAN NICOLA RUNNERS 00:58:25
    846 LIB 144  3448 BELLINO Luigi I 1961 BA999 NON TESSERATI FIDAL 00:58:25
    847 MM50 103  1005 SANSOLINO Vito 1956 BA025 A.S. AMATORI PUTIGNANO 00:58:26
    848 MM40 142  1229 RAIMO Giuseppe 1967 PZ555 PODISTICA HERMES LAVELLO 00:58:30
    849 MM45 163  1607 DELLA CORTE Giovanni 1962 BA502 A.S.D. MONTEDORO NOCI 00:58:32
    850 LIB 145  3951 VERONICO Nicola I 1952 BA999 NON TESSERATI FIDAL 00:58:34
    851 MM45 164  1151 PACCIONE Antonio 1963 BA531 A.S.D. SAN NICOLA RUNNERS 00:58:35
    852 LIB 146  2620 FRANCO Domenico I 1954 BA999 NON TESSERATI FIDAL 00:58:37
    853 MM50 104  1165 SERVEDIO Carlo 1956 BA531 A.S.D. SAN NICOLA RUNNERS 00:58:38
    854 LIB 147  3833 COLAIANNI Antonio I 1974 BA999 NON TESSERATI FIDAL 00:58:39
    855 MM35 81   169 MONGELLI Domenico 1969 TA440 ATHLETIC TEAM PALAGIANO 00:58:39
    856 LIB 148  2876 ZONNO Sebastiano I 1979 BA999 NON TESSERATI FIDAL 00:58:40
    857 LIB 149  3502 DE MARCO Vito I 1962 BA999 NON TESSERATI FIDAL 00:58:41
    858 LIB 150  3386 BRUNO Giacomo I 1968 BA999 NON TESSERATI FIDAL 00:58:42
    859 LIB 151   798 RUTIGLIANO Ruggiero I 1967 BA999 NON TESSERATI FIDAL 00:58:43
    860 LIB 152   567 CORALLO Stefano I 1948 BA999 NON TESSERATI FIDAL 00:58:44
    861 LIB 153  3193 GALLO Vincenzo I 1948 BA999 NON TESSERATI FIDAL 00:58:45
    862 MM55    41  1377 SANGUEDOLCE Vincenzo 1953 BA507 A.MARATONETI ANDRIESI 00:58:45
    863 LIB 154 562 PALMIERI Carlo I 1945 BA999 NON TESSERATI FIDAL 00:58:45
    864 LIB 155  3000 DELLE GROTTAGLIE Antoni I 1987 BA999 NON TESSERATI FIDAL 00:58:46
    865 MM45 165   427 MONTALBANO Angelo 1960 BA555 AVIS PODISTICA MOLA 00:58:46
    866 LIB   156  2825 DICECCA Paolo I 1983 BA999 NON TESSERATI FIDAL 00:58:49
    867 LIB   157  3275 MORAMARCO Francesco I 1980 BA999 NON TESSERATI FIDAL 00:58:49
    868 LIB   158   918 DI NARDO Vito I 1962 BA999 NON TESSERATI FIDAL 00:58:50
    869 LIB   159  3817 LOPORCARO Lorenzo I 1974 BA999 NON TESSERATI FIDAL 00:58:50
    870 MM50 105   895 LADISA Francesco 1955 BA505 A.S. QUELLI DELLA PINETA 00:58:50
    871 LIB   160  1442 MITOLO Luigi I 1968 BA999 NON TESSERATI FIDAL 00:58:50
    872 MF45     8   283 TOTA Wanda 1960 BA520 A.S. BARINCORSA 00:58:51
    873 MM40 143   861 GROSSI Nicola 1964 BA578 ATLETICA AUFIDUS 00:58:51
    874 MM50 106  1467 MAGGI Stefano 1955 BR113 ATLETICA CASALINI 00:58:51
    875 MM55    42  1132 CAMASSA Gaetano 1950 BA531 A.S.D. SAN NICOLA RUNNERS 00:58:51
    876 MM50 107  1248 CORVINO Felice 1957 BR139 GYMNASIUM S. PANCRAZIO 00:58:52
    877 MM45 166   784 MUSCI Antonio 1960 BA582 SPORTING C. BISCEGLIE RUNNING 00:58:52
    878 LIB   161  2507 VALCHIUSO Carmine I 1974 BA999 NON TESSERATI FIDAL 00:58:52
    879 MM40 144  1087 DE GEMMIS Gioacchino 1965 BA062 A.S. KANKUDAI 00:58:53
    880 MF45     9   967 MORENA Maria Rosaria 1963 BA007 CUS BARI 00:58:53
    881 MM45 167  1320 CANOSA Antonio 1961 BA507 A.MARATONETI ANDRIESI 00:58:54
    882 MM50 108  1311 ADDARIO Francesco 1958 BA507 A.MARATONETI ANDRIESI 00:58:54
    883 MM35 82  1383 SGARRA Francesco 1971 BA507 A.MARATONETI ANDRIESI 00:58:55
    884 MM50 109  1348 LISO Fabrizio 1958 BA507 A.MARATONETI ANDRIESI 00:58:55
    885 MM35 83  1055 LIBERATO Massimo 1971 BA509 POD. CANUSIUM 2004 00:58:56
    886 MM55    43  1427 ROMITO Vito 1950 BA580 A.S.D.  AGORA' 00:58:56
    887 MF40     7   405 FABIANO Cetti 1968 BA047 NUOVA ATL. FEMM. ACQUAVIVA 00:58:57
    888 MM40 145   128 GRIECO Salvatore 1967 FG257 G.S. ATL. SAN FERDINANDO 00:58:57
    889 LIB   162  3345 LISCO Antonello I 1972 BA999 NON TESSERATI FIDAL 00:58:58
    890 MM55    44   104 PETRIELLA Giuseppe 1952 BA052 BARI ROAD RUNNERS CLUB 00:59:02
    891 LIB   163  2667 GUIDA Luigi I 1954 BA999 NON TESSERATI FIDAL 00:59:04
    892 MM40 146   656 DITARANTO Angelo 1968 BA587 LA PIETRA 00:59:05
    893 LIB   164  2569 DELL'GLIO Guido I 1972 BA999 NON TESSERATI FIDAL 00:59:06
    894 LIB   165  3978 INCHINGOLO Gaetano I 1968 BA999 NON TESSERATI FIDAL 00:59:06
    895 MM35 84  1625 ANGIULI Giuseppe Massim 1972 BA553 ATLETICA ADELFIA 00:59:07
    896 ASM 32   358 TOMANELLI Italo I 1948 BA005 AMATORI ATL. ACQUAVIVA 00:59:11
    897 MF35     6    78 SQUICCIARINI Annalisa 1972 BA093 ATLETIC CLUB ALTAMURA 00:59:11
    898 MF45    10   865 PATRUNO Nunzia 1962 BA578 ATLETICA AUFIDUS 00:59:12
    899 MM50 110  1369 PISTILLO Francesco 1957 BA507 A.MARATONETI ANDRIESI 00:59:13
    900 MM50 111  1428 BATTISTA Gaetano 1957 BA580 A.S.D.  AGORA' 00:59:13
    901 LIB   166  2726 IULIANO Francesco I 1974 BA999 NON TESSERATI FIDAL 00:59:14
    902 LIB   167   677 MERCOLEDISANTO Donata I 1978 BA999 NON TESSERATI FIDAL 00:59:15
    903 MM45 168  1325 CRAPOLICCHIO Giuseppe 1962 BA507 A.MARATONETI ANDRIESI 00:59:15
    904 LIB   168  3348 GAROFALO Giuseppe I 1976 BA999 NON TESSERATI FIDAL 00:59:16
    905 MM40 147  1501 GIANNELLI Giovanni 1967 BA545 AMATORI ATLETICA TRIGGIANO 00:59:17
    906 LIB   169  3629 TEDONE Lorenzo I 1977 BA999 NON TESSERATI FIDAL 00:59:17
    907 MM55    45   897 PELLEGRINO Michele 1953 BA505 A.S. QUELLI DELLA PINETA 00:59:18
    908 LIB   170   139 DI CHIRICO Serafina I 1978 BA999 NON TESSERATI FIDAL 00:59:19
    909 MM35 85  1317 BRUNO Luigi 1970 BA507 A.MARATONETI ANDRIESI 00:59:19
    910 MF40     8  1299 GADALETA Concetta 1965 BA554 FREE RUNNERS MOLFETTA 00:59:20
    911 MM45 169   209 AMBRUOSO Nicola 1961 BA049 G.S.P. III REGIONE AEREA BARI 00:59:21
    912 LIB   171  2754 DI FONZO Michele I 1969 BA999 NON TESSERATI FIDAL 00:59:21
    913 MM50 112  1134 CATALANO Sebastiano 1954 BA531 A.S.D. SAN NICOLA RUNNERS 00:59:21
    914 LIB   172  2712 SALATINO Nicola I 1965 BA999 NON TESSERATI FIDAL 00:59:21
    915 MM50 113  1349 LOPS Sabino 1956 BA507 A.MARATONETI ANDRIESI 00:59:22
    916 LIB   173  3790 AMITRANO Giuseppe Aless I 1979 BA999 NON TESSERATI FIDAL 00:59:22
    917 LIB   174  2586 SAVINO Roberto I 1970 BA999 NON TESSERATI FIDAL 00:59:23
    918 LIB   175  2568 CHIETRI Federico I 1973 BA999 NON TESSERATI FIDAL 00:59:24
    919 LIB   176  3783 FUSCO Michele I 1911 BA999 NON TESSERATI FIDAL 00:59:24
    920 LIB   177  3190 LUCCHESI Maurizio I 1962 BA999 NON TESSERATI FIDAL 00:59:25
    921 LIB   178  2846 MANNESE Franco I 1974 BA999 NON TESSERATI FIDAL 00:59:26
    922 MM40 148   419 CLEMENTE Pietro 1966 BA555 AVIS PODISTICA MOLA 00:59:26
    923 TM 75   485 FARANO Giuseppe 1975 BA544 ATLETICA DISFIDA DI BARLETTA 00:59:27
    924 MM45 170  1235 SCARAMUZZO Pasquale 1961 PZ555 PODISTICA HERMES LAVELLO 00:59:27
    925 MM45 171  1336 DI PALMA Nicola 1960 BA507 A.MARATONETI ANDRIESI 00:59:28
    926 MM40 149  1363 NAPOLITANO Giovanni 1968 BA507 A.MARATONETI ANDRIESI 00:59:28
    927 MM45 172   385 LACALAMITA Cesare 1959 BA005 AMATORI ATL. ACQUAVIVA 00:59:29
    928 MM50 114  1316 BISCEGLIE Gaetano 1954 BA507 A.MARATONETI ANDRIESI 00:59:29
    929 LIB   179  3041 VEZZOSO Pasquale I 1961 BA999 NON TESSERATI FIDAL 00:59:30
    930 MM45 173   593  DIASPARRA Gioacchino 1963 BA043 G.S.ATLETICA AMATORI CORATO 00:59:31
    931 MM40 150  1364 NAPOLITANO Vincenzo 1966 BA507 A.MARATONETI ANDRIESI 00:59:32
    932 LIB   180   680 LOPEZ Vito I 1979 BA999 NON TESSERATI FIDAL 00:59:32
    933 MM45 174  1352 LUCE Riccardo 1962 BA507 A.MARATONETI ANDRIESI 00:59:32
    934 MM50 115  1355 MARZANO Francesco 1956 BA507 A.MARATONETI ANDRIESI 00:59:33
    935 TM 76  1689 PETRAFESA Giuseppe 1982 BA512 POL.GRAVINA AELECTI S.GRAMEGNA 00:59:34
    936 MM35 86  1315 ANZIOSO Michele 1970 BA507 A.MARATONETI ANDRIESI 00:59:34
    937 MM40 151  1645 NEVE Sante Maurizio 1965 BA553 ATLETICA ADELFIA 00:59:35
    938 MM70     3  1622 LIPPOLIS Vitantonio 1936 BA502 A.S.D. MONTEDORO NOCI 00:59:35
    939 LIB   181  3566 RASPATELLI Vincenzo I 1955 BA999 NON TESSERATI FIDAL 00:59:36
    940 MM55    46   600 LAFIANDRA Giuseppe 1953 BA043 G.S.ATLETICA AMATORI CORATO 00:59:36
    941 MM35 87  1599 BIANCO Massimo 1971 BA502 A.S.D. MONTEDORO NOCI 00:59:36
    942 LIB   182  2648 CASSANO Giuseppe I 1968 BA999 NON TESSERATI FIDAL 00:59:37
    943 MM50 116  1237 BISCEGLIA Giuseppe 1958 PZ555 PODISTICA HERMES LAVELLO 00:59:37
    944 MM65 7   823 COLAIANNI Vito 1941 BA546 POD. VALLE D'ITRIA LOCOROTONDO 00:59:38
    945 MM50 117   444 SCOCCIMARRO Cosimo 1957 BA082 ATLETICA TOMMASO ASSI TRANI 00:59:39
    946 MM45 175   629 GIANNANDREA Pietro 1961 BA050 A.S.NICOLAUS ATHLETIC CENTER 00:59:40
    947 MF35     7   308 RAMUNNO Nicoletta 1969 BA039 A.S. AMICI STRADA DEL TESORO 00:59:41
    948 MM60    27   891 PIZZUTELLI Antonio 1946 BA505 A.S. QUELLI DELLA PINETA 00:59:42
    949 MF40     9   628 FANIZZI Liliane 1968 BA050 A.S.NICOLAUS ATHLETIC CENTER 00:59:43
    950 MM45 176   819 DE MICHELE Tommaso 1960 BA546 POD. VALLE D'ITRIA LOCOROTONDO 00:59:43
    951 MM45 177   809 AMENTA Giuseppe 1959 BA099 POL. 'D. PIETRI' GRAVINA 00:59:44
    952 LIB   183   542 FARELLA Giovanni I 1993 BA999 NON TESSERATI FIDAL 00:59:45
    953 LIB   184   797 MATINO Giuseppe I 1962 BA999 NON TESSERATI FIDAL 00:59:46
    954 MM40 152  1111 PRUDENTE Dario Davide 1967 BA062 A.S. KANKUDAI 00:59:46
    955 MM50 118  1481 PINTO Marco 1957 BR146 A.S.D. ATLETICA PEZZE DI GRECO 00:59:47
    956 MM45 178  1338 DI RUVO Savino 1959 BA507 A.MARATONETI ANDRIESI 00:59:48
    957 MM50 119  1361 MONTAGNA Michele 1957 BA507 A.MARATONETI ANDRIESI 00:59:48
    958 MF45    11   606 MASTROMAURO Rosa 1959 BA043 G.S.ATLETICA AMATORI CORATO 00:59:49
    959 MM40 153   420 DESILVIO Nicola 1965 BA555 AVIS PODISTICA MOLA 00:59:49
    960 LIB 184 3274 SIDERI Alfredo I 1978 BA999 NON TESSERATI FIDAL 00:59:49
    961 LIB   185  3873 PETRUZZELLI Pietro I 1962 BA999 NON TESSERATI FIDAL 00:59:50
    962 MM45 179   985 RICCIARDI Rocco 1959 FG264 A.S. CULTURALE POD. S. STEFANO 00:59:50
    963 MM45 180   599 GALLO Sergio 1962 BA043 G.S.ATLETICA AMATORI CORATO 00:59:51
    964 MM40 154  1628 BRANCALE Francesco 1965 BA553 ATLETICA ADELFIA 00:59:51
    965 MM45 181  1218 SCIANNAMEA Vincenzo 1961 BA041 ATLETICA PRO CANOSA 00:59:51
    966 MM40 155   597 FRASCOLLA Leonardo 1965 BA043 G.S.ATLETICA AMATORI CORATO 00:59:52
    967 MM40 156  1290 FASCIANO Domenico 1964 BA554 FREE RUNNERS MOLFETTA 00:59:52
    968 MM55    47  1483 BUONSANTE Mario 1952 BA550 AVIS IN CORSA CONVERSANO 00:59:52
    969 MM35 88  1398 DI LECCE Francesco 1972 FG284 MARGHERITA DI SAVOIA RUNNERS 00:59:53
    970 MM60    28  1010 RENNA Onofrio 1948 BA025 A.S. AMATORI PUTIGNANO 00:59:53
    971 LIB   186  3980 MASTRORILLO Giuseppe I 1963 BA999 NON TESSERATI FIDAL 00:59:54
    972 MM50 120   336 EPIFANIA Manlio 1957 BA039 A.S. AMICI STRADA DEL TESORO 00:59:55
    973 LIB   187  3876 CAZZORLA Sabino I 1962 BA999 NON TESSERATI FIDAL 00:59:55
    974 MF50     1   611 PISICCHIO Rosa 1957 BA043 G.S.ATLETICA AMATORI CORATO 00:59:56
    975 MM65 8   316 MANZONI Giovanni 1943 BA039 A.S. AMICI STRADA DEL TESORO 00:59:56
    976 MF45    12  1333 DI BARI Francesca 1959 BA507 A.MARATONETI ANDRIESI 00:59:57
    977 LIB   188  2787 SEMERARO Antonio I 1961 BA999 NON TESSERATI FIDAL 00:59:58
    978 LIB   189  3563 AMORUSO Nicola I 1967 BA999 NON TESSERATI FIDAL 00:59:58
    979 TM 77  1598 PARISI Rocco 1985 BA502 A.S.D. MONTEDORO NOCI 00:59:59
    980 MM35 89  1650 TORRES Domenico 1970 BA553 ATLETICA ADELFIA 01:00:01
    981 LIB   190  3338 LACASELLA Francesco I 1970 BA999 NON TESSERATI FIDAL 01:00:02
    982 LIB   191  3847 LADISA Michele I 1954 BA999 NON TESSERATI FIDAL 01:00:02
    983 MF40    10   410 MELE Antonia 1964 BA047 NUOVA ATL. FEMM. ACQUAVIVA 01:00:03
    984 LIB   192  3336 RUSCIGNO Antonello I 1979 BA999 NON TESSERATI FIDAL 01:00:04
    985 MM35 90  1221 ZANNO Pasquale 1972 BA041 ATLETICA PRO CANOSA 01:00:04
    986 MM45 182   550 DERALVI Gianpiero 1963 BR134 ASS. AMICI ATL.VILLA CASTELLI 01:00:05
    987 MM40 157  1097 FIORE Antonio 1966 BA062 A.S. KANKUDAI 01:00:05
    988 LIB   193  2774 DE SANTIS Alfredo I 1962 BA999 NON TESSERATI FIDAL 01:00:06
    989 LIB   194  3837 LOPOPOLO Rosa I 1966 BA999 NON TESSERATI FIDAL 01:00:08
    990 MM45 183  1061 GALANTINO Pantaleo 1961 BA509 POD. CANUSIUM 2004 01:00:09
    991 TM 78  1103 LANAVE Michele 1974 BA062 A.S. KANKUDAI 01:00:10
    992 LIB   195  3564 TATTOLO Domenico I 1964 BA999 NON TESSERATI FIDAL 01:00:11
    993 MM40 158   951 DE LUISI Raffaele 1966 BA007 CUS BARI 01:00:12
    994 MM55    48   860 FORTUNATO Mario 1950 BA578 ATLETICA AUFIDUS 01:00:13
    995 MM35 91   544 SPERA Giovanni 1971 BA544 ATLETICA DISFIDA DI BARLETTA 01:00:14
    996 LIB   196  3397 SARDONE Francesco I 1963 BA999 NON TESSERATI FIDAL 01:00:15
    997 MM55 49 1046 ZUPO Antonio 1953 BA535 A.S. ATLETICA POLIGNANO 01:00:15
    998 LIB   197  1267 GIANCASPRO Giuseppe I 1964 BA999 NON TESSERATI FIDAL 01:00:15
    999 LIB   198  3788 CIMARRUSTI Pietro I 1964 BA999 NON TESSERATI FIDAL 01:00:16
    1000 LIB   199   558 DE MARTIIS Cosimo I 1936 BA999 NON TESSERATI FIDAL 01:00:17
    1001 LIB   200  2853 GRANDOLFO Nicola I 1966 BA999 NON TESSERATI FIDAL 01:00:18
    1002 LIB   201  2710 DE VENUTO Angelo I 1969 BA999 NON TESSERATI FIDAL 01:00:19
    1003 MM60    29   975 ROTONDO Luigi 1947 BA007 CUS BARI 01:00:20
    1004 MM60    30   964 CORSI Francesco 1947 BA007 CUS BARI 01:00:21
    1005 MM55 50   970 DE SANTIS Francesco 1949 BA007 CUS BARI 01:00:22
    1006 LIB   202  3467 LANZONE Nicola I 1985 BA999 NON TESSERATI FIDAL 01:00:23
    1007 TM 79  1666 VALENTINI Domenico 1974 BA521 A.S. DOF AMATORI TURI 01:00:23
    1008 MM35 92  1634 D'INNOCENTE Gianfranco 1972 BA553 ATLETICA ADELFIA 01:00:24
    1009 LIB   203  3444 PAPANGELO Nunzio I 1970 BA999 NON TESSERATI FIDAL 01:00:26
    1010 LIB   204   919 CICCIMARRA Tommaso I 1960 BA999 NON TESSERATI FIDAL 01:00:27
    1011 MF40    11    29 CANNITO Vincenza 1968 BA093 ATLETIC CLUB ALTAMURA 01:00:28
    1012 MF55     1    28 LOVIGLIO Pasqua 1949 BA093 ATLETIC CLUB ALTAMURA 01:00:29
    1013 MM40 159    27 NUZZI Giuseppe 1964 BA093 ATLETIC CLUB ALTAMURA 01:00:29
    1014 MM60    31    26 RAGONE Giovanni 1946 BA093 ATLETIC CLUB ALTAMURA 01:00:30
    1015 LIB   205  3432 INTRONA Domenico I 1973 BA999 NON TESSERATI FIDAL 01:00:30
    1016 LIB   206  2786 DICUONZO Massimo I 1956 BA999 NON TESSERATI FIDAL 01:00:31
    1017 LIB   207  2833 NOVIELLO Giovanni I 1971 BA999 NON TESSERATI FIDAL 01:00:31
    1018 MM35 93  1602 LASARACINA Rocco 1970 BA502 A.S.D. MONTEDORO NOCI 01:00:32
    1019 MM40 160  1058 FARFALLA Massimo 1966 BA509 POD. CANUSIUM 2004 01:00:32
    1020 MM45 184  1609 PASSARO Pietro 1963 BA502 A.S.D. MONTEDORO NOCI 01:00:33
    1021 MM50 121   789 DI BITETTO Francesco 1957 BA582 SPORTING C. BISCEGLIE RUNNING 01:00:33
    1022 LIB   208  3784 CARULLI Antonio I 1977 BA999 NON TESSERATI FIDAL 01:00:34
    1023 LIB   209  2775 BALZANO Pasquale I 1972 BA999 NON TESSERATI FIDAL 01:00:35
    1024 MM40 161    74 CLEMENTE Vitantonio 1968 BA093 ATLETIC CLUB ALTAMURA 01:00:35
    1026 MM40 162   963 QUARANTA Giovanni Anton 1968 BA007 CUS BARI 01:00:35
    1027 LIB   210    41 DIRIENZO Marco I 1962 BA999 NON TESSERATI FIDAL 01:00:36
    1028 TM 80   761 IACOBBE Andrea 1974 BA521 A.S. DOF AMATORI TURI 01:00:37
    1029 MM35 94   262 TEDONE Domenico 1971 BA525 CRAL AMIU BARI 01:00:38
    1030 MF45    13   404 ANTONACCI Annamaria 1962 BA047 NUOVA ATL. FEMM. ACQUAVIVA 01:00:39
    1031 TM 81  1565 GIULIANO Giovanni 1976 BA543 MARATHON CLUB MINERVINO 01:00:40
    1032 LIB   211  3500 ALBORE' Giovanni I 1964 BA999 NON TESSERATI FIDAL 01:00:41
    1033 MM45 185   651 CARICATO Domenico 1962 BA587 LA PIETRA 01:00:42
    1034 TF     8   762 IACOVIELLO Gaia 1977 BA521 A.S. DOF AMATORI TURI 01:00:42
    1035 MM50 122  1370 PISTILLO Vincenzo 1957 BA507 A.MARATONETI ANDRIESI 01:00:43
    1036 MM40 163  1451 GRANIELLO Antonio 1967 TA423 CLUB RUNNER 87 VALENTE ARREDI 01:00:43
    1037 MM40 164  1224 GREGUCCI Antonio 1966 BA049 G.S.P. III REGIONE AEREA BARI 01:00:44
    1038 MM50 123  1484 SCISCI Giovanni 1956 BA550 AVIS IN CORSA CONVERSANO 01:00:44
    1039 MM65 9  1493 LORUSSO Francesco 1939 BA550 AVIS IN CORSA CONVERSANO 01:00:45
    1040 MM45 186  1342 GRUMO Vito 1960 BA507 A.MARATONETI ANDRIESI 01:00:46
    1041 LIB   212  2649 CRISTIANI Stefano I 1968 BA999 NON TESSERATI FIDAL 01:00:46
    1042 LIB   213  3826 POLI Fabio I 1972 BA999 NON TESSERATI FIDAL 01:00:47
    1043 MM55 51   159 SCARDICCHIO Domenico 1953 BA014 ATL. FERROTRANVIARIA 01:00:47
    1044 LIB   214  3071 DE RENZIO Francesco I 1962 BA999 NON TESSERATI FIDAL 01:00:48
    1045 MF40    12   303 PISCITELLI Filomena 1966 BA039 A.S. AMICI STRADA DEL TESORO 01:00:48
    1046 MM55 52   315 GAROFALO Nicola 1953 BA039 A.S. AMICI STRADA DEL TESORO 01:00:49
    1047 LIB   215  3666 CASCIONE Cosimo I 1963 BA999 NON TESSERATI FIDAL 01:00:49
    1048 MM40 165   833 FERRARA Alberto 1964 BA546 POD. VALLE D'ITRIA LOCOROTONDO 01:00:50
    1049 TF     9   110 MORELLI Francesca 1975 BA052 BARI ROAD RUNNERS CLUB 01:00:51
    1050 MM60    32  1456 NIGRO Giuseppe 1948 TA423 CLUB RUNNER 87 VALENTE ARREDI 01:00:52
    1051 MM40 166  1135 CENTOLA Gianluigi 1965 BA531 A.S.D. SAN NICOLA RUNNERS 01:00:53
    1052 RM     3  3600 MELE Costantino I 1996 BA023 ATLETICA GIOVANILE ACQUAVIVA 01:00:53
    1053 MM45 187   374 MELE Nicola Domenico 1962 BA005 AMATORI ATL. ACQUAVIVA 01:00:54
    1054 MF45    14   585 CACCAVO Maria Teresa 1962 BA043 G.S.ATLETICA AMATORI CORATO 01:00:54
    1055 MF40    13   180 GUSMAI Annamaria 1966 BA529 A.S. TRANI MARATHON 01:00:55
    1056 LIB   216  2701 MASELLI Rocco I 1965 BA999 NON TESSERATI FIDAL 01:00:55
    1057 LIB   217  3560 PADOVANO Domenico I 1973 BA999 NON TESSERATI FIDAL 01:00:56
    1058 MM45 188   386 MISCIAGNA Nicola 1961 BA005 AMATORI ATL. ACQUAVIVA 01:00:57
    1059 MM55 53   882 LORUSSO Nicola 1949 BA505 A.S. QUELLI DELLA PINETA 01:01:00
    1060 MM40 167   293 PALATELLA Pietro 1964 BA039 A.S. AMICI STRADA DEL TESORO 01:01:01
    1061 LIB   218  3885 PORCELLI Teresa I 1964 BA999 NON TESSERATI FIDAL 01:01:05
    1062 MM55 54   443 PELLEGRINO Sergio 1952 BA082 ATLETICA TOMMASO ASSI TRANI 01:01:07
    1063 MM40 168   351 FIORE Domenico 1965 BA039 A.S. AMICI STRADA DEL TESORO 01:01:10
    1064 RM 4   538 ADRIANI Francesco I 1995 BA541 ALTEATLETICA ALTAMURA 01:01:10
    1065 RM 5   533 CIRROTTOLA Filippo I 1995 BA541 ALTEATLETICA ALTAMURA 01:01:10
    1066 LIB   219   187 SCARNGI Michele I 1960 BA999 NON TESSERATI FIDAL 01:01:11
    1067 MM45 189   189 ZAGARIA Nicola 1962 BA529 A.S. TRANI MARATHON 01:01:12
    1068 MM35 95  1399 PERRUCCI Savino 1970 FG284 MARGHERITA DI SAVOIA RUNNERS 01:01:13
    1069 MM65 10   873 BELLANOVA Rocco 1942 BA505 A.S. QUELLI DELLA PINETA 01:01:15
    1070 MM35 96   644 PORFIDO Giovanni 1973 BA584 L'ATLETICA DEL COLLE 01:01:17
    1071 MF40    14  1497 SOFTOVA PALAGACHEVA Lyo 1964 BA062 A.S. KANKUDAI 01:01:17
    1072 MM45 190  1632 DI LORENZO Michele 1960 BA553 ATLETICA ADELFIA 01:01:18
    1073 LIB   220  3244 BENDJOYA Fernando I 1959 BA999 NON TESSERATI FIDAL 01:01:19
    1074 MM45 191  1692 CAMPIONE Gaetano 1959 BA007 CUS BARI 01:01:20
    1075 TM 82  1664 PALUMBO Filippo 1976 BA521 A.S. DOF AMATORI TURI 01:01:21
    1076 LIB   221  2598 IACOBELLIS Tommaso I 1961 BA999 NON TESSERATI FIDAL 01:01:21
    1077 MM55 55  1182 BILENCHI Gianfranco 1952 BA041 ATLETICA PRO CANOSA 01:01:22
    1079 LIB   222  3922 D'AMICO Antonio I 1970 BA999 NON TESSERATI FIDAL 01:01:23
    1080 MM50 124   783 CARELLI Pantaleo 1957 BA582 SPORTING C. BISCEGLIE RUNNING 01:01:26
    1081 LIB   223  2709 CAVALLUZZI Michele I 1971 BA999 NON TESSERATI FIDAL 01:01:26
    1082 MM50 125   439 GUGLIELMI Giovanni Batt 1958 BA082 ATLETICA TOMMASO ASSI TRANI 01:01:27
    1083 MM35 97   933 AVANTARIO Giuseppe 1969 BA539 POL. ARAME PUGLIA 01:01:28
    1084 MM50 126   612 SACCOTELLI Giuseppe 1955 BA043 G.S.ATLETICA AMATORI CORATO 01:01:29
    1085 LIB   224  3264 MASTRANDREA Anonio I 1970 BA999 NON TESSERATI FIDAL 01:01:30
    1086 MM45 192    47 FERRULLI Antonio 1960 BA093 ATLETIC CLUB ALTAMURA 01:01:31
    1087 MM65 11  1189 DI PALMA Costanzo 1943 BA041 ATLETICA PRO CANOSA 01:01:32
    1088 MM40 169   666 SANTORSOLA Pasquale 1965 BA587 LA PIETRA 01:01:33
    1089 MM45 193  1138 CIMARUSTI Vito 1961 BA531 A.S.D. SAN NICOLA RUNNERS 01:01:34
    1090 MM40 170  1640 GIRONE Nicola 1968 BA553 ATLETICA ADELFIA 01:01:35
    1091 MM55 56  1386 TAMMACCARO Salvatore 1952 BA507 A.MARATONETI ANDRIESI 01:01:36
    1092 LIB   225  3645 NARDULLI Domenico I 1967 BA999 NON TESSERATI FIDAL 01:01:36
    1093 MM60    33   972 DI BARTOLOMEO Sabino 1948 BA007 CUS BARI 01:01:37
    1094 TM 83  1105 LOPASSO Gianluca 1974 BA062 A.S. KANKUDAI 01:01:39
    1095 TM 84  1662 GAGLIARDI Pietro 1975 BA521 A.S. DOF AMATORI TURI 01:01:40
    1096 MM35 98   659 LOFANO Maurizio 1973 BA587 LA PIETRA 01:01:40
    1097 MM60    34   430 SIMONE Carlo 1948 BA555 AVIS PODISTICA MOLA 01:01:41
    1098 MM45 194   641 MICCOLI Domenico 1962 BA529 A.S. TRANI MARATHON 01:01:41
    1099 MM55 57   121 DAGNELLO Vincenzo 1949 FG257 G.S. ATL. SAN FERDINANDO 01:01:43
    1100 MM35 99   661 MELE David 1970 BA587 LA PIETRA 01:01:44
    1101 LIB   226  2854 STEFANACCHI Giuseppe I 1978 BA999 NON TESSERATI FIDAL 01:01:45
    1102 MM50 127   782 AMORUSO Mauro Luciano 1958 BA582 SPORTING C. BISCEGLIE RUNNING 01:01:46
    1103 MM55 58  1617 LIPPOLIS Saverio 1951 BA502 A.S.D. MONTEDORO NOCI 01:01:47
    1104 MF40    15  1021 MOREA Antonia Maria 1966 BA025 A.S. AMATORI PUTIGNANO 01:01:47
    1105 MM45 195   664 PROSCIA Vincenzo 1961 BA587 LA PIETRA 01:01:48
    1106 LIB   227  2606 PONTRANDOLFO Giovanni I 1960 BA999 NON TESSERATI FIDAL 01:01:48
    1107 MM50 128   122 LOPEZ Francesco 1957 FG257 G.S. ATL. SAN FERDINANDO 01:01:49
    1108 LIB   228  3886 DEMONTE Domenico I 1971 BA999 NON TESSERATI FIDAL 01:01:50
    1109 TM 85   998 COLANGIONE Giuseppe 1978 FG264 A.S. CULTURALE POD. S. STEFANO 01:01:51
    1110 LIB   229  2711 PETRUZZI Giovanni I 1974 BA999 NON TESSERATI FIDAL 01:01:51
    1111 LIB   230  3278 STASOLLA Francesco I 1960 BA999 NON TESSERATI FIDAL 01:01:52
    1112 MM35 100    67 BARBIERI Filippo 1970 BA093 ATLETIC CLUB ALTAMURA 01:01:53
    1114 MM55 59   329 MESSINA Leonardo 1953 BA039 A.S. AMICI STRADA DEL TESORO 01:01:54
    1115 MM40 171   168 TORTORELLI Roberto Jose 1966 BA093 ATLETIC CLUB ALTAMURA 01:01:55
    1116 LIB   231  3975 DE PALMA Francesco I 1958 BA999 NON TESSERATI FIDAL 01:01:55
    1117 MM55 60   948 ANDRIOLA Nicolangelo 1951 BA007 CUS BARI 01:01:56
    1118 MM40 172   996 CLAUDIONE Matteo 1967 FG264 A.S. CULTURALE POD. S. STEFANO 01:01:56
    1119 MM40 173   989 DILUCIA Giovanni 1964 FG264 A.S. CULTURALE POD. S. STEFANO 01:01:57
    1120 MM40 174   836 CONVERTINI Giuseppe 1965 BA546 POD. VALLE D'ITRIA LOCOROTONDO 01:02:00
    1121 MM60    35   154 AVOLIO Giovanni 1944 BA014 ATL. FERROTRANVIARIA 01:02:01
    1122 MM40 175  1180 ARNO Tommaso 1965 BA041 ATLETICA PRO CANOSA 01:02:02
    1123 LIB   232   695 COLONNA Raffaele I 1974 BA999 NON TESSERATI FIDAL 01:02:02
    1124 LIB   233   147 MILELLA Gianluca I 1972 BA999 NON TESSERATI FIDAL 01:02:03
    1125 MM50 129  1566 GIULIANO Mario 1957 BA543 MARATHON CLUB MINERVINO 01:02:04
    1126 MM40 176   974 CASERTANO Raffaele 1966 BA007 CUS BARI 01:02:04
    1127 LIB   234   292 CELLAMARE Nicola I 1949 BA999 NON TESSERATI FIDAL 01:02:05
    1128 MM60    36  1425 PALERMO Francesco 1948 BA580 A.S.D.  AGORA' 01:02:05
    1129 TM 86  1519 DEFAZIO Michele 1976 BA538 ATLETI  VALLE DELL'OFANTO 01:02:06
    1130 LIB   235  3472 PELLEGRINO Francesco I 1970 BA999 NON TESSERATI FIDAL 01:02:07
    1131 LIB   236   941 VENTRICELLI Sergio I 1975 BA999 NON TESSERATI FIDAL 01:02:08
    1132 MF40    16  1019 CASSANO Carmela 1967 BA025 A.S. AMATORI PUTIGNANO 01:02:09
    1133 MM60    37   145 RANDO Tommaso 1948 BA010 A.S.D. DOPOLAVORO FERROVIARIO 01:02:09
    1134 LIB   237  2808 DELL'ORCO Stefania I 1969 BA999 NON TESSERATI FIDAL 01:02:10
    1135 MM40 177   756 STELLACCI Vito 1967 BA547 A.S.CORRIMONDO BITONTO 01:02:10
    1136 MM50 130  1199 LAMANUZZI Sabino 1957 BA041 ATLETICA PRO CANOSA 01:02:11
    1137 MM50 131  1236 AMEN Nicola 1954 PZ555 PODISTICA HERMES LAVELLO 01:02:11
    1138 MM55 61   401 FRACCASCIA Giuseppe 1950 BA005 AMATORI ATL. ACQUAVIVA 01:02:12
    1139 MM45 196  1379 SCIANANDRONE Giuseppe 1962 BA507 A.MARATONETI ANDRIESI 01:02:12
    1140 MM50 132  1380 SCIANANDRONE Vincenzo 1958 BA507 A.MARATONETI ANDRIESI 01:02:13
    1141 LIB   238  2817 SIGNORILE Giuseppe I 1960 BA999 NON TESSERATI FIDAL 01:02:13
    1142 TM 87  1675 BAGORDA Francesco 1976 BR141 POLISPORT CICLO CLUB FASANO 01:02:14
    1143 MM50 133   901 LOSETO Francesco 1955 BA505 A.S. QUELLI DELLA PINETA 01:02:14
    1144 TM 88  1679 ABATINO Adolfo 1979 FG264 A.S. CULTURALE POD. S. STEFANO 01:02:15
    1145 MM40 178  1678 CAPPIELLO Donato 1964 FG264 A.S. CULTURALE POD. S. STEFANO 01:02:16
    1146 MM40 179   994 SANTORO Francesco 1967 FG264 A.S. CULTURALE POD. S. STEFANO 01:02:18
    1147 LIB   239  3653 LOVINO Giuseppe I 1992 BA999 NON TESSERATI FIDAL 01:02:19
    1148 LIB   240   906 BARRACANE Michele I 1961 BA999 NON TESSERATI FIDAL 01:02:20
    1149 MM55 62  3553 ARDITO Filippo 1949 BA530 G.S.BRIGATA CORAZZATA PINEROLO 01:02:21
    1150 LIB   241  2873 ANDREASSI Mario I 1969 BA999 NON TESSERATI FIDAL 01:02:22
    1151 MM60    38  1621 MARAGLINO Paolo 1944 BA502 A.S.D. MONTEDORO NOCI 01:02:23
    1152 MM60    39  1458 PALMISANO Francesco 1947 TA423 CLUB RUNNER 87 VALENTE ARREDI 01:02:24
    1153 MM55 63   236 MANGIALARDI Lorenzo 1953 BA586 A.S.D.ASOPICO RUNNER BARI 01:02:25
    1154 MM40 180   244 TOTA Nicola 1967 BA586 A.S.D.ASOPICO RUNNER BARI 01:02:26
    1155 CM     4   630 GIULIANI Luigi I 1994 BA050 A.S.NICOLAUS ATHLETIC CENTER 01:02:26
    1156 LIB   242  3821 ROBLES Nicola I 1961 BA999 NON TESSERATI FIDAL 01:02:27
    1157 LIB   243  3531 RUTA Giuseppe I 1958 BA999 NON TESSERATI FIDAL 01:02:27
    1158 LIB   244   174 AVVENIENTE Onofrio I 1962 BA999 NON TESSERATI FIDAL 01:02:28
    1159 MM60    40  1117 SCHINO Michele 1947 BA062 A.S. KANKUDAI 01:02:29
    1160 MM45 197 3624 DELL'OLIO Antonio 1963 BA082 ATLETICA TOMMASO ASSI TRANI 01:02:29
    1161 LIB   245  2700 D'ADDABBO Leonardo I 1968 BA999 NON TESSERATI FIDAL 01:02:30
    1162 LIB   246  3630 GENTILE Lorenzo I 1956 BA999 NON TESSERATI FIDAL 01:02:31
    1163 MM40 181   150 NEVIERA Giuseppe 1966 BA010 A.S.D. DOPOLAVORO FERROVIARIO 01:02:31
    1164 LIB   247  2642 CARRIERI Mario I 1963 BA999 NON TESSERATI FIDAL 01:02:32
    1165 MF45    15   407 HERGARTEN Daniela 1961 BA047 NUOVA ATL. FEMM. ACQUAVIVA 01:02:33
    1166 MM40 182   352 GIANNINI Liberato 1964 BA039 A.S. AMICI STRADA DEL TESORO 01:02:34
    1167 MM50 134   945 GINEFRA Domenico 1957 BA007 CUS BARI 01:02:34
    1168 MM45 198   778 NIGRI Fabio 1963 BA582 SPORTING C. BISCEGLIE RUNNING 01:02:35
    1169 MM40 183   442 PARADISO Alfonso 1966 BA082 ATLETICA TOMMASO ASSI TRANI 01:02:36
    1170 MF45    16  1173 CRUCIATA Angela 1959 BA531 A.S.D. SAN NICOLA RUNNERS 01:02:36
    1171 MM50 135  1238 MARTINO Eligio Mauro 1954 PZ555 PODISTICA HERMES LAVELLO 01:02:37
    1172 MM55 64   328 LEO Salvatore 1952 BA039 A.S. AMICI STRADA DEL TESORO 01:02:37
    1173 LIB   248  3228 IURLO Lorenzo I 1974 BA999 NON TESSERATI FIDAL 01:02:38
    1174 MM40 184    76 SQUICCIARINO Michele 1964 BA093 ATLETIC CLUB ALTAMURA 01:02:38
    1175 LIB   249  2777 SCARPINO Damiano I 1956 BA999 NON TESSERATI FIDAL 01:02:38
    1176 MM45 199  1543 RUSIGNIUOLO Nicola 1962 BA505 A.S. QUELLI DELLA PINETA 01:02:39
    1177 LIB   250  3940 MUSCARITOLO Giuseppe I 1961 BA999 NON TESSERATI FIDAL 01:02:40
    1178 MM45 200   857 DI GIOIA Leonardo 1962 BA578 ATLETICA AUFIDUS 01:02:40
    1179 MM45 201   166 PINTO Michele 1960 BA093 ATLETIC CLUB ALTAMURA 01:02:41
    1180 MM65 12   314 BUZZOTTA Giovanni 1940 BA039 A.S. AMICI STRADA DEL TESORO 01:02:42
    1181 MM50 136  1457 NINNI Antonio 1955 TA423 CLUB RUNNER 87 VALENTE ARREDI 01:02:42
    1182 MM50 137   776 GARGIULO Angelo Giosue' 1954 BA582 SPORTING C. BISCEGLIE RUNNING 01:02:43
    1183 LIB   251  3344 BITETTO Antonio I 1970 BA999 NON TESSERATI FIDAL 01:02:44
    1184 MM65 13   602 LORIZZO Antonio 1942 BA043 G.S.ATLETICA AMATORI CORATO 01:02:44
    1185 MM50 138    97 LOCONSOLE Costanzo 1957 BA052 BARI ROAD RUNNERS CLUB 01:02:45
    1186 LIB   252   529 PALASCIANO Gianfranco I 1972 BA999 NON TESSERATI FIDAL 01:02:46
    1187 LIB   253  2769 CIRILLO Fabio I 1966 BA999 NON TESSERATI FIDAL 01:02:46
    1188 MM45 202   210 BENEDETTO Giovanni 1959 BA049 G.S.P. III REGIONE AEREA BARI 01:02:47
    1189 TM 89  1551 PAVONE Tommaso 1975 BA579 A.S.D. NADIR 01:02:47
    1190 LIB   254  2663 SPIZZICO Massimo I 1976 BA999 NON TESSERATI FIDAL 01:02:48
    1191 LIB   255   905 MITOLA Donato I 1947 BA999 NON TESSERATI FIDAL 01:02:49
    1192 LIB   256  3890 BITETTO Vincenzo I 1973 BA999 NON TESSERATI FIDAL 01:02:50
    1193 MM50 139   421 DATTOLO Ottavio 1957 BA555 AVIS PODISTICA MOLA 01:02:51
    1194 LIB   257  3891 BITETTO Filippo I 1976 BA999 NON TESSERATI FIDAL 01:02:52
    1195 MM45 203 1042 PALUMBO Domenico 1961 BA535 A.S. ATLETICA POLIGNANO 01:02:52
    1196 MM45 204  1606 GIANCANE Tommaso 1963 BA502 A.S.D. MONTEDORO NOCI 01:02:52
    1197 LIB   258  3958 LORUSSO Domenico I 1980 BA999 NON TESSERATI FIDAL 01:02:53
    1198 MM60    41  1626 ANTONACCI Rocco 1948 BA553 ATLETICA ADELFIA 01:02:55
    1199 LIB   259  3459 GRISORIO Francesco I 1959 BA999 NON TESSERATI FIDAL 01:02:56
    1200 LIB   260  1654 ROCA Marcello I 1985 BA999 NON TESSERATI FIDAL 01:02:57
    1201 LIB   261  2821 SCIACOVELLI Domenico I 1985 BA999 NON TESSERATI FIDAL 01:02:58
    1202 MM60    42   156 GELAO Raffaele 1947 BA014 ATL. FERROTRANVIARIA 01:02:59
    1203 TM 90  1408 CASSANO Francesco 1977 BA512 POL.GRAVINA AELECTI S.GRAMEGNA 01:02:59
    1204 MM40 185   414 DELMEDICO Paolo 1964 BA545 AMATORI ATLETICA TRIGGIANO 01:03:00
    1205 MM40 186   991 QUARTO Francesco 1965 FG264 A.S. CULTURALE POD. S. STEFANO 01:03:01
    1206 MM35 101   825 CHIAPPARINO Cristiano 1971 BA546 POD. VALLE D'ITRIA LOCOROTONDO 01:03:01
    1207 TM 91    25 DE NATALE Nicola 1983 BA551 ASS. NAZIONALE BERSAGLIERI BAR 01:03:02
    1208 MM60    43  1397 MASCOLO Ruggiero Antoni 1945 FG284 MARGHERITA DI SAVOIA RUNNERS 01:03:03
    1209 LIB   262  2695 MONTEFUSCO Antonio I 1956 BA999 NON TESSERATI FIDAL 01:03:05
    1210 LIB   263  2261 FRANCO Coisimo I 1950 BA999 NON TESSERATI FIDAL 01:03:06
    1211 MM45 205   775 DI BITETTO Giuseppe 1959 BA582 SPORTING C. BISCEGLIE RUNNING 01:03:08
    1212 LIB   264  2647 FUCCI Raffaele I 1996 BA999 NON TESSERATI FIDAL 01:03:09
    1213 MM55 65  1466 LORUSSO Paolo 1953 BR113 ATLETICA CASALINI 01:03:10
    1214 LIB   265  2992 SILLETTI Claudio I 1987 BA999 NON TESSERATI FIDAL 01:03:11
    1215 MM40 187   995 REDDAVIDE Pasquale 1967 FG264 A.S. CULTURALE POD. S. STEFANO 01:03:12
    1216 MM55 66  1286 DE IUDICIBUS Nicola 1950 BA554 FREE RUNNERS MOLFETTA 01:03:13
    1217 MM60    44  1283 MILONE Gaetano 1946 BA554 FREE RUNNERS MOLFETTA 01:03:13
    1218 MF45    17   958 LUCARIELLO Domenica 1961 BA007 CUS BARI 01:03:14
    1219 MM45 206 1043 RESSA Giuseppe 1960 BA535 A.S. ATLETICA POLIGNANO 01:03:15
    1220 MM40 188   125 DITROIA Ruggero 1964 FG257 G.S. ATL. SAN FERDINANDO 01:03:15
    1221 LIB   266  2387 ROMANAZZI Vito I 1981 BA999 NON TESSERATI FIDAL 01:03:16
    1222 MM40 189   859 DI STASI Cosimo 1967 BA578 ATLETICA AUFIDUS 01:03:17
    1223 LIB   267  3811 SILVASTRI Piero I 1960 BA999 NON TESSERATI FIDAL 01:03:19
    1224 LIB   268  3810 BATTISTA Giovanni I 1960 BA999 NON TESSERATI FIDAL 01:03:20
    1225 TM 92  1486 LOSAVIO Francesco 1980 BA550 AVIS IN CORSA CONVERSANO 01:03:21
    1226 MM60    45  1574 TRICARICO Vito 1947 BA543 MARATHON CLUB MINERVINO 01:03:22
    1227 MM45 207  1287 CALDAROLA Paolo 1963 BA554 FREE RUNNERS MOLFETTA 01:03:23
    1228 MM35 102  1603 CALICCHIO Giovanni 1969 BA502 A.S.D. MONTEDORO NOCI 01:03:24
    1229 MF40    17   598 GALLO Nicoletta 1964 BA043 G.S.ATLETICA AMATORI CORATO 01:03:25
    1230 LIB   269  3396 SCALERA Tommaso I 1979 BA999 NON TESSERATI FIDAL 01:03:26
    1231 MM35 103 3626 PAOLILLO Antonio 1972 BA082 ATLETICA TOMMASO ASSI TRANI 01:03:26
    1232 ASM 33   359 SARDONE Domenico I 1958 BA005 AMATORI ATL. ACQUAVIVA 01:03:27
    1233 LIB   270  2789 CONVERSANO Lello I 1959 BA999 NON TESSERATI FIDAL 01:03:28
    1234 LIB   271  2532 MONNO Ignazio I 1953 BA999 NON TESSERATI FIDAL 01:03:29
    1235 LIB   272  2727 RANALDO Vincenzo I 1963 BA999 NON TESSERATI FIDAL 01:03:30
    1236 MM45 208  1358 MERRA Angelo 1960 BA507 A.MARATONETI ANDRIESI 01:03:31
    1237 LIB   273  2653 FANELLI Francesco I 1970 BA999 NON TESSERATI FIDAL 01:03:32
    1238 MM35 104  1631 CHIECHI Francesco 1971 BA553 ATLETICA ADELFIA 01:03:33
    1239 LIB   274  3860 FUSCO Nicola I 1955 BA999 NON TESSERATI FIDAL 01:03:34
    1240 MM50 140 1039 MANCINI Cosimo 1958 BA535 A.S. ATLETICA POLIGNANO 01:03:34
    1241 MM45 209    23 DI CONNO Giuseppe 1962 BA551 ASS. NAZIONALE BERSAGLIERI BAR 01:03:35
    1242 LIB   275  3777 DE BENEDICTIS Michele I 1956 BA999 NON TESSERATI FIDAL 01:03:36
    1243 LIB   276   565 BARRACCHIA Cristoforo I 1946 BA999 NON TESSERATI FIDAL 01:03:37
    1244 LIB   277  2617 CASSANO Francesco I 1965 BA999 NON TESSERATI FIDAL 01:03:37
    1245 MM50 141   852 PASTORE Francesco 1954 BA029 A.A.'E. MANZARI' CASAMASSIMA 01:03:37
    1246 LIB   278  3671 CARNEVALE Walter I 1952 BA999 NON TESSERATI FIDAL 01:03:38
    1247 LIB   279  2654 TRISCIUZZI Leonardo I 1972 BA999 NON TESSERATI FIDAL 01:03:38
    1248 MM55 67  1590 SEMERARO Giuseppe 1952 BR113 ATLETICA CASALINI 01:03:38
    1249 LIB   280  2756 SCARABAGGIO Angelo Gius I 1960 BA999 NON TESSERATI FIDAL 01:03:38
    1250 LIB   281   572 MELILLO Franceso I 1971 BA999 NON TESSERATI FIDAL 01:03:39
    1251 MF35     8   307 FAVIA Annamaria 1969 BA039 A.S. AMICI STRADA DEL TESORO 01:03:39
    1252 MM45 210   345 COLUCCI Onofrio 1962 BA039 A.S. AMICI STRADA DEL TESORO 01:03:39
    1253 LIB   282  3252 FERRARA Onofrio I 1956 BA999 NON TESSERATI FIDAL 01:03:40
    1254 LIB   283  3460 INTRONA Domenico I 1965 BA999 NON TESSERATI FIDAL 01:03:40
    1255 MM55 68   146 ZONNO Gioacchino 1951 BA010 A.S.D. DOPOLAVORO FERROVIARIO 01:03:41
    1256 LIB   284  3220 ABBINANTE Antonio I 1964 BA999 NON TESSERATI FIDAL 01:03:41
    1257 LIB   285  3521 LAUDADIO Marco I 1976 BA999 NON TESSERATI FIDAL 01:03:42
    1258 MM45 211   781 DE GIROLAMO Fausto 1960 BA582 SPORTING C. BISCEGLIE RUNNING 01:03:42
    1259 LIB   286  2806 CANTONE Vito I 1962 BA999 NON TESSERATI FIDAL 01:03:43
    1260 LIB   287  2733 SCHINO Maurizio I 1962 BA999 NON TESSERATI FIDAL 01:03:43
    1261 LIB   288  3357 CEGLIE Gianfranco I 1965 BA999 NON TESSERATI FIDAL 01:03:44
    1262 MM45 212    66 PALASCIANO Francesco 1962 BA093 ATLETIC CLUB ALTAMURA 01:03:44
    1263 MM50 142  1127 VITALE Girolamo 1957 BA062 A.S. KANKUDAI 01:03:45
    1264 LIB   289   940 RIGLIETTI Michele I 1973 BA999 NON TESSERATI FIDAL 01:03:45
    1265 TM 93 3625 BATTAGLIA Adriano 1974 BA082 ATLETICA TOMMASO ASSI TRANI 01:03:45
    1266 LIB   290  3935 LAGRASTA Sabino I 1963 BA999 NON TESSERATI FIDAL 01:03:46
    1267 MM60    46   953 PALMISANO Michele 1948 BA546 POD. VALLE D'ITRIA LOCOROTONDO 01:03:46
    1268 MM50 143  1385 SURIANO Antonio 1956 BA507 A.MARATONETI ANDRIESI 01:03:46
    1269 LIB   291  2691 DE GIROLAMO Pasquale I 1972 BA999 NON TESSERATI FIDAL 01:03:48
    1270 LIB   292   904 DI DONNA Giuseppe I 1959 BA999 NON TESSERATI FIDAL 01:03:48
    1271 LIB   293  3428 VURRO Michele I 1965 BA999 NON TESSERATI FIDAL 01:03:49
    1272 LIB   294  2714 ROPPO Francesco I 1973 BA999 NON TESSERATI FIDAL 01:03:50
    1273 LIB   295  3883 FRACCHIOLLA Elisabetta I 1963 BA999 NON TESSERATI FIDAL 01:03:50
    1274 LIB   296  2843 SABATO Fabio I 1982 BA999 NON TESSERATI FIDAL 01:03:51
    1275 LIB   297  2864 CIALDERA Cataldo I 1941 BA999 NON TESSERATI FIDAL 01:03:51
    1276 MF35     9  1296 DE PINTO Raffaella 1969 BA554 FREE RUNNERS MOLFETTA 01:03:52
    1277 MM65 14   475 FUCCI Domenico Raffael 1942 BA544 ATLETICA DISFIDA DI BARLETTA 01:03:52
    1278 MM50 144  1406 BURDI Giacomo 1958 BA512 POL.GRAVINA AELECTI S.GRAMEGNA 01:03:53
    1279 MM35 105  1226 D'ITALIA Donato 1969 PZ555 PODISTICA HERMES LAVELLO 01:03:59
    1280 MM50 145  1133 CAROPPO Francesco 1958 BA531 A.S.D. SAN NICOLA RUNNERS 01:04:00
    1281 MM45 213    91 CROLLO Salvatore 1959 BA052 BARI ROAD RUNNERS CLUB 01:04:02
    1282 MM50 146   637 SIFARELLI Luigi 1956 BA050 A.S.NICOLAUS ATHLETIC CENTER 01:04:03
    1283 LIB   298  3646 PASCULLI Francesco I 1967 BA999 NON TESSERATI FIDAL 01:04:04
    1284 MM35 106   607 MASTRONICOLA Nicola 1971 BA043 G.S.ATLETICA AMATORI CORATO 01:04:04
    1285 MF45    18   469 DAMATO Immacolata 1959 BA544 ATLETICA DISFIDA DI BARLETTA 01:04:05
    1286 MM50 147   470 DITERLIZZI Pasquale 1958 BA544 ATLETICA DISFIDA DI BARLETTA 01:04:05
    1287 LIB   299  2556 VIVACE Nino I 1961 BA999 NON TESSERATI FIDAL 01:04:06
    1288 LIB   300  2761 COIA Nicola I 1962 BA999 NON TESSERATI FIDAL 01:04:07
    1289 MM60    47   827 CARDONE Donato 1945 BA546 POD. VALLE D'ITRIA LOCOROTONDO 01:04:07
    1290 LIB   301  3888 DALESSANDRO Daniele I 1981 BA999 NON TESSERATI FIDAL 01:04:08
    1291 LIB   302   710 ALTAMURA Giuseppe I 1972 BA999 NON TESSERATI FIDAL 01:04:09
    1292 MM45 214  1688 VALENTE Nicola Giuseppe 1960 BA550 AVIS IN CORSA CONVERSANO 01:04:10
    1293 MF50     2  1222 MERCO Nicoletta 1958 BA041 ATLETICA PRO CANOSA 01:04:12
    1294 MM50 148  1202 MANGINO Biagio 1955 BA041 ATLETICA PRO CANOSA 01:04:13
    1295 LIB   303  2884 DONVITO Carlo I 1954 BA999 NON TESSERATI FIDAL 01:04:14
    1296 MM40 190  1563 DI PALO Michele 1967 BA543 MARATHON CLUB MINERVINO 01:04:15
    1297 MM50 149  1387 TEDESCO Riccardo 1955 BA507 A.MARATONETI ANDRIESI 01:04:16
    1298 LIB   304   183 PAPPALETTERA Vincenzo I 1959 BA999 NON TESSERATI FIDAL 01:04:24
    1299 LIB   305  3466 RUSSO Lorenzo I 1962 BA999 NON TESSERATI FIDAL 01:04:25
    1300 MM40 191   167 TESORO Giovanni 1964 BA093 ATLETIC CLUB ALTAMURA 01:04:26
    1301 LIB   306  3797 PORTOGHESE Vincenzo I 1958 BA999 NON TESSERATI FIDAL 01:04:26
    1302 MM50 150   211 FRESCHINI Domenico Giov 1958 BA049 G.S.P. III REGIONE AEREA BARI 01:04:27
    1303 TF 10 3627 DE PINTO Marika 1972 BA082 ATLETICA TOMMASO ASSI TRANI 01:04:27
    1304 LIB   307   392 CASSANO Nuccio I 1968 BA999 NON TESSERATI FIDAL 01:04:28
    1305 LIB   308  3819 SASANELLI Luigi I 1957 BA999 NON TESSERATI FIDAL 01:04:28
    1306 MM45 215 1032 CARONE Natale 1961 BA535 A.S. ATLETICA POLIGNANO 01:04:29
    1307 LIB   309  2600 VIVACE Antonio I 1974 BA999 NON TESSERATI FIDAL 01:04:29
    1308 MM40 192   855 CENTRONE Lorenzo 1967 BA578 ATLETICA AUFIDUS 01:04:30
    1309 MM50 151   780 RANA Francesco 1957 BA582 SPORTING C. BISCEGLIE RUNNING 01:04:30
    1310 MF45    19   878 CUSANO Anna 1960 BA505 A.S. QUELLI DELLA PINETA 01:04:32
    1311 MM45 216  1285 SCARCIA Roberto 1961 BA554 FREE RUNNERS MOLFETTA 01:04:33
    1312 MM60 48 1041 NISTRIO Vito Giuseppe 1946 BA535 A.S. ATLETICA POLIGNANO 01:04:33
    1313 MM50 152  1638 GATTI Vincenzo 1958 BA553 ATLETICA ADELFIA 01:04:33
    1314 MM45 217  1368 PICCOLO Riccardo 1963 BA507 A.MARATONETI ANDRIESI 01:04:34
    1315 LIB   310  2819 MURRO Nicola I 1960 BA999 NON TESSERATI FIDAL 01:04:37
    1316 LIB   311   539 INCAMPO Francesco I 1995 BA999 NON TESSERATI FIDAL 01:04:38
    1317 MM40 193  1357 MATERA Mario 1968 BA507 A.MARATONETI ANDRIESI 01:04:38
    1318 LIB   312  3567 OSTI Tommaso I 1971 BA999 NON TESSERATI FIDAL 01:04:39
    1319 MF50     3   624 DE PALMA Maria Teresa 1954 BA050 A.S.NICOLAUS ATHLETIC CENTER 01:04:40
    1320 LIB   313  3809 D'ADABBO Domenico I 1911 BA999 NON TESSERATI FIDAL 01:04:50
    1321 LIB   314  3781 BRANDONISIO Ferdinando I 1984 BA999 NON TESSERATI FIDAL 01:04:51
    1322 LIB   315  3782 CATALDO Vito I 1978 BA999 NON TESSERATI FIDAL 01:04:53
    1323 MM35 107 1034 DE GIRARDIS Vincenzo 1972 BA535 A.S. ATLETICA POLIGNANO 01:04:53
    1324 LIB   316  3949 RANIERI Michele I 1961 BA999 NON TESSERATI FIDAL 01:04:53
    1325 MM55 69   300 PERRELLI Michele 1950 BA039 A.S. AMICI STRADA DEL TESORO 01:04:54
    1326 MM45 218 1035 DE RUSSIS Vito 1961 BA535 A.S. ATLETICA POLIGNANO 01:04:54
    1327 LIB   317  3843 GAROFALO Michele I 1960 BA999 NON TESSERATI FIDAL 01:04:55
    1328 LIB   318  3903 DORONZO Vito I 1949 BA999 NON TESSERATI FIDAL 01:04:56
    1329 MM50 153  1573 TARANTO Antonio 1956 BA543 MARATHON CLUB MINERVINO 01:04:56
    1330 LIB   319  2501 GENCHI Gianni I 1948 BA999 NON TESSERATI FIDAL 01:04:57
    1331 MF40    18   604 MANGIONE Luisa 1967 BA043 G.S.ATLETICA AMATORI CORATO 01:04:58
    1332 MM40 194   356 NAPOLETANO Teodoro 1964 BA039 A.S. AMICI STRADA DEL TESORO 01:05:00
    1333 LIB   320  3889 PUGLIESE Guido I 1961 BA999 NON TESSERATI FIDAL 01:05:00
    1334 MM40 195  1561 BRANDI Arcangelo 1968 BA543 MARATHON CLUB MINERVINO 01:05:01
    1335 LIB   321  3939 FABIANO Antonio I 1959 BA999 NON TESSERATI FIDAL 01:05:02
    1336 LIB   322   564 MANNATRIZIO Michele I 1946 BA999 NON TESSERATI FIDAL 01:05:02
    1337 MM50 154  1444 CANGIULLI Salvatore 1954 TA423 CLUB RUNNER 87 VALENTE ARREDI 01:05:03
    1338 MF40    19  1174 DE GIOSA Eugenia 1965 BA531 A.S.D. SAN NICOLA RUNNERS 01:05:04
    1339 TF 11  1177 MELE Antonia 1976 BA531 A.S.D. SAN NICOLA RUNNERS 01:05:04
    1340 MM45 219  1065 SERLENGA Gerardo 1962 BA509 POD. CANUSIUM 2004 01:05:05
    1341 MM55 70  1485 LOVECCHIO Luigi 1952 BA550 AVIS IN CORSA CONVERSANO 01:05:08
    1342 LIB   323  3950 LAUDADIO Felice I 1954 BA999 NON TESSERATI FIDAL 01:05:09
    1343 MF35    10   956 CIRILLO Marigea 1969 BA007 CUS BARI 01:05:10
    1344 LIB   324  3468 GIORGIO Andrea I 1984 BA999 NON TESSERATI FIDAL 01:05:11
    1345 MM65 15   219 CARACCIOLO Riccardo 1941 BA522 MURGIA MARATHON ANDRIA 01:05:12
    1346 TM 94  1562 CHIEPPA Cesare 1979 BA543 MARATHON CLUB MINERVINO 01:05:13
    1347 LIB   325  2531 SOLFRIZZO Francesco I 1955 BA999 NON TESSERATI FIDAL 01:05:14
    1348 MF45    20  1223 ZINGARELLI Maria 1961 BA041 ATLETICA PRO CANOSA 01:05:15
    1349 MM55 71  1188 DI BIASE Michele 1949 BA041 ATLETICA PRO CANOSA 01:05:16
    1350 MF40    20   224 MEMEO Annamaria 1967 BA522 MURGIA MARATHON ANDRIA 01:05:17
    1351 MM45 220  1382 SGARAMELLA Riccardo 1962 BA507 A.MARATONETI ANDRIESI 01:05:17
    1352 LIB   326  2609 SCOGNAMILLO Fabrizio I 1974 BA999 NON TESSERATI FIDAL 01:05:18
    1353 LIB   327  3461 DE CEGLIE Nicolo' I 1972 BA999 NON TESSERATI FIDAL 01:05:18
    1354 MM55 72  1179 AMORESE Michele 1952 BA041 ATLETICA PRO CANOSA 01:05:19
    1355 LIB   328   816 PATERNO Giovanni I 1958 BA999 NON TESSERATI FIDAL 01:05:19
    1356 LIB   329  2574 MILELLA Domenico I 1965 BA999 NON TESSERATI FIDAL 01:05:20
    1357 LIB   330  3019 BORTONE Giuseppe I 1987 BA999 NON TESSERATI FIDAL 01:05:20
    1358 MM45 221  1113 POCCHIARI Savino 1959 BA062 A.S. KANKUDAI 01:05:21
    1359 MM35 108  1228 MAZZARELLI Andrea Rocco 1970 PZ555 PODISTICA HERMES LAVELLO 01:05:22
    1360 MM35 109  1314 ANTOLINI Francesco 1969 BA507 A.MARATONETI ANDRIESI 01:05:23
    1361 LIB   331  2990 MAZZACANE  Francesco I 1985 BA999 NON TESSERATI FIDAL 01:05:24
    1362 MM40 196   608 MEZZINA Giuseppe Davide 1966 BA043 G.S.ATLETICA AMATORI CORATO 01:05:25
    1363 MM55 73  1510 PARENTE Salvatore 1949 BA538 ATLETI  VALLE DELL'OFANTO 01:05:25
    1364 LIB   332  3480 GALENTINO Andrea I 1976 BA999 NON TESSERATI FIDAL 01:05:26
    1365 LIB   333   910 PIARULLI Gaetano I 1955 BA999 NON TESSERATI FIDAL 01:05:27
    1366 LIB   334  3346 FINO Emanuele I 1975 BA999 NON TESSERATI FIDAL 01:05:28
    1367 LIB   335  2537 AGRESTI Mario I 1961 BA999 NON TESSERATI FIDAL 01:05:29
    1368 MM40 197  1554 IANNATTONE Paolo 1966 BA579 A.S.D. NADIR 01:05:29
    1369 LIB   336  2872 COMENTALE Paolo I 1956 BA999 NON TESSERATI FIDAL 01:05:30
    1370 MM45 222   793 PICCA Mauro 1959 BA582 SPORTING C. BISCEGLIE RUNNING 01:05:31
    1371 MM50 155  2605 CARADONNA Angelantonio 1958 BA511 G.S. VVF BARI 01:05:32
    1372 MM65 16  3540 DIACONO Gaetano 1939 BA530 G.S.BRIGATA CORAZZATA PINEROLO 01:05:33
    1373 LIB   337  3952 PETRUZZELLI Cinzia I 1968 BA999 NON TESSERATI FIDAL 01:05:34
    1374 MM70     4  1579 ROMANO Antonio 1938 BR113 ATLETICA CASALINI 01:05:35
    1375 MM55 74  1629 BRUNO Giuseppe 1951 BA553 ATLETICA ADELFIA 01:05:36
    1376 MF40    21    64 MORAMARCO Maria Girolam 1966 BA093 ATLETIC CLUB ALTAMURA 01:05:37
    1377 TF 12    69 DANTILE Valentina 1978 BA093 ATLETIC CLUB ALTAMURA 01:05:38
    1378 MM60 49  1198 LAMANUZZI Gaetano 1946 BA041 ATLETICA PRO CANOSA 01:05:39
    1379 MM50 156   626 DI CEGLIE Pietro 1955 BA050 A.S.NICOLAUS ATHLETIC CENTER 01:05:40
    1380 MM60 50   874 BIALLO Vincenzo 1946 BA505 A.S. QUELLI DELLA PINETA 01:05:41
    1381 LIB   338  2536 GUGLIELMI Riccardo I 1967 BA999 NON TESSERATI FIDAL 01:05:42
    1382 MM50 157  1344 LAMESTA Onofrio 1956 BA507 A.MARATONETI ANDRIESI 01:05:43
    1383 LIB   339  3956 MILELLA Armando I 1970 BA999 NON TESSERATI FIDAL 01:05:44
    1384 MM55 75   795 DI GREGORIO Vittorio 1950 BA582 SPORTING C. BISCEGLIE RUNNING 01:05:45
    1385 MM55 76  1194 FORZIATI Vincenzo 1950 BA041 ATLETICA PRO CANOSA 01:05:46
    1386 LIB   340   801 DITERLIZZI Angelo I 1933 BA999 NON TESSERATI FIDAL 01:05:47
    1387 MM45 223  1158 PRISCIANDARO Vincenzo 1961 BA531 A.S.D. SAN NICOLA RUNNERS 01:05:47
    1388 LIB   341  3464 CAPPELLUTI Paolo I 1954 BA999 NON TESSERATI FIDAL 01:05:48
    1389 MF45    21   633 RUSSO Anna Maria 1960 BA050 A.S.NICOLAUS ATHLETIC CENTER 01:05:48
    1390 LIB   342  3845 RANIERI Carlo I 1962 BA999 NON TESSERATI FIDAL 01:05:49
    1391 MM50 158   627 DI LUZIO Antonio 1955 BA050 A.S.NICOLAUS ATHLETIC CENTER 01:05:49
    1392 MM60 51  1140 CORALLO Cosimo Giorgio 1946 BA531 A.S.D. SAN NICOLA RUNNERS 01:05:50
    1393 ASF     5   536 CEGLIA Mariangela I 1990 BA541 ALTEATLETICA ALTAMURA 01:05:51
    1394 MM35 110  1381 SGARAMELLA Francesco 1971 BA507 A.MARATONETI ANDRIESI 01:05:51
    1395 MM35 111  1366 PASTORE Vincenzo 1969 BA507 A.MARATONETI ANDRIESI 01:05:51
    1396 MM40 198   182 MOSCATELLI Alessandro 1964 BA529 A.S. TRANI MARATHON 01:05:52
    1397 LIB   343  3192 BUONO Gaetano I 1947 BA999 NON TESSERATI FIDAL 01:05:52
    1398 LIB   344  2610 DI MATTEO Antonio I 1978 BA999 NON TESSERATI FIDAL 01:05:53
    1399 LIB   345  3528 CUOMO Alberto I 1973 BA999 NON TESSERATI FIDAL 01:05:53
    1400 LIB   346   294 CONCA Francesco I 1976 BA999 NON TESSERATI FIDAL 01:05:53
    1401 MM45 224   343 AMORUSO Giovanni 1963 BA039 A.S. AMICI STRADA DEL TESORO 01:05:54
    1402 LIB   347  3389 ACQUAVIVA Giovanni I 1976 BA999 NON TESSERATI FIDAL 01:05:54
    1403 TM 95 1266 SFERRI MICHELE 1988 BA551 ASS. NAZIONALE BERSAGLIERI BAR 01:05:55
    1404 MM50 159   984 COLANGIONE Pio Giuseppe 1958 FG264 A.S. CULTURALE POD. S. STEFANO 01:05:56
    1405 LIB   348  2508 DE BENEDICTIS Vincenzo I 1961 BA999 NON TESSERATI FIDAL 01:05:56
    1406 MF40    22   592 DIAFERIA Anna 1967 BA043 G.S.ATLETICA AMATORI CORATO 01:05:57
    1407 LIB   349  3881 CILIBERTI Lucia I 1960 BA999 NON TESSERATI FIDAL 01:05:57
    1408 MM40 199  1661 DE LUISI Raffaele 1966 BA521 A.S. DOF AMATORI TURI 01:05:58
    1409 MM45 225   881 LAMORGESE Emanuele 1961 BA505 A.S. QUELLI DELLA PINETA 01:06:00
    1410 LIB   350  3776 GUASTADISEGNI Luigi I 1960 BA999 NON TESSERATI FIDAL 01:06:01
    1411 LIB   351  2725 MICCHETTI Leopoldo I 1972 BA999 NON TESSERATI FIDAL 01:06:02
    1412 MM55 77  1440 GRASSI Giuseppe 1953 BA526 PODISTICA ALBEROBELLO A.S.D. 01:06:03
    1413 LIB   352  3387 PETRONELLA Saverio I 1970 BA999 NON TESSERATI FIDAL 01:06:04
    1414 MM40 200   660 MANGIALARDI Giuseppe 1964 BA587 LA PIETRA 01:06:05
    1415 MM60 52   319 DE NICOLO' Gaetano 1946 BA039 A.S. AMICI STRADA DEL TESORO 01:06:06
    1416 MM40 201   870 DE ROSA Luca 1964 FG282 A.S.D. ATLETICA SAN SEVERO 01:06:08
    1417 MM45 226  1149 MASELLI Nicola 1962 BA531 A.S.D. SAN NICOLA RUNNERS 01:06:08
    1418 LIB   353  3503 SAMPOGNA Salvatore I 1984 BA999 NON TESSERATI FIDAL 01:06:10
    1419 MM50 160  1630 CAMPAGNA Gaetano 1954 BA553 ATLETICA ADELFIA 01:06:11
    1420 LIB   354   515 FACENDOLA Donato I 1955 BA999 NON TESSERATI FIDAL 01:06:12
    1421 MM65 17  1438 POTENZA Antonio 1939 BR144 ATALAS SAN VITO DEI NORMANNI 01:06:14
    1422 LIB   355  2630 LEONE Roberto I 1956 BA999 NON TESSERATI FIDAL 01:06:15
    1423 LIB   356  2545 VIRGILIO Pietro I 1959 BA999 NON TESSERATI FIDAL 01:06:16
    1424 LIB   357  3565 LABIANCA Vito I 1954 BA999 NON TESSERATI FIDAL 01:06:17
    1425 MM60 53  1012 CASSONE Luigi 1946 BA025 A.S. AMATORI PUTIGNANO 01:06:20
    1426 MM60 54  1011 SABATELLI Alberto 1947 BA025 A.S. AMATORI PUTIGNANO 01:06:23
    1427 TM 96   817 TRABACE Giuseppe 1978 BA099 POL. 'D. PIETRI' GRAVINA 01:06:24
    1428 LIB   358  2870 DEPALMA Damiano I 1972 BA999 NON TESSERATI FIDAL 01:06:26
    1429 LIB   359  2869 DE PALMA Michelangelo I 1971 BA999 NON TESSERATI FIDAL 01:06:28
    1430 LIB   360  3031 ALTAMURA Maurizio I 1961 BA999 NON TESSERATI FIDAL 01:06:39
    1431 MF50     4  1085 CRUCIATA Anna 1957 BA062 A.S. KANKUDAI 01:06:40
    1432 LIB   361  2636 COVELLI Giuseppe I 1976 BA999 NON TESSERATI FIDAL 01:06:40
    1433 MM40 202   118 NURRA Antonio 1966 BA590 POL. LIBERTAS CELLAMARE A.S.D. 01:06:41
    1434 LIB   362  3519 PIERNO Alfredo I 1976 BA999 NON TESSERATI FIDAL 01:06:42
    1435 MF40    23  1436 RANIERI Elisabetta 1967 BA580 A.S.D.  AGORA' 01:06:42
    1436 MM50 161   924 PASCALI Nicola 1955 BA058 ATLETICA  MONOPOLI 01:06:43
    1437 MM40 203   127 ROSATO Pasquale 1965 FG257 G.S. ATL. SAN FERDINANDO 01:06:43
    1438 MM75     1   313 RICCIARDIELLO Donato 1933 BA039 A.S. AMICI STRADA DEL TESORO 01:06:44
    1439 LIB   363  3279 CORNACCHIA Giovanni I 1967 BA999 NON TESSERATI FIDAL 01:06:44
    1440 LIB   364   517 LOPORCARO Giuseppe I 1985 BA999 NON TESSERATI FIDAL 01:06:45
    1441 LIB   365   518 CANNITO Nunzio I 1949 BA999 NON TESSERATI FIDAL 01:06:46
    1442 LIB   366  3463 PETRUZZELLA Giuseppe I 1963 BA999 NON TESSERATI FIDAL 01:06:47
    1443 MM45 227  1401 DI PACE Michele 1961 FG284 MARGHERITA DI SAVOIA RUNNERS 01:06:48
    1444 LIB   367  3445 D'AGOSTINO Vito I 1958 BA999 NON TESSERATI FIDAL 01:06:49
    1445 MM45 228  1169 TISCI Michele 1962 BA531 A.S.D. SAN NICOLA RUNNERS 01:06:50
    1446 MM40 204  1400 BERLOCO Giovanni 1964 FG284 MARGHERITA DI SAVOIA RUNNERS 01:06:51
    1447 MM65 18   109 DI CARNE Pasquale 1943 BA052 BARI ROAD RUNNERS CLUB 01:06:52
    1448 LIB   368   560 AGOSTINACCHIO Luigi I 1941 BA999 NON TESSERATI FIDAL 01:06:52
    1449 LIB   369   516 LOPORCARO Michele I 1954 BA999 NON TESSERATI FIDAL 01:06:53
    1450 LIB   370  2723 PARTIPILO Nicolantonio I 1953 BA999 NON TESSERATI FIDAL 01:06:54
    1451 MM50 162   871 FARELLA Angelo 1955 FG282 A.S.D. ATLETICA SAN SEVERO 01:06:55
    1452 LIB   371  2763 MARCONI Giuseppe I 1948 BA999 NON TESSERATI FIDAL 01:06:56
    1453 MM45 229   777 GERMINARIO Celestino 1959 BA582 SPORTING C. BISCEGLIE RUNNING 01:06:57
    1454 MF35    11  1018 DIDONNA Agnese 1972 BA025 A.S. AMATORI PUTIGNANO 01:06:58
    1455 LIB   372  2635 RENDINE Riccardo I 1980 BA999 NON TESSERATI FIDAL 01:06:59
    1456 TM 97  1594 LAFORGIA Feliciano 1974 BA502 A.S.D. MONTEDORO NOCI 01:06:59
    1457 MM45 230  1431 MILELLA Agostino 1960 BA580 A.S.D.  AGORA' 01:07:03
    1458 MM60 55  1243 ZENOBI Mario 1945 PZ555 PODISTICA HERMES LAVELLO 01:07:04
    1459 LIB   373  3072 SCIACOVELLI Francesco I 1964 BA999 NON TESSERATI FIDAL 01:07:04
    1460 MM45 231  1275 GRECO Oronzo 1962 BR139 GYMNASIUM S. PANCRAZIO 01:07:05
    1461 MF40    24  1278 PETARRA Antonella 1967 BR139 GYMNASIUM S. PANCRAZIO 01:07:06
    1462 LIB   374  3465 MONGELLI Mauro I 1963 BA999 NON TESSERATI FIDAL 01:07:07
    1463 MM50 163  1405 DIAFERIO Tommaso 1955 FG284 MARGHERITA DI SAVOIA RUNNERS 01:07:08
    1464 MM55 78  1282 GADALETA Domenico 1949 BA554 FREE RUNNERS MOLFETTA 01:07:10
    1465 MM50 164    19 LANGIANESE Paolo 1954 BA551 ASS. NAZIONALE BERSAGLIERI BAR 01:07:10
    1466 LIB   375  3226 IANNONE Vincenzo I 1952 BA999 NON TESSERATI FIDAL 01:07:11
    1467 LIB   376  2713 IACORELLIS Francesco I 1972 BA999 NON TESSERATI FIDAL 01:07:14
    1468 MM45 232  1415 ESPOSTO Domenico 1963 BA512 POL.GRAVINA AELECTI S.GRAMEGNA 01:07:15
    1469 LIB   377  2669 PESCE Giacomo I 1963 BA999 NON TESSERATI FIDAL 01:07:15
    1470 LIB   378  2575 IACOBELLIS Silvio I 1965 BA999 NON TESSERATI FIDAL 01:07:17
    1471 LIB   379  3632 SGARRA Mauro I 1967 BA999 NON TESSERATI FIDAL 01:07:22
    1472 MM55 79  1213 PIGLIONICA Michele 1949 BA041 ATLETICA PRO CANOSA 01:07:23
    1473 LIB   380  2385 MAIELLARO Luigi I 1965 BA999 NON TESSERATI FIDAL 01:07:24
    1474 LIB   381  2562 DE PAOLA Cecilia I 1979 BA999 NON TESSERATI FIDAL 01:07:25
    1475 LIB   382  2676 LOMBARDI Michele I 1953 BA999 NON TESSERATI FIDAL 01:07:26
    1476 LIB   383  2539 ABRUZZESE Nicola I 1962 BA999 NON TESSERATI FIDAL 01:07:28
    1477 LIB   384  2874 MELCHIORRE Giuseppe I 1964 BA999 NON TESSERATI FIDAL 01:07:31
    1478 LIB   385   928 LANERA Natale I 1951 BA999 NON TESSERATI FIDAL 01:07:33
    1479 LIB   386  3650 RUCCIA Vincenzo I 1976 BA999 NON TESSERATI FIDAL 01:07:36
    1480 LIB 387  3775 CATANESE Francesco I 1965 BA999 NON TESSERATI FIDAL 01:07:36
    1481 LIB 388  3858 RACANIELLO Domenico I 1957 BA999 NON TESSERATI FIDAL 01:07:37
    1482 MM50 165  1098 FOGGETTI Giovanni 1955 BA062 A.S. KANKUDAI 01:07:39
    1483 MM60 56  1426 INTRONA Gennaro 1948 BA580 A.S.D.  AGORA' 01:07:40
    1484 LIB 389  2836 VOLPE Teresa I 1961 BA999 NON TESSERATI FIDAL 01:07:40
    1485 MM45 233   618 FORMOSO Andrea 1959 BA517 ASS. DILETTANTIST BARIMARATONA 01:07:41
    1486 MF45    22  1297 DE CEGLIA Ottavia Eugen 1963 BA554 FREE RUNNERS MOLFETTA 01:07:42
    1487 MM50 166  1191 FALCETTA Cosimo Damiano 1955 BA041 ATLETICA PRO CANOSA 01:07:43
    1488 MM55 80   955 MESTO Vito 1952 BA007 CUS BARI 01:07:43
    1489 LIB 390  2646 DI GIROLAMO Annalisa I 1971 BA999 NON TESSERATI FIDAL 01:07:44
    1491 LIB 391  2597 RUTIGLIANO Francesco I 1959 BA999 NON TESSERATI FIDAL 01:07:45
    1492 LIB 392  3882 FRACCHIOLLA Maria Domen I 1959 BA999 NON TESSERATI FIDAL 01:07:47
    1493 LIB 393  2645 VICRIANI Michele I 1965 BA999 NON TESSERATI FIDAL 01:07:48
    1494 MM45 234  1639 GERMANO' Stefano 1960 BA553 ATLETICA ADELFIA 01:07:48
    1495 LIB 394  3924 SANELLI Ilde I 1111 BA999 NON TESSERATI FIDAL 01:07:49
    1496 LIB 395  3937 SOECCHIO Pasquale I 1966 BA999 NON TESSERATI FIDAL 01:07:50
    1497 LIB 396   909 VINO Antonia I 1969 BA999 NON TESSERATI FIDAL 01:07:51
    1498 MM50 167  1419 LEONE Pietro 1957 BA512 POL.GRAVINA AELECTI S.GRAMEGNA 01:07:51
    1499 LIB 397  3532 DI PINTO Laura I 1991 BA999 NON TESSERATI FIDAL 01:07:52
    1500 MM45 235  1633 DI PINTO Luigi 1962 BA553 ATLETICA ADELFIA 01:07:53
    1501 LIB 398  3174 PERSANO Augusto I 1955 BA999 NON TESSERATI FIDAL 01:07:53
    1502 LIB 399  2989 NETTIS  Giovanni I 1986 BA999 NON TESSERATI FIDAL 01:07:54
    1503 LIB 400  2260 GATTOLLA Luca I 1995 BA999 NON TESSERATI FIDAL 01:07:55
    1504 LIB 410  2730 GATTOLLA Raffaele I 1960 BA999 NON TESSERATI FIDAL 01:07:55
    1505 LIB 402  2608 BALENZANO Cosimo I 1975 BA999 NON TESSERATI FIDAL 01:07:56
    1506 LIB 403  2832 QUINTO Giuseppe I 1964 BA999 NON TESSERATI FIDAL 01:07:57
    1507 LIB 404  3476 MAFFIONE Leonardo I 1967 BA999 NON TESSERATI FIDAL 01:07:58
    1508 LIB 405  2717 CHIERICO Michele I 1974 BA999 NON TESSERATI FIDAL 01:07:59
    1509 LIB 406   573 MELILLO Francesco I 1954 BA999 NON TESSERATI FIDAL 01:08:00
    1510 MF55     2  1252 VALDENAIRE Francoise 1952 BA551 ASS. NAZIONALE BERSAGLIERI BAR 01:08:01
    1511 LIB 407  2809 FERRI Filomena I 1971 BA999 NON TESSERATI FIDAL 01:08:01
    1512 LIB 408  3040 LARICCHIA Rocco I 1967 BA999 NON TESSERATI FIDAL 01:08:02
    1513 MM35 112   231 CALABRESE Giuseppe 1970 BA586 A.S.D.ASOPICO RUNNER BARI 01:08:03
    1514 LIB 409  2783 FILOGRASSO Massimo I 1960 BA999 NON TESSERATI FIDAL 01:08:03
    1515 LIB 410  3834 ORFINO Pietro I 1946 BA999 NON TESSERATI FIDAL 01:08:08
    1516 LIB 411  3841 COVELLI Vito I 1949 BA999 NON TESSERATI FIDAL 01:08:09
    1517 LIB 412  3513 RAISO Francesco I 1977 BA999 NON TESSERATI FIDAL 01:08:10
    1518 LIB 413   561 PALMIERI Ignazio I 1966 BA999 NON TESSERATI FIDAL 01:08:11
    1519 MM50 168   452 ANTONUCCI Luigi 1955 BA544 ATLETICA DISFIDA DI BARLETTA 01:08:11
    1520 LIB 414  2724 IACOBELLIS Michele I 1961 BA999 NON TESSERATI FIDAL 01:08:12
    1521 LIB 415  3672 CASSANO Pietro I 1961 BA999 NON TESSERATI FIDAL 01:08:13
    1522 MM65 19    18 MANSI Amato 1943 BA551 ASS. NAZIONALE BERSAGLIERI BAR 01:08:13
    1523 MM60 57  1655 RICUPERO Domenico 1944 BA007 CUS BARI 01:08:14
    1524 LIB 416  2807 FIORE Alberto I 1956 BA999 NON TESSERATI FIDAL 01:08:15
    1525 MF40    25  1020 CALDAROLA Maria 1967 BA025 A.S. AMATORI PUTIGNANO 01:08:16
    1526 LIB 417  3277 TEDESCO Donato I 1950 BA999 NON TESSERATI FIDAL 01:08:18
    1527 LIB 418  3880 MACINA Michele I 1972 BA999 NON TESSERATI FIDAL 01:08:19
    1528 LIB 419  3530 PECORELLA Gennaro I 1974 BA999 NON TESSERATI FIDAL 01:08:20
    1529 LIB 420  2534 MULE' Donato I 1958 BA999 NON TESSERATI FIDAL 01:08:21
    1530 LIB 421   537 CIRROTTOLA Michele I 1966 BA999 NON TESSERATI FIDAL 01:08:22
    1531 LIB 422  3356 NITTI Gennaro I 1967 BA999 NON TESSERATI FIDAL 01:08:23
    1532 LIB 423  1683 CASSANO Domenico I 1963 BA999 NON TESSERATI FIDAL 01:08:24
    1533 LIB 424  2668 LAVIOSA Franco I 1950 BA999 NON TESSERATI FIDAL 01:08:25
    1534 LIB 425  3043 D'AMBRUOSO Mcihele I 1946 BA999 NON TESSERATI FIDAL 01:08:26
    1535 LIB 426  2614 DE SANTIS Laura I 1974 BA999 NON TESSERATI FIDAL 01:08:26
    1536 LIB 427  3471 CIFARELLI Pietro I 1978 BA999 NON TESSERATI FIDAL 01:08:27
    1537 MM55 81  1575 VITAGLIANO Carlo 1953 BA543 MARATHON CLUB MINERVINO 01:08:28
    1538 LIB 428  3280 LORUSSO Sabatino I 1965 BA999 NON TESSERATI FIDAL 01:08:29
    1539 LIB 429  2781 MESSA Nicola I 1980 BA999 NON TESSERATI FIDAL 01:08:32
    1540 LIB 430  3938 ANNACONDIA Leonardo I 1961 BA999 NON TESSERATI FIDAL 01:08:34
    1541 TM 98  1572 SCIASCIA Giulio 1980 BA543 MARATHON CLUB MINERVINO 01:08:34
    1542 LIB 431  2680 GIULIANO Sabino I 1958 BA999 NON TESSERATI FIDAL 01:08:35
    1543 LIB 432  3972 DE TULLIO Carmine I 1944 BA999 NON TESSERATI FIDAL 01:08:36
    1544 LIB 433  2745 QUERO Giovanni I 1966 BA999 NON TESSERATI FIDAL 01:08:39
    1545 MF45    23    12 PETRUZZELLI Cristina 1962 BA551 ASS. NAZIONALE BERSAGLIERI BAR 01:08:40
    1546 MF50     5   845 MAGLIO Maria 1954 BA029 A.A.'E. MANZARI' CASAMASSIMA 01:08:41
    1547 LIB 434  3243 ARMENISE Nicola I 1968 BA999 NON TESSERATI FIDAL 01:08:42
    1548 TM 99  1560 BEVILACQUA Luigi 1985 BA543 MARATHON CLUB MINERVINO 01:08:43
    1549 MM60 58   751 CUOCCIO Luigi 1947 BA547 A.S.CORRIMONDO BITONTO 01:08:43
    1550 MF35    12   885 PADOVANO Lucrezia 1969 BA505 A.S. QUELLI DELLA PINETA 01:08:44
    1551 MM50 169  1130 BISCIONE Rocco 1955 BA531 A.S.D. SAN NICOLA RUNNERS 01:08:44
    1552 LIB 435  3936 DI GENNARO Sabino I 1963 BA999 NON TESSERATI FIDAL 01:08:45
    1553 LIB 436  2715 SOLLECITO Adriano I 1969 BA999 NON TESSERATI FIDAL 01:08:48
    1554 MM60 59   184 PICCOLINI Cosimo 1944 BA529 A.S. TRANI MARATHON 01:08:48
    1555 LIB 437  2577 FINO Pietro I 1944 BA999 NON TESSERATI FIDAL 01:08:49
    1556 MF40    26   851 PASTORE Addolorata 1967 BA029 A.A.'E. MANZARI' CASAMASSIMA 01:08:50
    1557 TM 100   553 INTERMITE Carlo 1975 BR134 ASS. AMICI ATL.VILLA CASTELLI 01:08:52
    1558 LIB 438  1300 DE BELLIS Annastella I 1971 BA999 NON TESSERATI FIDAL 01:08:53
    1559 MF50     6  1118 STRIPPOLI Lucrezia 1958 BA062 A.S. KANKUDAI 01:08:53
    1560 MM55 82  1028 FASCICOLO Pasquale 1949 BA587 LA PIETRA 01:08:54
    1561 MF40    27   648 BELLAROSA Angela 1964 BA587 LA PIETRA 01:08:55
    1562 MM45 236   654 DALOISO Nicola 1963 BA587 LA PIETRA 01:08:56
    1563 MM40 205  1167 STARACE Antonio 1965 BA531 A.S.D. SAN NICOLA RUNNERS 01:08:57
    1564 LIB 439  3507 FENDORRINI Dino I 1962 BA999 NON TESSERATI FIDAL 01:08:58
    1565 LIB 440  3506 MONNO Giuseppe I 1954 BA999 NON TESSERATI FIDAL 01:08:59
    1566 MF35    13   652 COLONNA Teresa 1969 BA587 LA PIETRA 01:09:00
    1567 MM45 237   377 PETRUZZELLIS Leonardo 1960 BA005 AMATORI ATL. ACQUAVIVA 01:09:01
    1568 MM45 238   380 BRUNO Giacomo 1962 BA005 AMATORI ATL. ACQUAVIVA 01:09:02
    1569 MM45 239   388 TROILO Angelo 1959 BA005 AMATORI ATL. ACQUAVIVA 01:09:03
    1570 LIB 441  3222 ROMANO Vito I 1968 BA999 NON TESSERATI FIDAL 01:09:04
    1571 MM45 240  1433 BATTISTA Francesco Paol 1962 BA580 A.S.D.  AGORA' 01:09:05
    1572 LIB 442  2584 SERIO Vittoriano I 1976 BA999 NON TESSERATI FIDAL 01:09:07
    1573 LIB 443  2546 MATERA Giovanni I 1969 BA999 NON TESSERATI FIDAL 01:09:09
    1574 LIB 444  2755 DE TULLIO Domenico I 1949 BA999 NON TESSERATI FIDAL 01:09:12
    1575 MM50 170  1647 PALAZZO Francesco 1956 BA553 ATLETICA ADELFIA 01:09:14
    1576 LIB 445  3509 PETRONI Prospero I 1962 BA999 NON TESSERATI FIDAL 01:09:15
    1577 LIB 446  2583 PUGLIESE Antonietta I 1980 BA999 NON TESSERATI FIDAL 01:09:16
    1578 LIB 447   571 STERLICCHIO Domenico I 1940 BA999 NON TESSERATI FIDAL 01:09:17
    1579 LIB 448  2515 SALVEMINI Marco I 1974 BA999 NON TESSERATI FIDAL 01:09:18
    1580 LIB 449  3313 DI VAGNO Donato I 1959 BA999 NON TESSERATI FIDAL 01:09:19
    1581 MM55 83   417 BRUNETTI Vitantonio 1952 BA555 AVIS PODISTICA MOLA 01:09:19
    1582 LIB 450  3633 MASTRAPASQUA Mauro I 1968 BA999 NON TESSERATI FIDAL 01:09:19
    1583 LIB 451  3634 ROCCHITELLI Pasquale I 1973 BA999 NON TESSERATI FIDAL 01:09:20
    1584 LIB 452  3823 OSIMANI Salvatore I 1969 BA999 NON TESSERATI FIDAL 01:09:21
    1585 LIB 453  2503 GENCHI Antonio I 1947 BA999 NON TESSERATI FIDAL 01:09:22
    1586 MF50     7  1052 DI SIBIO Angela 1954 BA509 POD. CANUSIUM 2004 01:09:22
    1587 LIB 454   566 GRIECO Michele I 1948 BA999 NON TESSERATI FIDAL 01:09:23
    1588 MM55 84   822 FERRANTE Vito 1950 BA546 POD. VALLE D'ITRIA LOCOROTONDO 01:09:24
    1589 LIB 455  3063 VOLPICELLA Vito I 1111 BA999 NON TESSERATI FIDAL 01:09:25
    1590 LIB 456  2543 FAVULLO Gennaro I 1960 BA999 NON TESSERATI FIDAL 01:09:26
    1591 MM60 60   274 CARONE Vincenzo 1944 BA520 A.S. BARINCORSA 01:09:27
    1592 LIB 457  3236 LOCONSOLE Leonardo I 1974 BA999 NON TESSERATI FIDAL 01:09:29
    1593 LIB 458  2262 FRANCO Danilo I 1987 BA999 NON TESSERATI FIDAL 01:09:37
    1594 LIB 459  2552 NITTI Michele I 1954 BA999 NON TESSERATI FIDAL 01:09:39
    1595 LIB 460  3514 COLAIANNI Stefano I 1955 BA999 NON TESSERATI FIDAL 01:09:41
    1596 LIB 461  3971 BONASIA Vincenzo I 1946 BA999 NON TESSERATI FIDAL 01:09:42
    1597 LIB 462  3075 LORUSSO Pietro I 1962 BA999 NON TESSERATI FIDAL 01:09:43
    1599 MM55 85  1619 MARTUCCI Giuseppe 1952 BA502 A.S.D. MONTEDORO NOCI 01:09:44
    1600 MM45 241    80 BOCCIA Claudio 1963 BA093 ATLETIC CLUB ALTAMURA 01:09:46
    1601 MM45 242  1432 TRANI Vincenzo 1961 BA580 A.S.D.  AGORA' 01:09:48
    1602 LIB 463  2785 FIORE Michele I 1911 BA999 NON TESSERATI FIDAL 01:09:50
    1603 MF40    28   266 MARRONE Emanuela 1965 BA522 MURGIA MARATHON ANDRIA 01:09:51
    1604 MM50 171   218 BARILE Michele 1955 BA522 MURGIA MARATHON ANDRIA 01:09:52
    1605 TM 101  1660 COLAPIETRO Domenico 1974 BA521 A.S. DOF AMATORI TURI 01:09:54
    1606 LIB 464  2780 GIANDOMENICO Alberto I 1947 BA999 NON TESSERATI FIDAL 01:09:56
    1607 MM50 172  1499 SPIZZICO Silvio 1956 BA580 A.S.D.  AGORA' 01:09:57
    1608 MM35 113  1600 SANTAMARIA Antonio 1973 BA502 A.S.D. MONTEDORO NOCI 01:09:58
    1609 LIB 465  2828 MIRIZZI Antonella I 1984 BA999 NON TESSERATI FIDAL 01:09:58
    1610 MM55 86   155 CAMPAGNA Sabino 1950 BA014 ATL. FERROTRANVIARIA 01:09:59
    1611 LIB 466  2551 CORSINI Geremia I 1968 BA999 NON TESSERATI FIDAL 01:10:00
    1612 LIB 467  2856 BOSCO Roberto I 1968 BA999 NON TESSERATI FIDAL 01:10:00
    1613 LIB 468  3859 PATANO Francesco I 1969 BA999 NON TESSERATI FIDAL 01:10:01
    1614 MM45 243  1305 FERRANTE Pietro 1963 BA057 ATHLETIC MARATHON SANTERAMO 01:10:08
    1615 LIB 469  3245 LOCONSOLE Pasqua I 1969 BA999 NON TESSERATI FIDAL 01:10:09
    1616 LIB 470  3794 PACUCCI Emanuele I 1970 BA999 NON TESSERATI FIDAL 01:10:10
    1617 LIB 471  2879 BERNARDI Maurizop I 1968 BA999 NON TESSERATI FIDAL 01:10:11
    1618 MF35    14  1517 FREZZA Angela Maria 1969 BA538 ATLETI  VALLE DELL'OFANTO 01:10:12
    1619 LIB 472  2576 GAROFALO Giuseppe I 1960 BA999 NON TESSERATI FIDAL 01:10:14
    1620 MF40    29   887 PRIORE Teresa 1964 BA505 A.S. QUELLI DELLA PINETA 01:10:16
    1621 MM60 61   902 MAGARELLI Sergio Paolo 1948 BA505 A.S. QUELLI DELLA PINETA 01:10:17
    1622 LIB 473  2549 CASSANO Domenico I 1986 BA999 NON TESSERATI FIDAL 01:10:18
    1623 LIB 474  2550 CIOCE Michele I 1985 BA999 NON TESSERATI FIDAL 01:10:18
    1624 LIB 475  2811 MAZZILLI Assunta I 1977 BA999 NON TESSERATI FIDAL 01:10:21
    1625 LIB 476  2810 BUTTIGLIONE Armando I 1973 BA999 NON TESSERATI FIDAL 01:10:22
    1626 LIB 477  2564 CONTI Ettore I 1963 BA999 NON TESSERATI FIDAL 01:10:23
    1627 LIB 478  1591 BARBERIO Nicola Vito I 1970 BA999 NON TESSERATI FIDAL 01:10:24
    1628 LIB 479  2541 DIAFERIA Lorenzo I 1953 BA999 NON TESSERATI FIDAL 01:10:24
    1629 LIB 480  2544 GUGLIELMI Giuseppe I 1964 BA999 NON TESSERATI FIDAL 01:10:25
    1630 MM65 20   163 CARINGELLA Luigi 1940 RM041 G.S. BANCARI ROMANI 01:10:26
    1631 LIB 481  3237 MSIELLO Giovanni I 1993 BA999 NON TESSERATI FIDAL 01:10:26
    1632 LIB 482  3066 MINERVA Gennaro I 1954 BA999 NON TESSERATI FIDAL 01:10:27
    1633 MM50 173  1277 LUBERTO Mario 1957 BR139 GYMNASIUM S. PANCRAZIO 01:10:30
    1634 LIB 483  3221 CARFAGNINI Nunzio I 1993 BA999 NON TESSERATI FIDAL 01:10:32
    1635 LIB 484  3862 LOBEFARO Doriana I 1982 BA999 NON TESSERATI FIDAL 01:10:33
    1636 LIB 485  2664 CALABRESE Gaetano I 1958 BA999 NON TESSERATI FIDAL 01:10:33
    1637 MM55 87  1616 FUSILLO Domenico 1951 BA502 A.S.D. MONTEDORO NOCI 01:10:34
    1638 LIB 486  2506 MISCEO Giovanni I 1965 BA999 NON TESSERATI FIDAL 01:10:35
    1639 LIB 487  3233 MARGARITO Donato I 1952 BA999 NON TESSERATI FIDAL 01:10:36
    1640 LIB 488   271 RICCARDI Silvio I 1962 BA999 NON TESSERATI FIDAL 01:10:36
    1641 MM60 62 2542 ANIELLO Michele   BA507 A.MARATONETI ANDRIESI 01:10:37
    1642 LIB 489  2705 LEGROTTAGLIE Maria I 1948 BA999 NON TESSERATI FIDAL 01:10:37
    1643 LIB 490  3536 BELLEZZA Nicola I 1957 BA999 NON TESSERATI FIDAL 01:10:38
    1644 MM50 174   152 QUISTELLI Vitantonio 1957 BA010 A.S.D. DOPOLAVORO FERROVIARIO 01:10:39
    1645 LIB 491  3027 DIDONNA Lorenzo I 1961 BA999 NON TESSERATI FIDAL 01:10:41
    1646 LIB 492  2771 RIZZI Alessandro I 1980 BA999 NON TESSERATI FIDAL 01:10:45
    1647 LIB 493  2773 PATRUNO Luigi I 1950 BA999 NON TESSERATI FIDAL 01:10:47
    1648 LIB 494  3406 DE MARINIS Nicola I 1964 BA999 NON TESSERATI FIDAL 01:10:48
    1649 TM 102   223 SOLDANO Giovanni 1974 BA522 MURGIA MARATHON ANDRIA 01:10:49
    1650 LIB 495  3904 ANGIULLI Raffaele I 1950 BA999 NON TESSERATI FIDAL 01:10:54
    1651 MF45    24    16 BARNABA' Maddalena 1961 BA551 ASS. NAZIONALE BERSAGLIERI BAR 01:10:55
    1652 LIB 496  2749 SINANTR Gianpiero I 1976 BA999 NON TESSERATI FIDAL 01:10:56
    1653 MM60 63    11 MASSARI Giovanni 1947 BA551 ASS. NAZIONALE BERSAGLIERI BAR 01:10:57
    1654 MM60 64   217 ABRUZZESE Carlo 1946 BA522 MURGIA MARATHON ANDRIA 01:10:58
    1655 LIB 497   856 DI BIASE Leonarda I 1961 BA999 NON TESSERATI FIDAL 01:10:59
    1656 MM40 206   770 PRIORE Giuseppe 1964 BA005 AMATORI ATL. ACQUAVIVA 01:11:00
    1657 MM50 175   864 MINERVA Sabino 1958 BA578 ATLETICA AUFIDUS 01:11:01
    1658 LIB 498  3557 VOLPE Sara I 1977 BA999 NON TESSERATI FIDAL 01:11:02
    1659 MM40 207   990 DELL'AIA Domenico 1964 FG264 A.S. CULTURALE POD. S. STEFANO 01:11:02
    1660 LIB 499  3615 DI MARCO Massimiliano I 1970 BA999 NON TESSERATI FIDAL 01:11:03
    1661 LIB 500  3818 CAUTERO Livio I 1972 BA999 NON TESSERATI FIDAL 01:11:06
    1662 TF 13   478 BIZZOCA Grazia 1974 BA544 ATLETICA DISFIDA DI BARLETTA 01:11:07
    1663 LIB 501  3537 LAPEDOTA Antonio I 1111 BA999 NON TESSERATI FIDAL 01:11:10
    1664 MM40 208   494 ANDRIOLO Cosimo 1966 BA544 ATLETICA DISFIDA DI BARLETTA 01:11:11
    1665 LIB 502  3430 MINAFRA Fabio I 1970 BA999 NON TESSERATI FIDAL 01:11:12
    1666 LIB 503  2674 CANNONE Antonio I 1973 BA999 NON TESSERATI FIDAL 01:11:13
    1667 MM45 244  1156 PASSAQUINDICI Pasquale 1963 BA531 A.S.D. SAN NICOLA RUNNERS 01:11:14
    1668 LIB 504  3429 ABBATISCIANNI Antonio I 1971 BA999 NON TESSERATI FIDAL 01:11:15
    1669 TF 14 1265 RICCI MARIA TERESA 1986 BA551 ASS. NAZIONALE BERSAGLIERI BAR 01:11:15
    1670 LIB 505  2594 COLELLA Giuseppe I 1954 BA999 NON TESSERATI FIDAL 01:11:16
    1671 LIB 506  2994 BRESCIA Carmela I 1986 BA999 NON TESSERATI FIDAL 01:11:16
    1672 LIB 507  2999 CUSMAN Carlo I 1986 BA999 NON TESSERATI FIDAL 01:11:17
    1673 MM65 21    68 CORNACCHIA Biagio 1942 BA093 ATLETIC CLUB ALTAMURA 01:11:18
    1674 LIB 508  2505 ANACLERIO Domenico I 1956 BA999 NON TESSERATI FIDAL 01:11:19
    1675 MM50 176  1214 PROCACCI Antonio 1956 BA041 ATLETICA PRO CANOSA 01:11:20
    1676 LIB 509  3029 LEONE Aldo I 1957 BA999 NON TESSERATI FIDAL 01:11:20
    1677 LIB 510  3827 TATEO Pietro I 1973 BA999 NON TESSERATI FIDAL 01:11:21
    1678 MF40    30   883 LOSITO Celeste 1964 BA505 A.S. QUELLI DELLA PINETA 01:11:21
    1679 LIB 511  3561 MICELI Enzo I 1955 BA999 NON TESSERATI FIDAL 01:11:21
    1680 LIB 512  3656 FERRARA Giuseppe I 1961 BA999 NON TESSERATI FIDAL 01:11:22
    1681 LIB 513  2547 DE NICOLO' Donato I 1962 BA999 NON TESSERATI FIDAL 01:11:22
    1682 LIB 514  3076 RANIERI Ezio I 1966 BA999 NON TESSERATI FIDAL 01:11:25
    1683 LIB 515  3068 BOSCA Vittorio I 1963 BA999 NON TESSERATI FIDAL 01:11:26
    1684 MF50     8  1374 QUACQUARELLI Santola 1958 BA507 A.MARATONETI ANDRIESI 01:11:28
    1685 LIB 516  3191 LOSACCO Alberto I 1945 BA999 NON TESSERATI FIDAL 01:11:28
    1686 MM50 177   773 DE SIMONE Vincenzo 1956 BA582 SPORTING C. BISCEGLIE RUNNING 01:11:29
    1687 MF60     1   279 MAZZA Lucia 1947 BA520 A.S. BARINCORSA 01:11:30
    1688 MF45    25  1334 DI BIASE Erminia 1961 BA507 A.MARATONETI ANDRIESI 01:11:30
    1689 MM55 88  1571 ROCHIRA Ciro 1949 BA543 MARATHON CLUB MINERVINO 01:11:30
    1690 MM60 65  1307 PERRONE Raffaele 1948 BA057 ATHLETIC MARATHON SANTERAMO 01:11:35
    1691 MM55 89   273 CARBONARA Cosimo 1951 BA520 A.S. BARINCORSA 01:11:41
    1692 LIB 517  3067 DEFANO Giuseppe I 1955 BA999 NON TESSERATI FIDAL 01:11:42
    1693 TF 15   504 CALABRESE Rosa 1977 BA541 ALTEATLETICA ALTAMURA 01:11:44
    1694 MM60 66   306 TAVANO Vincenzo 1944 BA039 A.S. AMICI STRADA DEL TESORO 01:11:45
    1695 LIB 518  2880 DELLINO Nicola I 1989 BA999 NON TESSERATI FIDAL 01:11:47
    1696 LIB 519  3002 SCAFE' Elio I 1968 BA999 NON TESSERATI FIDAL 01:11:49
    1697 MM40 209   791 DEGAETANO Giuseppe 1968 BA582 SPORTING C. BISCEGLIE RUNNING 01:11:51
    1698 LIB 520  3241 OSTUNI Giusi I 1961 BA999 NON TESSERATI FIDAL 01:11:53
    1699 MM40 210  1038 RAGNO Angelo 1964 BA587 LA PIETRA 01:11:57
    1700 LIB 521  3785 SCALERA Domenico I 1911 BA999 NON TESSERATI FIDAL 01:11:59
    1701 LIB 522  2802 LOSETO Antonio I 1965 BA999 NON TESSERATI FIDAL 01:12:02
    1702 MM40 211   786 ZONNO Vito 1964 BA582 SPORTING C. BISCEGLIE RUNNING 01:12:03
    1703 LIB 523  2741 ROSSINI Michele I 1967 BA999 NON TESSERATI FIDAL 01:12:06
    1704 LIB 524  3242 BUONAMICO Fabio I 1975 BA999 NON TESSERATI FIDAL 01:12:07
    1705 LIB 525  3240 PUNZI Donato I 1959 BA999 NON TESSERATI FIDAL 01:12:08
    1706 MM55 90  1644 MARRAFFINO Francesco An 1950 BA553 ATLETICA ADELFIA 01:12:09
    1708 MF45    26   299 PERCHIAZZI Maria 1961 BA039 A.S. AMICI STRADA DEL TESORO 01:12:10
    1709 MM70     5   879 DE ASTIS Vito 1935 BA505 A.S. QUELLI DELLA PINETA 01:12:12
    1710 LIB 526  2750 FACCILONGO Michele I 1956 BA999 NON TESSERATI FIDAL 01:12:13
    1711 MM40 212   649 CALDARULO Giuseppe 1964 BA587 LA PIETRA 01:12:14
    1712 LIB 527  3846 DI FONTE Luigi I 1973 BA999 NON TESSERATI FIDAL 01:12:15
    1713 LIB 528  3028 PALMISANO Michele I 1963 BA999 NON TESSERATI FIDAL 01:12:16
    1714 LIB 529  3517 PRIMAVERA Benedetta I 1964 BA999 NON TESSERATI FIDAL 01:12:19
    1715 MM70     6   276 INVERARDI Vittorio 1937 BA520 A.S. BARINCORSA 01:12:20
    1716 MF40    31   278 MARTIRADONNA Teresa 1966 BA520 A.S. BARINCORSA 01:12:21
    1717 MM50 178   247 RONGA Antimo 1956 BA049 G.S.P. III REGIONE AEREA BARI 01:12:22
    1718 MM40 213   246 D'ALESIO Giuseppe 1965 BA049 G.S.P. III REGIONE AEREA BARI 01:12:23
    1719 LIB 530  2535 SGARRA Salvatore I 1968 BA999 NON TESSERATI FIDAL 01:12:24
    1720 LIB 531  3892 ERCOLANO Gregorio I 1956 BA999 NON TESSERATI FIDAL 01:12:25
    1721 MM60 67 3619 LORUSSO Michele 1946 BA082 ATLETICA TOMMASO ASSI TRANI 01:12:25
    1722 LIB 532  2760 DE GIGLIO Maurizio I 1964 BA999 NON TESSERATI FIDAL 01:12:26
    1724 LIB 533  2386 CAPRIATI Nicola I 1962 BA999 NON TESSERATI FIDAL 01:12:32
    1725 LIB 534  3554 DE GENNARO Paolo I 1966 BA999 NON TESSERATI FIDAL 01:12:33
    1726 MM40 214  1553 MARIO Antonio 1968 BA579 A.S.D. NADIR 01:12:36
    1727 LIB 535  2590 TANZI Giacinto I 1970 BA999 NON TESSERATI FIDAL 01:12:37
    1728 LIB 536  3442 ANZANO Alfonso I 1961 BA999 NON TESSERATI FIDAL 01:12:47
    1729 MM35 114  1601 FANIZZI Giacomo 1969 BA502 A.S.D. MONTEDORO NOCI 01:12:55
    1730 MM50 179  1611 ANGIULLI Giacinto 1956 BA502 A.S.D. MONTEDORO NOCI 01:12:58
    1731 LIB 537  3511 MAZZEO Giovanni I 1947 BA999 NON TESSERATI FIDAL 01:12:59
    1732 LIB 538  2837 LADISA Nicola I 1964 BA999 NON TESSERATI FIDAL 01:13:08
    1733 MM70     7   235 LATTANZI Domenico 1937 BA586 A.S.D.ASOPICO RUNNER BARI 01:13:09
    1734 MM65 22  1496 LOPRIENO Lorenzo 1939 BA062 A.S. KANKUDAI 01:13:10
    1735 LIB 539  3919 SERGIO Sabino I 1960 BA999 NON TESSERATI FIDAL 01:13:14
    1736 MM55 91   862 LAPIA Giuseppe 1949 BA578 ATLETICA AUFIDUS 01:13:14
    1737 LIB 540  3869 CARADONNA Angela I 1961 BA999 NON TESSERATI FIDAL 01:13:19
    1738 MM50 180   389 CUSCITO Giuseppe 1955 BA005 AMATORI ATL. ACQUAVIVA 01:13:20
    1739 MF45    27  1392 ZAGARIA Giovanna 1961 BA507 A.MARATONETI ANDRIESI 01:13:21
    1740 MF60     2  1324 CICCIARELLI Teresa 1947 BA507 A.MARATONETI ANDRIESI 01:13:22
    1741 LIB 541  3052 DE MATTIA Antonio I 1948 BA999 NON TESSERATI FIDAL 01:13:23
    1742 LIB 542  3808 ZANETTI Pierluigi I 1966 BA999 NON TESSERATI FIDAL 01:13:24
    1743 LIB 543  2589 TRITTO Annamaria I 1968 BA999 NON TESSERATI FIDAL 01:13:24
    1744 LIB 544  3926 CATALANO Benedetta I 1111 BA999 NON TESSERATI FIDAL 01:13:26
    1745 MM75     2   876 BUX Nicola 1932 BA505 A.S. QUELLI DELLA PINETA 01:13:27
    1746 LIB 545  3854 FORTUNATO Giuseppe I 1961 BA999 NON TESSERATI FIDAL 01:13:28
    1747 MM55 92  1502 FILANNINO Ruggiero 1949 BA538 ATLETI  VALLE DELL'OFANTO 01:13:28
    1748 LIB 546  3349 MELE Alessio I 1988 BA999 NON TESSERATI FIDAL 01:13:29
    1749 LIB 547  3861 RESTA Eugenia I 1985 BA999 NON TESSERATI FIDAL 01:13:30
    1750 LIB 548  2721 TUNZI Pasquale I 1952 BA999 NON TESSERATI FIDAL 01:13:30
    1751 MM60 68  1487 CAMPANELLA Nicola 1946 BA550 AVIS IN CORSA CONVERSANO 01:13:34
    1752 LIB 549  3239 CALDARULO Onofrio I 1962 BA999 NON TESSERATI FIDAL 01:13:36
    1753 LIB 550  3451 MARCHIANO Luciano I 1966 BA999 NON TESSERATI FIDAL 01:13:44
    1754 MM80     1  1137 CHIMENTI Gennaro 1926 BA531 A.S.D. SAN NICOLA RUNNERS 01:13:46
    1755 LIB 551  3875 CICCO Enrico I 1959 BA999 NON TESSERATI FIDAL 01:13:49
    1756 LIB 552  2834 SANSONE Giuseppe I 1960 BA999 NON TESSERATI FIDAL 01:13:50
    1757 TM 103  1569 RIZZI Francesco 1977 BA543 MARATHON CLUB MINERVINO 01:13:51
    1758 MM35 115  1227 D'ITALIA Donato 1972 PZ555 PODISTICA HERMES LAVELLO 01:13:54
    1759 MM45 245  1230 BERGAMASCO Antonio Maur 1963 PZ555 PODISTICA HERMES LAVELLO 01:14:03
    1760 MM45 246  1233 PERRONE Antonio Leonard 1961 PZ555 PODISTICA HERMES LAVELLO 01:14:04
    1761 LIB 553  3522 MARRA Paolo I 1957 BA999 NON TESSERATI FIDAL 01:14:09
    1762 MM55 93  1239 CARLONE Michele 1953 PZ555 PODISTICA HERMES LAVELLO 01:14:11
    1763 MM45 247  1234 RIVIEZZO Mauro Giuseppe 1960 PZ555 PODISTICA HERMES LAVELLO 01:14:12
    1764 LIB 554  2858 MASELLIS Rita I 1970 BA999 NON TESSERATI FIDAL 01:14:25
    1765 LIB 555  3230 LIBERTI Chiara I 1981 BA999 NON TESSERATI FIDAL 01:14:27
    1766 LIB 556  2618 RANIERI Nicolangelo I 1944 BA999 NON TESSERATI FIDAL 01:14:31
    1767 LIB   557  3440 DE TULLIO Giovanni I 1948 BA999 NON TESSERATI FIDAL 01:14:33
    1768 MM70     8    17 DE CAROLIS Roberto 1938 BA551 ASS. NAZIONALE BERSAGLIERI BAR 01:14:34
    1769 MF40    32  1373 QUACQUARELLI Maria Gabr 1966 BA507 A.MARATONETI ANDRIESI 01:14:35
    1770 MM40 215  1411 LAPOLLA Domenico 1968 BA512 POL.GRAVINA AELECTI S.GRAMEGNA 01:14:36
    1771 MF55     3  1081 CATALANO Filomena 1951 BA062 A.S. KANKUDAI 01:14:37
    1772 LIB   558  3792 MORRONE Anastasia I 1950 BA999 NON TESSERATI FIDAL 01:14:38
    1773 MM55 94  1187 D'ALESSANDRO Sabino 1953 BA041 ATLETICA PRO CANOSA 01:14:39
    1774 LIB 559   318 BIANCO Francesco I 1946 BA999 NON TESSERATI FIDAL 01:14:40
    1775 LIB 560  3394 BOVENGA Valerio I 1978 BA999 NON TESSERATI FIDAL 01:14:41
    1776 LIB 561  2746 DE BERNARDIS Donato I 1989 BA999 NON TESSERATI FIDAL 01:14:44
    1777 LIB 562  2841 TURI Cosimo I 1948 BA999 NON TESSERATI FIDAL 01:14:46
    1778 LIB 563  2799 DE LETTERIS Gerardo I 1956 BA999 NON TESSERATI FIDAL 01:14:49
    1779 LIB 564  2732 CAPRIATI Leonardo I 1966 BA999 NON TESSERATI FIDAL 01:14:51
    1780 LIB 565  2250 SCARANO Giuseppe I 1960 BA999 NON TESSERATI FIDAL 01:14:52
    1781 MM55 95   149 PERNA Giuseppe Natale 1950 BA010 A.S.D. DOPOLAVORO FERROVIARIO 01:14:54
    1782 MF50     9  1332 DI BARI Angela 1954 BA507 A.MARATONETI ANDRIESI 01:14:55
    1783 LIB 566   291 ABBRESCIA Enza I 1111 BA999 NON TESSERATI FIDAL 01:14:59
    1784 MM50 181   779 PREZIOSA Francesco Leon 1956 BA582 SPORTING C. BISCEGLIE RUNNING 01:15:01
    1785 MM50 182   424 LAUDADIO Mariano 1954 BA555 AVIS PODISTICA MOLA 01:15:02
    1786 LIB 567  2770 ABBATEPAOLO Giuseppe I 1964 BA999 NON TESSERATI FIDAL 01:15:03
    1787 MM45 248   282 TERLIZZI Riccardo 1960 BA520 A.S. BARINCORSA 01:15:04
    1788 LIB 568  2818 CARADONNA Silvana I 1982 BA999 NON TESSERATI FIDAL 01:15:05
    1789 LIB 569  2815 AMORUSO Vito I 1969 BA999 NON TESSERATI FIDAL 01:15:06
    1790 LIB 570  2814 PENTIMONE Felicia I 1978 BA999 NON TESSERATI FIDAL 01:15:07
    1791 LIB 571  3393 CHIRIRONNA Domenico I 1976 BA999 NON TESSERATI FIDAL 01:15:08
    1792 MF50    10   403 LATARTARA Maria 1955 BA047 NUOVA ATL. FEMM. ACQUAVIVA 01:15:09
    1793 LIB 572   176 CALEFATO Teresa I 1962 BA999 NON TESSERATI FIDAL 01:15:10
    1794 MM65 23   480 RIZZITELLI Giuseppe 1939 BA544 ATLETICA DISFIDA DI BARLETTA 01:15:11
    1795 LIB 573  3778 ANCORA Luca I 1975 BA999 NON TESSERATI FIDAL 01:15:12
    1796 LIB 574  3337 RUSCIGNO Giuseppe I 1948 BA999 NON TESSERATI FIDAL 01:15:13
    1797 LIB 575  3844 RANIERI Romeo I 1961 BA999 NON TESSERATI FIDAL 01:15:14
    1798 LIB 576  2613 SERAFINI Luigi I 1964 BA999 NON TESSERATI FIDAL 01:15:15
    1799 LIB 577  3799 CAPORALE Gerardo I 1964 BA999 NON TESSERATI FIDAL 01:15:23
    1800 MM70 9 3621 DELL'ACCIO Vittorio 1935 BA082 ATLETICA TOMMASO ASSI TRANI 01:15:23
    1801 LIB 578  2603 PARTIPILO  Isabella I 1971 BA999 NON TESSERATI FIDAL 01:15:24
    1802 MF50    11   959 PROVENZANO Maria Rosari 1956 BA007 CUS BARI 01:15:25
    1803 LIB 579  2671 STRANIERO Fedele I 1971 BA999 NON TESSERATI FIDAL 01:15:26
    1804 LIB 580  3874 SCARDIGNO Paolo I 1971 BA999 NON TESSERATI FIDAL 01:15:27
    1805 LIB 581  2677 PATERNOSTER Renato I 1959 BA999 NON TESSERATI FIDAL 01:15:29
    1806 LIB 582  3225 MELE Alessandro I 1965 BA999 NON TESSERATI FIDAL 01:15:30
    1807 LIB 583  3498 CAMPANELLA Stefania I 1982 BA999 NON TESSERATI FIDAL 01:15:31
    1808 LIB 584  3927 PAIANO Caterina I 1111 BA999 NON TESSERATI FIDAL 01:15:32
    1809 LIB 585  3493 LAERA Eleonora I 1986 BA999 NON TESSERATI FIDAL 01:15:33
    1810 LIB 586  2835 VOLPE Maria I 1963 BA999 NON TESSERATI FIDAL 01:15:35
    1811 MM50 183   334 VALERIO Sebastiano 1955 BA039 A.S. AMICI STRADA DEL TESORO 01:15:36
    1813 MF55     4   225 TONDOLO Carmela 1949 BA522 MURGIA MARATHON ANDRIA 01:15:37
    1814 LIB 587   569 PELUSO Gennaro I 1945 BA999 NON TESSERATI FIDAL 01:15:38
    1815 LIB 588  2731 ARMENISE Armando I 1948 BA999 NON TESSERATI FIDAL 01:15:40
    1816 LIB 589  3446 PIRONE Luigi I 1971 BA999 NON TESSERATI FIDAL 01:15:45
    1817 LIB 590  2502 GIANNOCARO Nunzio I 1944 BA999 NON TESSERATI FIDAL 01:15:52
    1818 LIB 591  3501 PUPILLO Giuseppe I 1951 BA999 NON TESSERATI FIDAL 01:15:53
    1819 MM45 249  1109 MARZULLI Ignazio 1962 BA062 A.S. KANKUDAI 01:15:54
    1820 LIB 592  1682 SIMONE Fabio I 1962 BA999 NON TESSERATI FIDAL 01:15:55
    1821 LIB 593  3789 CATACCHIO Beniamina I 1962 BA999 NON TESSERATI FIDAL 01:15:55
    1822 LIB 594  3856 INGENITO Gabriella I 1970 BA999 NON TESSERATI FIDAL 01:15:57
    1823 LIB 595  3187 RAGONE Felice I 1960 BA999 NON TESSERATI FIDAL 01:16:00
    1824 LIB 596  2842 CORTIGIANO Antonio I 1974 BA999 NON TESSERATI FIDAL 01:16:00
    1825 LIB 597  2652 FANELLI Antonio I 1967 BA999 NON TESSERATI FIDAL 01:16:01
    1826 LIB 598  3925 CAMPANALE Pasqua I 1111 BA999 NON TESSERATI FIDAL 01:16:02
    1827 LIB 599 2762 LUCENTE Gaetano I 1960 BA999 NON TESSERATI FIDAL 01:16:05
    1828 TF 16  1416 RIVIELLO Giacomina 1974 BA512 POL.GRAVINA AELECTI S.GRAMEGNA 01:16:08
    1829 MM45 250  1407 CIRASOLA Michele 1960 BA512 POL.GRAVINA AELECTI S.GRAMEGNA 01:16:21
    1830 LIB 600  3343 LOZITO Vito I 1949 BA999 NON TESSERATI FIDAL 01:16:22
    1831 LIB 601  3780 CILIBERTI Domenico I 1961 BA999 NON TESSERATI FIDAL 01:16:23
    1832 LIB 602  3051 LINO Erika I 1981 BA999 NON TESSERATI FIDAL 01:16:29
    1833 LIB 603  3779 DE GIULIO Edgardo I 1959 BA999 NON TESSERATI FIDAL 01:16:31
    1834 MF50    12  1051 DI NUNNO Rosa 1956 BA509 POD. CANUSIUM 2004 01:16:32
    1835 LIB 604  3347 TARANTINI Filippo I 1964 BA999 NON TESSERATI FIDAL 01:16:39
    1836 LIB 605  3462 ZANNA Michele I 1963 BA999 NON TESSERATI FIDAL 01:16:41
    1837 MM40 216   555 SILIBERTO Pietro 1964 BR134 ASS. AMICI ATL.VILLA CASTELLI 01:16:42
    1838 TM 104   750 CARDAMONE Mario 1982 BA547 A.S.CORRIMONDO BITONTO 01:16:44
    1839 LIB 606  2651 COLAZZO Giulio I 1996 BA999 NON TESSERATI FIDAL 01:16:45
    1840 MM60 69   220 DI NANNI Saverio 1946 BA522 MURGIA MARATHON ANDRIA 01:16:46
    1841 MM35 116   199 COCCIA Domenico 1969 BA049 G.S.P. III REGIONE AEREA BARI 01:16:47
    1842 LIB 607  3857 STEFANELLI Simona I 1971 BA999 NON TESSERATI FIDAL 01:16:51
    1843 MM40 217  1123 TRIGGIANI Michele 1967 BA062 A.S. KANKUDAI 01:16:52
    1844 LIB 608  2251 FONTANA Elisabetta Lu I 1958 BA999 NON TESSERATI FIDAL 01:16:53
    1845 LIB 609  2252 MALCANGIO Rossella I 1962 BA999 NON TESSERATI FIDAL 01:16:54
    1846 LIB 610  3035 COLAIANNI Vito I 1937 BA999 NON TESSERATI FIDAL 01:17:08
    1847 TM 105  1321 CAVALIERE Giuseppe 1976 BA507 A.MARATONETI ANDRIESI 01:17:09
    1848 LIB 611  3454 FLAURET Francesca I 1976 BA999 NON TESSERATI FIDAL 01:17:13
    1849 MM55 96  1080 CALLEA Carlo 1949 BA062 A.S. KANKUDAI 01:17:23
    1850 TM 106  1595 TRISOLINI Martino 1974 BA502 A.S.D. MONTEDORO NOCI 01:17:25
    1851 MF45    28  1592 FASANO Rosa Maria 1963 BA502 A.S.D. MONTEDORO NOCI 01:17:31
    1852 MF60     3  1593 TARTARELLI Francesca 1946 BA502 A.S.D. MONTEDORO NOCI 01:17:33
    1853 LIB 612  3618 PARADISO Vincenzo I 1958 BA999 NON TESSERATI FIDAL 01:17:35
    1854 MF55     5    22 PAPARELLA Francesca 1951 BA551 ASS. NAZIONALE BERSAGLIERI BAR 01:17:44
    1855 MM65 24   151 DI TERLIZZI Gaetano 1939 BA010 A.S.D. DOPOLAVORO FERROVIARIO 01:17:58
    1856 LIB 613  2991 DEPALMA Loredana I 1986 BA999 NON TESSERATI FIDAL 01:18:00
    1857 LIB 614  2734 NOCERINO Francesco I 1958 BA999 NON TESSERATI FIDAL 01:18:05
    1858 LIB 615  1681 FIERLI Sergio I 1911 BA999 NON TESSERATI FIDAL 01:18:06
    1859 LIB 616  3631 ANCONA Gaetano I 1933 BA999 NON TESSERATI FIDAL 01:18:06
    1860 LIB 617  3443 PIRONE Lucio I 1976 BA999 NON TESSERATI FIDAL 01:18:09
    1861 MM55 97   332 RUBINO Giovanni 1952 BA039 A.S. AMICI STRADA DEL TESORO 01:18:12
    1862 LIB 618  3558 DELLA CORTE Ernest I 1111 BA999 NON TESSERATI FIDAL 01:18:12
    1863 LIB 619  3021 CATALDO Monica I 1975 BA999 NON TESSERATI FIDAL 01:18:14
    1864 LIB 620  3281 TERRANOVA Francesco I 1951 BA999 NON TESSERATI FIDAL 01:18:19
    1865 LIB 621  3022 TITO Ilario I 1978 BA999 NON TESSERATI FIDAL 01:18:20
    1866 MM35 117   811 D'AGOSTINO Raffaele 1971 BA099 POL. 'D. PIETRI' GRAVINA